<?xml version="1.0" encoding="UTF-8" standalone="no" ?>
<gpx xmlns="http://www.topografix.com/GPX/1/1" xmlns:xsi="http://www.w3.org/2001/XMLSchema-instance" xsi:schemaLocation="http://www.topografix.com/GPX/1/1 http://www.topografix.com/GPX/1/1/gpx.xsd" version="1.1" creator="VisuGPX - https://www.visugpx.com">
  <metadata>
    <name>La Montagne de Miélandre Sommet Nord</name>
    <desc><![CDATA[Magnifique randonnée sur les hauteurs de la Drôme ! A éviter les lendemains de pluie, le sol dans les bois devient très glissant. Descente raide, mais courte. Avec un peu de chance, on peut voir des chamois et des chevreuils. Arrêt très sympathique au GITE du col de Blanc chez Bernard et Véronique : un faucon du nom d\'Eta, vous fera l\'animation...Quant à la vue du sommet de Miélandre, elle vaut la montée ! Panorama superbe, notamment sur la face nord du Mont Ventoux. Bref, une rando à faire ou à refaire d\'urgence !]]></desc>
  </metadata>
  <trk>
    <name><![CDATA[MIELANDRE 04]]></name>
    <trkseg>
      <trkpt lat="44.48894" lon="5.16128">
        <ele>591.83</ele>
        <time>2012-05-26T08:04:53Z</time>
      </trkpt>
      <trkpt lat="44.48893" lon="5.16129">
        <ele>591.83</ele>
        <time>2012-05-26T08:04:54Z</time>
      </trkpt>
      <trkpt lat="44.48893" lon="5.16126">
        <ele>595.67</ele>
        <time>2012-05-26T08:04:59Z</time>
      </trkpt>
      <trkpt lat="44.48893" lon="5.16124">
        <ele>599.04</ele>
        <time>2012-05-26T08:05:01Z</time>
      </trkpt>
      <trkpt lat="44.48894" lon="5.16124">
        <ele>602.4</ele>
        <time>2012-05-26T08:05:03Z</time>
      </trkpt>
      <trkpt lat="44.48894" lon="5.16124">
        <ele>605.29</ele>
        <time>2012-05-26T08:05:05Z</time>
      </trkpt>
      <trkpt lat="44.48894" lon="5.16124">
        <ele>608.17</ele>
        <time>2012-05-26T08:05:07Z</time>
      </trkpt>
      <trkpt lat="44.48894" lon="5.16123">
        <ele>612.5</ele>
        <time>2012-05-26T08:05:10Z</time>
      </trkpt>
      <trkpt lat="44.48894" lon="5.16122">
        <ele>616.34</ele>
        <time>2012-05-26T08:05:13Z</time>
      </trkpt>
      <trkpt lat="44.48894" lon="5.16122">
        <ele>619.71</ele>
        <time>2012-05-26T08:05:16Z</time>
      </trkpt>
      <trkpt lat="44.48894" lon="5.16121">
        <ele>623.55</ele>
        <time>2012-05-26T08:05:20Z</time>
      </trkpt>
      <trkpt lat="44.48894" lon="5.16122">
        <ele>627.4</ele>
        <time>2012-05-26T08:05:24Z</time>
      </trkpt>
      <trkpt lat="44.48895" lon="5.16121">
        <ele>630.76</ele>
        <time>2012-05-26T08:05:28Z</time>
      </trkpt>
      <trkpt lat="44.48895" lon="5.16122">
        <ele>634.13</ele>
        <time>2012-05-26T08:05:32Z</time>
      </trkpt>
      <trkpt lat="44.48896" lon="5.16125">
        <ele>637.01</ele>
        <time>2012-05-26T08:05:37Z</time>
      </trkpt>
      <trkpt lat="44.48895" lon="5.16122">
        <ele>640.86</ele>
        <time>2012-05-26T08:05:44Z</time>
      </trkpt>
      <trkpt lat="44.48895" lon="5.16123">
        <ele>641.34</ele>
        <time>2012-05-26T08:05:46Z</time>
      </trkpt>
      <trkpt lat="44.48894" lon="5.16122">
        <ele>644.7</ele>
        <time>2012-05-26T08:05:53Z</time>
      </trkpt>
      <trkpt lat="44.48893" lon="5.16123">
        <ele>647.59</ele>
        <time>2012-05-26T08:06:04Z</time>
      </trkpt>
      <trkpt lat="44.48894" lon="5.16121">
        <ele>650.95</ele>
        <time>2012-05-26T08:06:20Z</time>
      </trkpt>
      <trkpt lat="44.48897" lon="5.16123">
        <ele>653.83</ele>
        <time>2012-05-26T08:06:43Z</time>
      </trkpt>
      <trkpt lat="44.48897" lon="5.16124">
        <ele>655.28</ele>
        <time>2012-05-26T08:07:19Z</time>
      </trkpt>
      <trkpt lat="44.48896" lon="5.16126">
        <ele>655.76</ele>
        <time>2012-05-26T08:07:57Z</time>
      </trkpt>
      <trkpt lat="44.48896" lon="5.16125">
        <ele>655.28</ele>
        <time>2012-05-26T08:08:38Z</time>
      </trkpt>
      <trkpt lat="44.48897" lon="5.16125">
        <ele>655.28</ele>
        <time>2012-05-26T08:09:19Z</time>
      </trkpt>
      <trkpt lat="44.48896" lon="5.16125">
        <ele>654.8</ele>
        <time>2012-05-26T08:09:36Z</time>
      </trkpt>
      <trkpt lat="44.48894" lon="5.16127">
        <ele>654.8</ele>
        <time>2012-05-26T08:09:50Z</time>
      </trkpt>
      <trkpt lat="44.48892" lon="5.16129">
        <ele>655.28</ele>
        <time>2012-05-26T08:10:05Z</time>
      </trkpt>
      <trkpt lat="44.48892" lon="5.1613">
        <ele>654.8</ele>
        <time>2012-05-26T08:10:17Z</time>
      </trkpt>
      <trkpt lat="44.48891" lon="5.16131">
        <ele>655.76</ele>
        <time>2012-05-26T08:10:35Z</time>
      </trkpt>
      <trkpt lat="44.48891" lon="5.1613">
        <ele>655.28</ele>
        <time>2012-05-26T08:10:51Z</time>
      </trkpt>
      <trkpt lat="44.48892" lon="5.1613">
        <ele>652.39</ele>
        <time>2012-05-26T08:11:16Z</time>
      </trkpt>
      <trkpt lat="44.48892" lon="5.16129">
        <ele>657.68</ele>
        <time>2012-05-26T08:11:18Z</time>
      </trkpt>
      <trkpt lat="44.48892" lon="5.16129">
        <ele>654.8</ele>
        <time>2012-05-26T08:11:28Z</time>
      </trkpt>
      <trkpt lat="44.48892" lon="5.1613">
        <ele>654.31</ele>
        <time>2012-05-26T08:11:49Z</time>
      </trkpt>
      <trkpt lat="44.48893" lon="5.16131">
        <ele>654.31</ele>
        <time>2012-05-26T08:12:17Z</time>
      </trkpt>
      <trkpt lat="44.48893" lon="5.16132">
        <ele>654.31</ele>
        <time>2012-05-26T08:12:39Z</time>
      </trkpt>
      <trkpt lat="44.48892" lon="5.16131">
        <ele>654.31</ele>
        <time>2012-05-26T08:13:04Z</time>
      </trkpt>
      <trkpt lat="44.4889" lon="5.16131">
        <ele>653.83</ele>
        <time>2012-05-26T08:13:36Z</time>
      </trkpt>
      <trkpt lat="44.4889" lon="5.16132">
        <ele>653.83</ele>
        <time>2012-05-26T08:14:07Z</time>
      </trkpt>
      <trkpt lat="44.4889" lon="5.16133">
        <ele>653.35</ele>
        <time>2012-05-26T08:14:39Z</time>
      </trkpt>
      <trkpt lat="44.4889" lon="5.16134">
        <ele>653.35</ele>
        <time>2012-05-26T08:15:08Z</time>
      </trkpt>
      <trkpt lat="44.4889" lon="5.16133">
        <ele>653.83</ele>
        <time>2012-05-26T08:15:29Z</time>
      </trkpt>
      <trkpt lat="44.4889" lon="5.16133">
        <ele>653.83</ele>
        <time>2012-05-26T08:15:40Z</time>
      </trkpt>
      <trkpt lat="44.48888" lon="5.16129">
        <ele>653.35</ele>
        <time>2012-05-26T08:15:58Z</time>
      </trkpt>
      <trkpt lat="44.48888" lon="5.16128">
        <ele>653.83</ele>
        <time>2012-05-26T08:16:11Z</time>
      </trkpt>
      <trkpt lat="44.48889" lon="5.16129">
        <ele>653.35</ele>
        <time>2012-05-26T08:16:37Z</time>
      </trkpt>
      <trkpt lat="44.4889" lon="5.16129">
        <ele>653.35</ele>
        <time>2012-05-26T08:17:01Z</time>
      </trkpt>
      <trkpt lat="44.4889" lon="5.1613">
        <ele>653.35</ele>
        <time>2012-05-26T08:17:27Z</time>
      </trkpt>
      <trkpt lat="44.4889" lon="5.16131">
        <ele>652.87</ele>
        <time>2012-05-26T08:17:45Z</time>
      </trkpt>
      <trkpt lat="44.48891" lon="5.1613">
        <ele>653.35</ele>
        <time>2012-05-26T08:18:14Z</time>
      </trkpt>
      <trkpt lat="44.48892" lon="5.16131">
        <ele>652.87</ele>
        <time>2012-05-26T08:18:42Z</time>
      </trkpt>
      <trkpt lat="44.48889" lon="5.16133">
        <ele>652.87</ele>
        <time>2012-05-26T08:18:57Z</time>
      </trkpt>
      <trkpt lat="44.48878" lon="5.16147">
        <ele>653.35</ele>
        <time>2012-05-26T08:19:10Z</time>
      </trkpt>
      <trkpt lat="44.4886" lon="5.16164">
        <ele>654.31</ele>
        <time>2012-05-26T08:19:27Z</time>
      </trkpt>
      <trkpt lat="44.48852" lon="5.16171">
        <ele>654.31</ele>
        <time>2012-05-26T08:19:34Z</time>
      </trkpt>
      <trkpt lat="44.48833" lon="5.16182">
        <ele>654.8</ele>
        <time>2012-05-26T08:19:49Z</time>
      </trkpt>
      <trkpt lat="44.4882" lon="5.16197">
        <ele>655.76</ele>
        <time>2012-05-26T08:20:03Z</time>
      </trkpt>
      <trkpt lat="44.48808" lon="5.16219">
        <ele>655.76</ele>
        <time>2012-05-26T08:20:17Z</time>
      </trkpt>
      <trkpt lat="44.48802" lon="5.16245">
        <ele>656.72</ele>
        <time>2012-05-26T08:20:31Z</time>
      </trkpt>
      <trkpt lat="44.48797" lon="5.16269">
        <ele>657.68</ele>
        <time>2012-05-26T08:20:46Z</time>
      </trkpt>
      <trkpt lat="44.48795" lon="5.16281">
        <ele>657.68</ele>
        <time>2012-05-26T08:20:52Z</time>
      </trkpt>
      <trkpt lat="44.48786" lon="5.16309">
        <ele>659.6</ele>
        <time>2012-05-26T08:21:08Z</time>
      </trkpt>
      <trkpt lat="44.48775" lon="5.16336">
        <ele>660.56</ele>
        <time>2012-05-26T08:21:25Z</time>
      </trkpt>
      <trkpt lat="44.48767" lon="5.16355">
        <ele>660.56</ele>
        <time>2012-05-26T08:21:38Z</time>
      </trkpt>
      <trkpt lat="44.48766" lon="5.16356">
        <ele>661.04</ele>
        <time>2012-05-26T08:21:39Z</time>
      </trkpt>
      <trkpt lat="44.48764" lon="5.16361">
        <ele>662.01</ele>
        <time>2012-05-26T08:21:42Z</time>
      </trkpt>
      <trkpt lat="44.48754" lon="5.16389">
        <ele>662.49</ele>
        <time>2012-05-26T08:21:58Z</time>
      </trkpt>
      <trkpt lat="44.48749" lon="5.16414">
        <ele>662.97</ele>
        <time>2012-05-26T08:22:12Z</time>
      </trkpt>
      <trkpt lat="44.48746" lon="5.1642">
        <ele>662.97</ele>
        <time>2012-05-26T08:22:15Z</time>
      </trkpt>
      <trkpt lat="44.48742" lon="5.16439">
        <ele>664.41</ele>
        <time>2012-05-26T08:22:28Z</time>
      </trkpt>
      <trkpt lat="44.4873" lon="5.16464">
        <ele>665.85</ele>
        <time>2012-05-26T08:22:42Z</time>
      </trkpt>
      <trkpt lat="44.48726" lon="5.16472">
        <ele>666.33</ele>
        <time>2012-05-26T08:22:47Z</time>
      </trkpt>
      <trkpt lat="44.48711" lon="5.1649">
        <ele>667.29</ele>
        <time>2012-05-26T08:23:01Z</time>
      </trkpt>
      <trkpt lat="44.48696" lon="5.16506">
        <ele>668.25</ele>
        <time>2012-05-26T08:23:16Z</time>
      </trkpt>
      <trkpt lat="44.48679" lon="5.16526">
        <ele>669.22</ele>
        <time>2012-05-26T08:23:30Z</time>
      </trkpt>
      <trkpt lat="44.48668" lon="5.16541">
        <ele>670.18</ele>
        <time>2012-05-26T08:23:43Z</time>
      </trkpt>
      <trkpt lat="44.48653" lon="5.16559">
        <ele>671.62</ele>
        <time>2012-05-26T08:23:59Z</time>
      </trkpt>
      <trkpt lat="44.48637" lon="5.16579">
        <ele>673.54</ele>
        <time>2012-05-26T08:24:14Z</time>
      </trkpt>
      <trkpt lat="44.48622" lon="5.16596">
        <ele>674.98</ele>
        <time>2012-05-26T08:24:28Z</time>
      </trkpt>
      <trkpt lat="44.4861" lon="5.16614">
        <ele>677.39</ele>
        <time>2012-05-26T08:24:43Z</time>
      </trkpt>
      <trkpt lat="44.48602" lon="5.16624">
        <ele>677.39</ele>
        <time>2012-05-26T08:24:52Z</time>
      </trkpt>
      <trkpt lat="44.48599" lon="5.1663">
        <ele>677.39</ele>
        <time>2012-05-26T08:24:55Z</time>
      </trkpt>
      <trkpt lat="44.48582" lon="5.16647">
        <ele>678.35</ele>
        <time>2012-05-26T08:25:10Z</time>
      </trkpt>
      <trkpt lat="44.48573" lon="5.1666">
        <ele>677.87</ele>
        <time>2012-05-26T08:25:26Z</time>
      </trkpt>
      <trkpt lat="44.48574" lon="5.16659">
        <ele>678.35</ele>
        <time>2012-05-26T08:25:36Z</time>
      </trkpt>
      <trkpt lat="44.48567" lon="5.16673">
        <ele>678.83</ele>
        <time>2012-05-26T08:25:45Z</time>
      </trkpt>
      <trkpt lat="44.48554" lon="5.16698">
        <ele>680.27</ele>
        <time>2012-05-26T08:26:00Z</time>
      </trkpt>
      <trkpt lat="44.48548" lon="5.16721">
        <ele>682.19</ele>
        <time>2012-05-26T08:26:13Z</time>
      </trkpt>
      <trkpt lat="44.48545" lon="5.16747">
        <ele>683.15</ele>
        <time>2012-05-26T08:26:27Z</time>
      </trkpt>
      <trkpt lat="44.48542" lon="5.16773">
        <ele>684.6</ele>
        <time>2012-05-26T08:26:42Z</time>
      </trkpt>
      <trkpt lat="44.48537" lon="5.16791">
        <ele>686.04</ele>
        <time>2012-05-26T08:26:56Z</time>
      </trkpt>
      <trkpt lat="44.48532" lon="5.16808">
        <ele>686.04</ele>
        <time>2012-05-26T08:27:03Z</time>
      </trkpt>
      <trkpt lat="44.48521" lon="5.16833">
        <ele>687.48</ele>
        <time>2012-05-26T08:27:18Z</time>
      </trkpt>
      <trkpt lat="44.48517" lon="5.16842">
        <ele>687.96</ele>
        <time>2012-05-26T08:27:23Z</time>
      </trkpt>
      <trkpt lat="44.48513" lon="5.1685">
        <ele>688.44</ele>
        <time>2012-05-26T08:27:27Z</time>
      </trkpt>
      <trkpt lat="44.48503" lon="5.16881">
        <ele>690.84</ele>
        <time>2012-05-26T08:27:44Z</time>
      </trkpt>
      <trkpt lat="44.48491" lon="5.1691">
        <ele>692.29</ele>
        <time>2012-05-26T08:28:01Z</time>
      </trkpt>
      <trkpt lat="44.4848" lon="5.1692">
        <ele>692.77</ele>
        <time>2012-05-26T08:28:10Z</time>
      </trkpt>
      <trkpt lat="44.48474" lon="5.16926">
        <ele>693.25</ele>
        <time>2012-05-26T08:28:15Z</time>
      </trkpt>
      <trkpt lat="44.48462" lon="5.16949">
        <ele>693.73</ele>
        <time>2012-05-26T08:28:29Z</time>
      </trkpt>
      <trkpt lat="44.48455" lon="5.16977">
        <ele>689.88</ele>
        <time>2012-05-26T08:28:44Z</time>
      </trkpt>
      <trkpt lat="44.48455" lon="5.16979">
        <ele>700.46</ele>
        <time>2012-05-26T08:28:45Z</time>
      </trkpt>
      <trkpt lat="44.48455" lon="5.1698">
        <ele>694.69</ele>
        <time>2012-05-26T08:28:46Z</time>
      </trkpt>
      <trkpt lat="44.48452" lon="5.16998">
        <ele>691.81</ele>
        <time>2012-05-26T08:28:55Z</time>
      </trkpt>
      <trkpt lat="44.48452" lon="5.16999">
        <ele>693.25</ele>
        <time>2012-05-26T08:28:56Z</time>
      </trkpt>
      <trkpt lat="44.48451" lon="5.17001">
        <ele>696.61</ele>
        <time>2012-05-26T08:28:57Z</time>
      </trkpt>
      <trkpt lat="44.4845" lon="5.17006">
        <ele>693.25</ele>
        <time>2012-05-26T08:29:00Z</time>
      </trkpt>
      <trkpt lat="44.48449" lon="5.17008">
        <ele>694.21</ele>
        <time>2012-05-26T08:29:01Z</time>
      </trkpt>
      <trkpt lat="44.48448" lon="5.17011">
        <ele>690.36</ele>
        <time>2012-05-26T08:29:03Z</time>
      </trkpt>
      <trkpt lat="44.48447" lon="5.17013">
        <ele>702.86</ele>
        <time>2012-05-26T08:29:04Z</time>
      </trkpt>
      <trkpt lat="44.48447" lon="5.17015">
        <ele>696.13</ele>
        <time>2012-05-26T08:29:05Z</time>
      </trkpt>
      <trkpt lat="44.48444" lon="5.17022">
        <ele>690.36</ele>
        <time>2012-05-26T08:29:09Z</time>
      </trkpt>
      <trkpt lat="44.48444" lon="5.17024">
        <ele>695.65</ele>
        <time>2012-05-26T08:29:10Z</time>
      </trkpt>
      <trkpt lat="44.48443" lon="5.17028">
        <ele>707.67</ele>
        <time>2012-05-26T08:29:12Z</time>
      </trkpt>
      <trkpt lat="44.48442" lon="5.1703">
        <ele>697.09</ele>
        <time>2012-05-26T08:29:13Z</time>
      </trkpt>
      <trkpt lat="44.48433" lon="5.17057">
        <ele>698.05</ele>
        <time>2012-05-26T08:29:29Z</time>
      </trkpt>
      <trkpt lat="44.4843" lon="5.17077">
        <ele>698.53</ele>
        <time>2012-05-26T08:29:41Z</time>
      </trkpt>
      <trkpt lat="44.48422" lon="5.17103">
        <ele>699.5</ele>
        <time>2012-05-26T08:29:57Z</time>
      </trkpt>
      <trkpt lat="44.48405" lon="5.17131">
        <ele>700.94</ele>
        <time>2012-05-26T08:30:16Z</time>
      </trkpt>
      <trkpt lat="44.48404" lon="5.17132">
        <ele>701.42</ele>
        <time>2012-05-26T08:30:17Z</time>
      </trkpt>
      <trkpt lat="44.484" lon="5.17138">
        <ele>701.9</ele>
        <time>2012-05-26T08:30:24Z</time>
      </trkpt>
      <trkpt lat="44.4838" lon="5.17156">
        <ele>703.34</ele>
        <time>2012-05-26T08:30:40Z</time>
      </trkpt>
      <trkpt lat="44.48367" lon="5.17171">
        <ele>704.78</ele>
        <time>2012-05-26T08:30:54Z</time>
      </trkpt>
      <trkpt lat="44.48347" lon="5.17197">
        <ele>706.23</ele>
        <time>2012-05-26T08:31:12Z</time>
      </trkpt>
      <trkpt lat="44.48338" lon="5.17221">
        <ele>707.19</ele>
        <time>2012-05-26T08:31:27Z</time>
      </trkpt>
      <trkpt lat="44.48337" lon="5.17222">
        <ele>707.67</ele>
        <time>2012-05-26T08:31:28Z</time>
      </trkpt>
      <trkpt lat="44.48326" lon="5.17253">
        <ele>709.59</ele>
        <time>2012-05-26T08:31:47Z</time>
      </trkpt>
      <trkpt lat="44.48328" lon="5.17282">
        <ele>711.99</ele>
        <time>2012-05-26T08:32:04Z</time>
      </trkpt>
      <trkpt lat="44.48332" lon="5.17313">
        <ele>713.44</ele>
        <time>2012-05-26T08:32:20Z</time>
      </trkpt>
      <trkpt lat="44.48337" lon="5.1735">
        <ele>715.36</ele>
        <time>2012-05-26T08:32:39Z</time>
      </trkpt>
      <trkpt lat="44.48334" lon="5.17385">
        <ele>717.76</ele>
        <time>2012-05-26T08:32:57Z</time>
      </trkpt>
      <trkpt lat="44.48333" lon="5.1741">
        <ele>720.65</ele>
        <time>2012-05-26T08:33:11Z</time>
      </trkpt>
      <trkpt lat="44.48337" lon="5.17425">
        <ele>721.61</ele>
        <time>2012-05-26T08:33:20Z</time>
      </trkpt>
      <trkpt lat="44.48348" lon="5.17447">
        <ele>724.01</ele>
        <time>2012-05-26T08:33:35Z</time>
      </trkpt>
      <trkpt lat="44.48357" lon="5.1746">
        <ele>726.41</ele>
        <time>2012-05-26T08:33:47Z</time>
      </trkpt>
      <trkpt lat="44.48371" lon="5.17482">
        <ele>728.34</ele>
        <time>2012-05-26T08:34:02Z</time>
      </trkpt>
      <trkpt lat="44.48386" lon="5.17509">
        <ele>730.26</ele>
        <time>2012-05-26T08:34:19Z</time>
      </trkpt>
      <trkpt lat="44.48391" lon="5.17537">
        <ele>732.18</ele>
        <time>2012-05-26T08:34:35Z</time>
      </trkpt>
      <trkpt lat="44.48407" lon="5.1756">
        <ele>734.58</ele>
        <time>2012-05-26T08:34:51Z</time>
      </trkpt>
      <trkpt lat="44.48422" lon="5.1758">
        <ele>736.99</ele>
        <time>2012-05-26T08:35:06Z</time>
      </trkpt>
      <trkpt lat="44.48431" lon="5.1759">
        <ele>737.95</ele>
        <time>2012-05-26T08:35:14Z</time>
      </trkpt>
      <trkpt lat="44.48437" lon="5.17597">
        <ele>738.43</ele>
        <time>2012-05-26T08:35:20Z</time>
      </trkpt>
      <trkpt lat="44.48449" lon="5.17613">
        <ele>740.83</ele>
        <time>2012-05-26T08:35:34Z</time>
      </trkpt>
      <trkpt lat="44.48452" lon="5.17622">
        <ele>741.31</ele>
        <time>2012-05-26T08:35:39Z</time>
      </trkpt>
      <trkpt lat="44.48457" lon="5.17639">
        <ele>742.76</ele>
        <time>2012-05-26T08:35:49Z</time>
      </trkpt>
      <trkpt lat="44.4846" lon="5.17646">
        <ele>743.24</ele>
        <time>2012-05-26T08:35:53Z</time>
      </trkpt>
      <trkpt lat="44.48465" lon="5.1766">
        <ele>744.2</ele>
        <time>2012-05-26T08:36:01Z</time>
      </trkpt>
      <trkpt lat="44.48467" lon="5.17671">
        <ele>745.64</ele>
        <time>2012-05-26T08:36:08Z</time>
      </trkpt>
      <trkpt lat="44.48479" lon="5.17691">
        <ele>747.56</ele>
        <time>2012-05-26T08:36:22Z</time>
      </trkpt>
      <trkpt lat="44.48482" lon="5.17696">
        <ele>748.04</ele>
        <time>2012-05-26T08:36:26Z</time>
      </trkpt>
      <trkpt lat="44.48489" lon="5.17705">
        <ele>749</ele>
        <time>2012-05-26T08:36:33Z</time>
      </trkpt>
      <trkpt lat="44.48507" lon="5.17723">
        <ele>750.93</ele>
        <time>2012-05-26T08:36:49Z</time>
      </trkpt>
      <trkpt lat="44.4852" lon="5.17739">
        <ele>753.33</ele>
        <time>2012-05-26T08:37:04Z</time>
      </trkpt>
      <trkpt lat="44.48527" lon="5.17748">
        <ele>754.77</ele>
        <time>2012-05-26T08:37:12Z</time>
      </trkpt>
      <trkpt lat="44.48537" lon="5.17774">
        <ele>758.14</ele>
        <time>2012-05-26T08:37:30Z</time>
      </trkpt>
      <trkpt lat="44.48543" lon="5.17782">
        <ele>759.58</ele>
        <time>2012-05-26T08:37:36Z</time>
      </trkpt>
      <trkpt lat="44.48557" lon="5.17795">
        <ele>761.5</ele>
        <time>2012-05-26T08:37:51Z</time>
      </trkpt>
      <trkpt lat="44.48571" lon="5.17809">
        <ele>764.39</ele>
        <time>2012-05-26T08:38:06Z</time>
      </trkpt>
      <trkpt lat="44.48574" lon="5.17818">
        <ele>767.27</ele>
        <time>2012-05-26T08:38:19Z</time>
      </trkpt>
      <trkpt lat="44.48579" lon="5.17812">
        <ele>765.83</ele>
        <time>2012-05-26T08:38:33Z</time>
      </trkpt>
      <trkpt lat="44.4858" lon="5.17809">
        <ele>765.83</ele>
        <time>2012-05-26T08:38:35Z</time>
      </trkpt>
      <trkpt lat="44.4858" lon="5.17802">
        <ele>766.31</ele>
        <time>2012-05-26T08:38:39Z</time>
      </trkpt>
      <trkpt lat="44.48581" lon="5.17796">
        <ele>766.79</ele>
        <time>2012-05-26T08:38:42Z</time>
      </trkpt>
      <trkpt lat="44.48597" lon="5.17781">
        <ele>768.23</ele>
        <time>2012-05-26T08:38:56Z</time>
      </trkpt>
      <trkpt lat="44.48598" lon="5.17777">
        <ele>768.23</ele>
        <time>2012-05-26T08:38:59Z</time>
      </trkpt>
      <trkpt lat="44.486" lon="5.17764">
        <ele>768.71</ele>
        <time>2012-05-26T08:39:05Z</time>
      </trkpt>
      <trkpt lat="44.48599" lon="5.17759">
        <ele>768.71</ele>
        <time>2012-05-26T08:39:08Z</time>
      </trkpt>
      <trkpt lat="44.486" lon="5.17742">
        <ele>769.67</ele>
        <time>2012-05-26T08:39:16Z</time>
      </trkpt>
      <trkpt lat="44.48601" lon="5.17736">
        <ele>769.19</ele>
        <time>2012-05-26T08:39:19Z</time>
      </trkpt>
      <trkpt lat="44.48601" lon="5.17716">
        <ele>770.15</ele>
        <time>2012-05-26T08:39:29Z</time>
      </trkpt>
      <trkpt lat="44.48594" lon="5.17698">
        <ele>772.08</ele>
        <time>2012-05-26T08:39:41Z</time>
      </trkpt>
      <trkpt lat="44.48594" lon="5.17694">
        <ele>772.56</ele>
        <time>2012-05-26T08:39:43Z</time>
      </trkpt>
      <trkpt lat="44.48599" lon="5.17688">
        <ele>774.48</ele>
        <time>2012-05-26T08:39:51Z</time>
      </trkpt>
      <trkpt lat="44.48601" lon="5.17689">
        <ele>774.96</ele>
        <time>2012-05-26T08:39:53Z</time>
      </trkpt>
      <trkpt lat="44.4862" lon="5.17711">
        <ele>777.84</ele>
        <time>2012-05-26T08:40:11Z</time>
      </trkpt>
      <trkpt lat="44.48634" lon="5.17729">
        <ele>780.25</ele>
        <time>2012-05-26T08:40:27Z</time>
      </trkpt>
      <trkpt lat="44.48648" lon="5.17746">
        <ele>783.61</ele>
        <time>2012-05-26T08:40:43Z</time>
      </trkpt>
      <trkpt lat="44.48663" lon="5.17758">
        <ele>786.98</ele>
        <time>2012-05-26T08:40:58Z</time>
      </trkpt>
      <trkpt lat="44.48666" lon="5.17761">
        <ele>786.98</ele>
        <time>2012-05-26T08:41:13Z</time>
      </trkpt>
      <trkpt lat="44.48672" lon="5.17766">
        <ele>788.9</ele>
        <time>2012-05-26T08:41:21Z</time>
      </trkpt>
      <trkpt lat="44.48687" lon="5.17772">
        <ele>791.78</ele>
        <time>2012-05-26T08:41:34Z</time>
      </trkpt>
      <trkpt lat="44.48703" lon="5.17784">
        <ele>794.19</ele>
        <time>2012-05-26T08:41:49Z</time>
      </trkpt>
      <trkpt lat="44.48706" lon="5.17786">
        <ele>795.15</ele>
        <time>2012-05-26T08:41:51Z</time>
      </trkpt>
      <trkpt lat="44.48723" lon="5.1779">
        <ele>797.55</ele>
        <time>2012-05-26T08:42:06Z</time>
      </trkpt>
      <trkpt lat="44.48737" lon="5.17796">
        <ele>798.99</ele>
        <time>2012-05-26T08:42:17Z</time>
      </trkpt>
      <trkpt lat="44.48744" lon="5.17805">
        <ele>800.92</ele>
        <time>2012-05-26T08:42:30Z</time>
      </trkpt>
      <trkpt lat="44.48744" lon="5.1781">
        <ele>800.92</ele>
        <time>2012-05-26T08:42:39Z</time>
      </trkpt>
      <trkpt lat="44.48746" lon="5.17813">
        <ele>801.4</ele>
        <time>2012-05-26T08:42:41Z</time>
      </trkpt>
      <trkpt lat="44.48757" lon="5.1783">
        <ele>804.28</ele>
        <time>2012-05-26T08:42:55Z</time>
      </trkpt>
      <trkpt lat="44.48767" lon="5.17851">
        <ele>807.16</ele>
        <time>2012-05-26T08:43:10Z</time>
      </trkpt>
      <trkpt lat="44.48777" lon="5.17878">
        <ele>809.57</ele>
        <time>2012-05-26T08:43:27Z</time>
      </trkpt>
      <trkpt lat="44.4878" lon="5.17885">
        <ele>810.05</ele>
        <time>2012-05-26T08:43:39Z</time>
      </trkpt>
      <trkpt lat="44.48787" lon="5.17897">
        <ele>811.49</ele>
        <time>2012-05-26T08:43:53Z</time>
      </trkpt>
      <trkpt lat="44.48785" lon="5.17901">
        <ele>811.97</ele>
        <time>2012-05-26T08:44:11Z</time>
      </trkpt>
      <trkpt lat="44.48785" lon="5.17897">
        <ele>811.49</ele>
        <time>2012-05-26T08:44:28Z</time>
      </trkpt>
      <trkpt lat="44.48785" lon="5.17895">
        <ele>811.49</ele>
        <time>2012-05-26T08:44:38Z</time>
      </trkpt>
      <trkpt lat="44.48785" lon="5.17893">
        <ele>811.01</ele>
        <time>2012-05-26T08:44:40Z</time>
      </trkpt>
      <trkpt lat="44.48787" lon="5.1788">
        <ele>811.97</ele>
        <time>2012-05-26T08:44:48Z</time>
      </trkpt>
      <trkpt lat="44.48788" lon="5.17869">
        <ele>812.45</ele>
        <time>2012-05-26T08:44:54Z</time>
      </trkpt>
      <trkpt lat="44.48799" lon="5.17845">
        <ele>813.41</ele>
        <time>2012-05-26T08:45:11Z</time>
      </trkpt>
      <trkpt lat="44.48799" lon="5.17844">
        <ele>813.89</ele>
        <time>2012-05-26T08:45:18Z</time>
      </trkpt>
      <trkpt lat="44.48798" lon="5.17839">
        <ele>813.89</ele>
        <time>2012-05-26T08:45:21Z</time>
      </trkpt>
      <trkpt lat="44.4879" lon="5.17812">
        <ele>815.34</ele>
        <time>2012-05-26T08:45:37Z</time>
      </trkpt>
      <trkpt lat="44.48789" lon="5.17809">
        <ele>815.34</ele>
        <time>2012-05-26T08:45:40Z</time>
      </trkpt>
      <trkpt lat="44.48789" lon="5.17805">
        <ele>815.34</ele>
        <time>2012-05-26T08:45:42Z</time>
      </trkpt>
      <trkpt lat="44.48785" lon="5.17789">
        <ele>816.3</ele>
        <time>2012-05-26T08:45:52Z</time>
      </trkpt>
      <trkpt lat="44.48787" lon="5.17783">
        <ele>817.26</ele>
        <time>2012-05-26T08:45:56Z</time>
      </trkpt>
      <trkpt lat="44.48801" lon="5.17796">
        <ele>820.14</ele>
        <time>2012-05-26T08:46:11Z</time>
      </trkpt>
      <trkpt lat="44.4881" lon="5.17803">
        <ele>823.03</ele>
        <time>2012-05-26T08:46:20Z</time>
      </trkpt>
      <trkpt lat="44.48818" lon="5.17814">
        <ele>823.51</ele>
        <time>2012-05-26T08:46:33Z</time>
      </trkpt>
      <trkpt lat="44.48832" lon="5.17823">
        <ele>824.95</ele>
        <time>2012-05-26T08:46:47Z</time>
      </trkpt>
      <trkpt lat="44.4884" lon="5.17835">
        <ele>825.43</ele>
        <time>2012-05-26T08:46:55Z</time>
      </trkpt>
      <trkpt lat="44.48845" lon="5.17851">
        <ele>826.39</ele>
        <time>2012-05-26T08:47:11Z</time>
      </trkpt>
      <trkpt lat="44.48844" lon="5.17852">
        <ele>826.87</ele>
        <time>2012-05-26T08:47:32Z</time>
      </trkpt>
      <trkpt lat="44.48844" lon="5.17856">
        <ele>827.35</ele>
        <time>2012-05-26T08:47:44Z</time>
      </trkpt>
      <trkpt lat="44.48846" lon="5.17861">
        <ele>827.83</ele>
        <time>2012-05-26T08:47:58Z</time>
      </trkpt>
      <trkpt lat="44.48848" lon="5.17864">
        <ele>828.31</ele>
        <time>2012-05-26T08:48:01Z</time>
      </trkpt>
      <trkpt lat="44.48855" lon="5.17872">
        <ele>828.79</ele>
        <time>2012-05-26T08:48:16Z</time>
      </trkpt>
      <trkpt lat="44.4887" lon="5.17881">
        <ele>830.24</ele>
        <time>2012-05-26T08:48:32Z</time>
      </trkpt>
      <trkpt lat="44.48875" lon="5.17881">
        <ele>831.2</ele>
        <time>2012-05-26T08:48:45Z</time>
      </trkpt>
      <trkpt lat="44.48877" lon="5.17881">
        <ele>832.16</ele>
        <time>2012-05-26T08:48:56Z</time>
      </trkpt>
      <trkpt lat="44.48881" lon="5.17876">
        <ele>832.64</ele>
        <time>2012-05-26T08:49:01Z</time>
      </trkpt>
      <trkpt lat="44.48884" lon="5.17871">
        <ele>833.6</ele>
        <time>2012-05-26T08:49:17Z</time>
      </trkpt>
      <trkpt lat="44.48885" lon="5.17871">
        <ele>833.6</ele>
        <time>2012-05-26T08:49:27Z</time>
      </trkpt>
      <trkpt lat="44.48886" lon="5.17864">
        <ele>834.08</ele>
        <time>2012-05-26T08:49:31Z</time>
      </trkpt>
      <trkpt lat="44.48884" lon="5.17855">
        <ele>834.56</ele>
        <time>2012-05-26T08:49:50Z</time>
      </trkpt>
      <trkpt lat="44.48881" lon="5.17844">
        <ele>835.52</ele>
        <time>2012-05-26T08:50:09Z</time>
      </trkpt>
      <trkpt lat="44.48881" lon="5.17836">
        <ele>836.96</ele>
        <time>2012-05-26T08:50:25Z</time>
      </trkpt>
      <trkpt lat="44.4888" lon="5.17824">
        <ele>838.41</ele>
        <time>2012-05-26T08:50:38Z</time>
      </trkpt>
      <trkpt lat="44.48881" lon="5.17824">
        <ele>838.89</ele>
        <time>2012-05-26T08:50:40Z</time>
      </trkpt>
      <trkpt lat="44.48884" lon="5.17824">
        <ele>838.89</ele>
        <time>2012-05-26T08:50:42Z</time>
      </trkpt>
      <trkpt lat="44.48892" lon="5.17826">
        <ele>839.85</ele>
        <time>2012-05-26T08:50:50Z</time>
      </trkpt>
      <trkpt lat="44.48897" lon="5.17829">
        <ele>839.85</ele>
        <time>2012-05-26T08:50:54Z</time>
      </trkpt>
      <trkpt lat="44.48899" lon="5.17833">
        <ele>839.85</ele>
        <time>2012-05-26T08:50:56Z</time>
      </trkpt>
      <trkpt lat="44.48902" lon="5.17837">
        <ele>840.33</ele>
        <time>2012-05-26T08:51:05Z</time>
      </trkpt>
      <trkpt lat="44.48908" lon="5.17855">
        <ele>840.33</ele>
        <time>2012-05-26T08:51:16Z</time>
      </trkpt>
      <trkpt lat="44.48918" lon="5.17876">
        <ele>842.73</ele>
        <time>2012-05-26T08:51:32Z</time>
      </trkpt>
      <trkpt lat="44.48924" lon="5.17882">
        <ele>843.69</ele>
        <time>2012-05-26T08:51:39Z</time>
      </trkpt>
      <trkpt lat="44.48928" lon="5.17883">
        <ele>844.66</ele>
        <time>2012-05-26T08:51:43Z</time>
      </trkpt>
      <trkpt lat="44.48934" lon="5.17888">
        <ele>845.62</ele>
        <time>2012-05-26T08:51:50Z</time>
      </trkpt>
      <trkpt lat="44.48942" lon="5.17894">
        <ele>846.58</ele>
        <time>2012-05-26T08:51:57Z</time>
      </trkpt>
      <trkpt lat="44.4895" lon="5.17903">
        <ele>847.54</ele>
        <time>2012-05-26T08:52:12Z</time>
      </trkpt>
      <trkpt lat="44.48951" lon="5.179">
        <ele>848.5</ele>
        <time>2012-05-26T08:52:27Z</time>
      </trkpt>
      <trkpt lat="44.48952" lon="5.17901">
        <ele>848.5</ele>
        <time>2012-05-26T08:52:48Z</time>
      </trkpt>
      <trkpt lat="44.48952" lon="5.17903">
        <ele>848.02</ele>
        <time>2012-05-26T08:53:13Z</time>
      </trkpt>
      <trkpt lat="44.48951" lon="5.17908">
        <ele>848.02</ele>
        <time>2012-05-26T08:53:28Z</time>
      </trkpt>
      <trkpt lat="44.4895" lon="5.17914">
        <ele>851.87</ele>
        <time>2012-05-26T08:53:38Z</time>
      </trkpt>
      <trkpt lat="44.4895" lon="5.17914">
        <ele>848.5</ele>
        <time>2012-05-26T08:53:39Z</time>
      </trkpt>
      <trkpt lat="44.4895" lon="5.17914">
        <ele>848.02</ele>
        <time>2012-05-26T08:54:07Z</time>
      </trkpt>
      <trkpt lat="44.4895" lon="5.17915">
        <ele>851.38</ele>
        <time>2012-05-26T08:54:24Z</time>
      </trkpt>
      <trkpt lat="44.4895" lon="5.17915">
        <ele>847.54</ele>
        <time>2012-05-26T08:54:25Z</time>
      </trkpt>
      <trkpt lat="44.4895" lon="5.17914">
        <ele>851.38</ele>
        <time>2012-05-26T08:54:29Z</time>
      </trkpt>
      <trkpt lat="44.4895" lon="5.17914">
        <ele>845.62</ele>
        <time>2012-05-26T08:54:35Z</time>
      </trkpt>
      <trkpt lat="44.4895" lon="5.17914">
        <ele>849.94</ele>
        <time>2012-05-26T08:54:37Z</time>
      </trkpt>
      <trkpt lat="44.4895" lon="5.17914">
        <ele>848.5</ele>
        <time>2012-05-26T08:54:38Z</time>
      </trkpt>
      <trkpt lat="44.4895" lon="5.17914">
        <ele>848.02</ele>
        <time>2012-05-26T08:54:53Z</time>
      </trkpt>
      <trkpt lat="44.4895" lon="5.17917">
        <ele>848.5</ele>
        <time>2012-05-26T08:55:19Z</time>
      </trkpt>
      <trkpt lat="44.48949" lon="5.17919">
        <ele>848.5</ele>
        <time>2012-05-26T08:55:21Z</time>
      </trkpt>
      <trkpt lat="44.48947" lon="5.17924">
        <ele>848.02</ele>
        <time>2012-05-26T08:55:42Z</time>
      </trkpt>
      <trkpt lat="44.48946" lon="5.17928">
        <ele>848.02</ele>
        <time>2012-05-26T08:56:01Z</time>
      </trkpt>
      <trkpt lat="44.48946" lon="5.1793">
        <ele>847.54</ele>
        <time>2012-05-26T08:56:20Z</time>
      </trkpt>
      <trkpt lat="44.48946" lon="5.17931">
        <ele>847.54</ele>
        <time>2012-05-26T08:56:53Z</time>
      </trkpt>
      <trkpt lat="44.48945" lon="5.17932">
        <ele>848.5</ele>
        <time>2012-05-26T08:57:06Z</time>
      </trkpt>
      <trkpt lat="44.48948" lon="5.17929">
        <ele>848.5</ele>
        <time>2012-05-26T08:57:09Z</time>
      </trkpt>
      <trkpt lat="44.48951" lon="5.17927">
        <ele>848.98</ele>
        <time>2012-05-26T08:57:12Z</time>
      </trkpt>
      <trkpt lat="44.48954" lon="5.17944">
        <ele>848.98</ele>
        <time>2012-05-26T08:57:21Z</time>
      </trkpt>
      <trkpt lat="44.48953" lon="5.1796">
        <ele>849.46</ele>
        <time>2012-05-26T08:57:31Z</time>
      </trkpt>
      <trkpt lat="44.48954" lon="5.17987">
        <ele>849.94</ele>
        <time>2012-05-26T08:57:46Z</time>
      </trkpt>
      <trkpt lat="44.4895" lon="5.18011">
        <ele>850.42</ele>
        <time>2012-05-26T08:58:00Z</time>
      </trkpt>
      <trkpt lat="44.4895" lon="5.18014">
        <ele>850.9</ele>
        <time>2012-05-26T08:58:04Z</time>
      </trkpt>
      <trkpt lat="44.48944" lon="5.18019">
        <ele>850.42</ele>
        <time>2012-05-26T08:58:09Z</time>
      </trkpt>
      <trkpt lat="44.48931" lon="5.1803">
        <ele>849.94</ele>
        <time>2012-05-26T08:58:24Z</time>
      </trkpt>
      <trkpt lat="44.48927" lon="5.18033">
        <ele>849.94</ele>
        <time>2012-05-26T08:58:35Z</time>
      </trkpt>
      <trkpt lat="44.48925" lon="5.18035">
        <ele>849.94</ele>
        <time>2012-05-26T08:58:37Z</time>
      </trkpt>
      <trkpt lat="44.48923" lon="5.18037">
        <ele>849.94</ele>
        <time>2012-05-26T08:58:39Z</time>
      </trkpt>
      <trkpt lat="44.4892" lon="5.18042">
        <ele>849.94</ele>
        <time>2012-05-26T08:58:51Z</time>
      </trkpt>
      <trkpt lat="44.4892" lon="5.18043">
        <ele>849.94</ele>
        <time>2012-05-26T08:58:53Z</time>
      </trkpt>
      <trkpt lat="44.48911" lon="5.18065">
        <ele>849.94</ele>
        <time>2012-05-26T08:59:06Z</time>
      </trkpt>
      <trkpt lat="44.48908" lon="5.1807">
        <ele>849.94</ele>
        <time>2012-05-26T08:59:10Z</time>
      </trkpt>
      <trkpt lat="44.48905" lon="5.18073">
        <ele>849.46</ele>
        <time>2012-05-26T08:59:20Z</time>
      </trkpt>
      <trkpt lat="44.48904" lon="5.18076">
        <ele>849.46</ele>
        <time>2012-05-26T08:59:22Z</time>
      </trkpt>
      <trkpt lat="44.489" lon="5.18083">
        <ele>849.46</ele>
        <time>2012-05-26T08:59:27Z</time>
      </trkpt>
      <trkpt lat="44.48896" lon="5.18085">
        <ele>849.46</ele>
        <time>2012-05-26T08:59:42Z</time>
      </trkpt>
      <trkpt lat="44.48896" lon="5.18086">
        <ele>849.46</ele>
        <time>2012-05-26T08:59:47Z</time>
      </trkpt>
      <trkpt lat="44.48896" lon="5.18089">
        <ele>849.46</ele>
        <time>2012-05-26T08:59:49Z</time>
      </trkpt>
      <trkpt lat="44.48887" lon="5.18096">
        <ele>848.98</ele>
        <time>2012-05-26T08:59:57Z</time>
      </trkpt>
      <trkpt lat="44.48885" lon="5.18098">
        <ele>848.98</ele>
        <time>2012-05-26T09:00:02Z</time>
      </trkpt>
      <trkpt lat="44.48881" lon="5.18102">
        <ele>849.46</ele>
        <time>2012-05-26T09:00:08Z</time>
      </trkpt>
      <trkpt lat="44.48866" lon="5.1812">
        <ele>849.46</ele>
        <time>2012-05-26T09:00:24Z</time>
      </trkpt>
      <trkpt lat="44.48852" lon="5.18139">
        <ele>850.42</ele>
        <time>2012-05-26T09:00:39Z</time>
      </trkpt>
      <trkpt lat="44.48835" lon="5.18157">
        <ele>851.87</ele>
        <time>2012-05-26T09:00:56Z</time>
      </trkpt>
      <trkpt lat="44.48824" lon="5.18161">
        <ele>852.83</ele>
        <time>2012-05-26T09:01:10Z</time>
      </trkpt>
      <trkpt lat="44.48818" lon="5.1816">
        <ele>852.83</ele>
        <time>2012-05-26T09:01:27Z</time>
      </trkpt>
      <trkpt lat="44.48803" lon="5.18156">
        <ele>854.75</ele>
        <time>2012-05-26T09:01:41Z</time>
      </trkpt>
      <trkpt lat="44.48789" lon="5.18157">
        <ele>858.11</ele>
        <time>2012-05-26T09:01:56Z</time>
      </trkpt>
      <trkpt lat="44.48779" lon="5.18161">
        <ele>861</ele>
        <time>2012-05-26T09:02:08Z</time>
      </trkpt>
      <trkpt lat="44.48765" lon="5.18166">
        <ele>864.84</ele>
        <time>2012-05-26T09:02:27Z</time>
      </trkpt>
      <trkpt lat="44.48758" lon="5.18162">
        <ele>864.84</ele>
        <time>2012-05-26T09:02:35Z</time>
      </trkpt>
      <trkpt lat="44.48744" lon="5.18157">
        <ele>868.21</ele>
        <time>2012-05-26T09:02:51Z</time>
      </trkpt>
      <trkpt lat="44.48733" lon="5.18157">
        <ele>870.13</ele>
        <time>2012-05-26T09:03:06Z</time>
      </trkpt>
      <trkpt lat="44.48718" lon="5.18153">
        <ele>873.01</ele>
        <time>2012-05-26T09:03:21Z</time>
      </trkpt>
      <trkpt lat="44.4871" lon="5.18153">
        <ele>875.42</ele>
        <time>2012-05-26T09:03:31Z</time>
      </trkpt>
      <trkpt lat="44.48698" lon="5.18151">
        <ele>878.3</ele>
        <time>2012-05-26T09:03:46Z</time>
      </trkpt>
      <trkpt lat="44.48687" lon="5.18151">
        <ele>881.19</ele>
        <time>2012-05-26T09:04:00Z</time>
      </trkpt>
      <trkpt lat="44.48678" lon="5.18151">
        <ele>884.07</ele>
        <time>2012-05-26T09:04:14Z</time>
      </trkpt>
      <trkpt lat="44.48661" lon="5.18153">
        <ele>887.43</ele>
        <time>2012-05-26T09:04:29Z</time>
      </trkpt>
      <trkpt lat="44.4865" lon="5.18158">
        <ele>890.32</ele>
        <time>2012-05-26T09:04:43Z</time>
      </trkpt>
      <trkpt lat="44.48647" lon="5.18159">
        <ele>890.8</ele>
        <time>2012-05-26T09:04:47Z</time>
      </trkpt>
      <trkpt lat="44.48637" lon="5.18162">
        <ele>893.68</ele>
        <time>2012-05-26T09:05:00Z</time>
      </trkpt>
      <trkpt lat="44.4863" lon="5.18162">
        <ele>895.61</ele>
        <time>2012-05-26T09:05:14Z</time>
      </trkpt>
      <trkpt lat="44.4862" lon="5.18167">
        <ele>898.97</ele>
        <time>2012-05-26T09:05:31Z</time>
      </trkpt>
      <trkpt lat="44.48613" lon="5.1818">
        <ele>902.33</ele>
        <time>2012-05-26T09:05:47Z</time>
      </trkpt>
      <trkpt lat="44.48599" lon="5.182">
        <ele>905.22</ele>
        <time>2012-05-26T09:06:05Z</time>
      </trkpt>
      <trkpt lat="44.48591" lon="5.18211">
        <ele>907.62</ele>
        <time>2012-05-26T09:06:19Z</time>
      </trkpt>
      <trkpt lat="44.48588" lon="5.18216">
        <ele>908.1</ele>
        <time>2012-05-26T09:06:24Z</time>
      </trkpt>
      <trkpt lat="44.48572" lon="5.1824">
        <ele>910.99</ele>
        <time>2012-05-26T09:06:41Z</time>
      </trkpt>
      <trkpt lat="44.48564" lon="5.18253">
        <ele>914.35</ele>
        <time>2012-05-26T09:06:56Z</time>
      </trkpt>
      <trkpt lat="44.48552" lon="5.18271">
        <ele>917.24</ele>
        <time>2012-05-26T09:07:13Z</time>
      </trkpt>
      <trkpt lat="44.48542" lon="5.18283">
        <ele>920.12</ele>
        <time>2012-05-26T09:07:29Z</time>
      </trkpt>
      <trkpt lat="44.4853" lon="5.18296">
        <ele>923</ele>
        <time>2012-05-26T09:07:45Z</time>
      </trkpt>
      <trkpt lat="44.48529" lon="5.18304">
        <ele>923.48</ele>
        <time>2012-05-26T09:08:00Z</time>
      </trkpt>
      <trkpt lat="44.48525" lon="5.18313">
        <ele>924.45</ele>
        <time>2012-05-26T09:08:11Z</time>
      </trkpt>
      <trkpt lat="44.48512" lon="5.1833">
        <ele>923.96</ele>
        <time>2012-05-26T09:08:26Z</time>
      </trkpt>
      <trkpt lat="44.48506" lon="5.18341">
        <ele>924.45</ele>
        <time>2012-05-26T09:08:40Z</time>
      </trkpt>
      <trkpt lat="44.48494" lon="5.18332">
        <ele>927.33</ele>
        <time>2012-05-26T09:08:58Z</time>
      </trkpt>
      <trkpt lat="44.48484" lon="5.18317">
        <ele>930.21</ele>
        <time>2012-05-26T09:09:15Z</time>
      </trkpt>
      <trkpt lat="44.48476" lon="5.18306">
        <ele>933.58</ele>
        <time>2012-05-26T09:09:31Z</time>
      </trkpt>
      <trkpt lat="44.4847" lon="5.18295">
        <ele>935.5</ele>
        <time>2012-05-26T09:09:48Z</time>
      </trkpt>
      <trkpt lat="44.48469" lon="5.18291">
        <ele>935.5</ele>
        <time>2012-05-26T09:10:06Z</time>
      </trkpt>
      <trkpt lat="44.48469" lon="5.18292">
        <ele>935.98</ele>
        <time>2012-05-26T09:10:26Z</time>
      </trkpt>
      <trkpt lat="44.48468" lon="5.18295">
        <ele>935.98</ele>
        <time>2012-05-26T09:10:36Z</time>
      </trkpt>
      <trkpt lat="44.48468" lon="5.18295">
        <ele>936.94</ele>
        <time>2012-05-26T09:10:43Z</time>
      </trkpt>
      <trkpt lat="44.48468" lon="5.18295">
        <ele>935.98</ele>
        <time>2012-05-26T09:10:45Z</time>
      </trkpt>
      <trkpt lat="44.48468" lon="5.18295">
        <ele>935.98</ele>
        <time>2012-05-26T09:11:14Z</time>
      </trkpt>
      <trkpt lat="44.48468" lon="5.18295">
        <ele>935.02</ele>
        <time>2012-05-26T09:11:22Z</time>
      </trkpt>
      <trkpt lat="44.48523" lon="5.18269">
        <ele>936.94</ele>
        <time>2012-05-26T09:40:31Z</time>
      </trkpt>
      <trkpt lat="44.4852" lon="5.18267">
        <ele>936.94</ele>
        <time>2012-05-26T09:40:32Z</time>
      </trkpt>
      <trkpt lat="44.48513" lon="5.18272">
        <ele>936.94</ele>
        <time>2012-05-26T09:40:34Z</time>
      </trkpt>
      <trkpt lat="44.48502" lon="5.18273">
        <ele>938.38</ele>
        <time>2012-05-26T09:40:53Z</time>
      </trkpt>
      <trkpt lat="44.48499" lon="5.18274">
        <ele>943.67</ele>
        <time>2012-05-26T09:40:56Z</time>
      </trkpt>
      <trkpt lat="44.48497" lon="5.18274">
        <ele>946.56</ele>
        <time>2012-05-26T09:41:01Z</time>
      </trkpt>
      <trkpt lat="44.48495" lon="5.18276">
        <ele>949.92</ele>
        <time>2012-05-26T09:41:05Z</time>
      </trkpt>
      <trkpt lat="44.48493" lon="5.18276">
        <ele>951.36</ele>
        <time>2012-05-26T09:41:07Z</time>
      </trkpt>
      <trkpt lat="44.48489" lon="5.18277">
        <ele>954.73</ele>
        <time>2012-05-26T09:41:13Z</time>
      </trkpt>
      <trkpt lat="44.48479" lon="5.18277">
        <ele>955.21</ele>
        <time>2012-05-26T09:41:27Z</time>
      </trkpt>
      <trkpt lat="44.48478" lon="5.18277">
        <ele>956.65</ele>
        <time>2012-05-26T09:41:29Z</time>
      </trkpt>
      <trkpt lat="44.48479" lon="5.18271">
        <ele>956.17</ele>
        <time>2012-05-26T09:41:47Z</time>
      </trkpt>
      <trkpt lat="44.48473" lon="5.18272">
        <ele>957.13</ele>
        <time>2012-05-26T09:41:59Z</time>
      </trkpt>
      <trkpt lat="44.4846" lon="5.18268">
        <ele>959.05</ele>
        <time>2012-05-26T09:42:14Z</time>
      </trkpt>
      <trkpt lat="44.48453" lon="5.18265">
        <ele>961.94</ele>
        <time>2012-05-26T09:42:28Z</time>
      </trkpt>
      <trkpt lat="44.48454" lon="5.18256">
        <ele>964.34</ele>
        <time>2012-05-26T09:42:43Z</time>
      </trkpt>
      <trkpt lat="44.48443" lon="5.18244">
        <ele>966.26</ele>
        <time>2012-05-26T09:42:55Z</time>
      </trkpt>
      <trkpt lat="44.48432" lon="5.18234">
        <ele>969.15</ele>
        <time>2012-05-26T09:43:10Z</time>
      </trkpt>
      <trkpt lat="44.48424" lon="5.18226">
        <ele>971.55</ele>
        <time>2012-05-26T09:43:26Z</time>
      </trkpt>
      <trkpt lat="44.48417" lon="5.1822">
        <ele>973.47</ele>
        <time>2012-05-26T09:43:40Z</time>
      </trkpt>
      <trkpt lat="44.4841" lon="5.18215">
        <ele>976.84</ele>
        <time>2012-05-26T09:43:53Z</time>
      </trkpt>
      <trkpt lat="44.48398" lon="5.1821">
        <ele>979.72</ele>
        <time>2012-05-26T09:44:08Z</time>
      </trkpt>
      <trkpt lat="44.48391" lon="5.18208">
        <ele>984.05</ele>
        <time>2012-05-26T09:44:21Z</time>
      </trkpt>
      <trkpt lat="44.48383" lon="5.18197">
        <ele>984.53</ele>
        <time>2012-05-26T09:44:37Z</time>
      </trkpt>
      <trkpt lat="44.48379" lon="5.18186">
        <ele>985.49</ele>
        <time>2012-05-26T09:44:49Z</time>
      </trkpt>
      <trkpt lat="44.48379" lon="5.18187">
        <ele>985.01</ele>
        <time>2012-05-26T09:44:53Z</time>
      </trkpt>
      <trkpt lat="44.4839" lon="5.18206">
        <ele>983.09</ele>
        <time>2012-05-26T09:45:08Z</time>
      </trkpt>
      <trkpt lat="44.48398" lon="5.18222">
        <ele>985.49</ele>
        <time>2012-05-26T09:45:23Z</time>
      </trkpt>
      <trkpt lat="44.48397" lon="5.18233">
        <ele>988.37</ele>
        <time>2012-05-26T09:45:36Z</time>
      </trkpt>
      <trkpt lat="44.484" lon="5.18241">
        <ele>991.26</ele>
        <time>2012-05-26T09:45:49Z</time>
      </trkpt>
      <trkpt lat="44.48397" lon="5.18248">
        <ele>992.7</ele>
        <time>2012-05-26T09:45:56Z</time>
      </trkpt>
      <trkpt lat="44.48386" lon="5.18249">
        <ele>995.58</ele>
        <time>2012-05-26T09:46:11Z</time>
      </trkpt>
      <trkpt lat="44.48391" lon="5.18245">
        <ele>995.58</ele>
        <time>2012-05-26T09:46:32Z</time>
      </trkpt>
      <trkpt lat="44.48387" lon="5.1825">
        <ele>997.02</ele>
        <time>2012-05-26T09:46:56Z</time>
      </trkpt>
      <trkpt lat="44.48387" lon="5.18254">
        <ele>998.47</ele>
        <time>2012-05-26T09:47:12Z</time>
      </trkpt>
      <trkpt lat="44.48383" lon="5.18259">
        <ele>1001.35</ele>
        <time>2012-05-26T09:47:27Z</time>
      </trkpt>
      <trkpt lat="44.48385" lon="5.18263">
        <ele>1002.79</ele>
        <time>2012-05-26T09:47:42Z</time>
      </trkpt>
      <trkpt lat="44.48386" lon="5.18267">
        <ele>1003.27</ele>
        <time>2012-05-26T09:48:01Z</time>
      </trkpt>
      <trkpt lat="44.48389" lon="5.18267">
        <ele>1003.27</ele>
        <time>2012-05-26T09:48:09Z</time>
      </trkpt>
      <trkpt lat="44.48391" lon="5.18263">
        <ele>1003.27</ele>
        <time>2012-05-26T09:48:24Z</time>
      </trkpt>
      <trkpt lat="44.48392" lon="5.18263">
        <ele>1002.31</ele>
        <time>2012-05-26T09:48:43Z</time>
      </trkpt>
      <trkpt lat="44.48391" lon="5.18265">
        <ele>1002.79</ele>
        <time>2012-05-26T09:49:04Z</time>
      </trkpt>
      <trkpt lat="44.48391" lon="5.18265">
        <ele>1002.79</ele>
        <time>2012-05-26T09:49:24Z</time>
      </trkpt>
      <trkpt lat="44.48386" lon="5.18269">
        <ele>1002.79</ele>
        <time>2012-05-26T09:49:39Z</time>
      </trkpt>
      <trkpt lat="44.48386" lon="5.18271">
        <ele>1002.31</ele>
        <time>2012-05-26T09:50:05Z</time>
      </trkpt>
      <trkpt lat="44.48385" lon="5.18271">
        <ele>1002.31</ele>
        <time>2012-05-26T09:50:29Z</time>
      </trkpt>
      <trkpt lat="44.48385" lon="5.18273">
        <ele>1003.27</ele>
        <time>2012-05-26T09:50:47Z</time>
      </trkpt>
      <trkpt lat="44.48383" lon="5.18273">
        <ele>1005.68</ele>
        <time>2012-05-26T09:51:01Z</time>
      </trkpt>
      <trkpt lat="44.48375" lon="5.18269">
        <ele>1008.56</ele>
        <time>2012-05-26T09:51:15Z</time>
      </trkpt>
      <trkpt lat="44.48367" lon="5.18269">
        <ele>1011.93</ele>
        <time>2012-05-26T09:51:28Z</time>
      </trkpt>
      <trkpt lat="44.48361" lon="5.18274">
        <ele>1014.81</ele>
        <time>2012-05-26T09:51:44Z</time>
      </trkpt>
      <trkpt lat="44.48365" lon="5.18291">
        <ele>1018.17</ele>
        <time>2012-05-26T09:51:58Z</time>
      </trkpt>
      <trkpt lat="44.48365" lon="5.18301">
        <ele>1021.54</ele>
        <time>2012-05-26T09:52:13Z</time>
      </trkpt>
      <trkpt lat="44.48366" lon="5.18313">
        <ele>1025.38</ele>
        <time>2012-05-26T09:52:25Z</time>
      </trkpt>
      <trkpt lat="44.48368" lon="5.18326">
        <ele>1027.31</ele>
        <time>2012-05-26T09:52:41Z</time>
      </trkpt>
      <trkpt lat="44.48368" lon="5.18334">
        <ele>1029.23</ele>
        <time>2012-05-26T09:52:56Z</time>
      </trkpt>
      <trkpt lat="44.48364" lon="5.18355">
        <ele>1032.11</ele>
        <time>2012-05-26T09:53:12Z</time>
      </trkpt>
      <trkpt lat="44.48365" lon="5.18366">
        <ele>1034.04</ele>
        <time>2012-05-26T09:53:28Z</time>
      </trkpt>
      <trkpt lat="44.48364" lon="5.18381">
        <ele>1037.4</ele>
        <time>2012-05-26T09:53:43Z</time>
      </trkpt>
      <trkpt lat="44.48362" lon="5.18404">
        <ele>1040.28</ele>
        <time>2012-05-26T09:53:57Z</time>
      </trkpt>
      <trkpt lat="44.48364" lon="5.18412">
        <ele>1043.65</ele>
        <time>2012-05-26T09:54:10Z</time>
      </trkpt>
      <trkpt lat="44.48365" lon="5.1842">
        <ele>1046.53</ele>
        <time>2012-05-26T09:54:24Z</time>
      </trkpt>
      <trkpt lat="44.48365" lon="5.18429">
        <ele>1049.9</ele>
        <time>2012-05-26T09:54:37Z</time>
      </trkpt>
      <trkpt lat="44.48361" lon="5.18438">
        <ele>1052.3</ele>
        <time>2012-05-26T09:54:54Z</time>
      </trkpt>
      <trkpt lat="44.48364" lon="5.18448">
        <ele>1054.7</ele>
        <time>2012-05-26T09:55:09Z</time>
      </trkpt>
      <trkpt lat="44.48363" lon="5.18456">
        <ele>1058.07</ele>
        <time>2012-05-26T09:55:22Z</time>
      </trkpt>
      <trkpt lat="44.48364" lon="5.18464">
        <ele>1060.95</ele>
        <time>2012-05-26T09:55:37Z</time>
      </trkpt>
      <trkpt lat="44.48368" lon="5.18477">
        <ele>1064.32</ele>
        <time>2012-05-26T09:55:53Z</time>
      </trkpt>
      <trkpt lat="44.48359" lon="5.18483">
        <ele>1067.2</ele>
        <time>2012-05-26T09:56:08Z</time>
      </trkpt>
      <trkpt lat="44.48355" lon="5.18485">
        <ele>1070.57</ele>
        <time>2012-05-26T09:56:25Z</time>
      </trkpt>
      <trkpt lat="44.48349" lon="5.18492">
        <ele>1072.97</ele>
        <time>2012-05-26T09:56:39Z</time>
      </trkpt>
      <trkpt lat="44.48345" lon="5.18491">
        <ele>1073.45</ele>
        <time>2012-05-26T09:56:55Z</time>
      </trkpt>
      <trkpt lat="44.48337" lon="5.18479">
        <ele>1072.01</ele>
        <time>2012-05-26T09:57:09Z</time>
      </trkpt>
      <trkpt lat="44.48334" lon="5.18469">
        <ele>1069.12</ele>
        <time>2012-05-26T09:57:24Z</time>
      </trkpt>
      <trkpt lat="44.48336" lon="5.18464">
        <ele>1067.68</ele>
        <time>2012-05-26T09:57:39Z</time>
      </trkpt>
      <trkpt lat="44.48336" lon="5.18462">
        <ele>1067.2</ele>
        <time>2012-05-26T09:57:58Z</time>
      </trkpt>
      <trkpt lat="44.48337" lon="5.18454">
        <ele>1067.68</ele>
        <time>2012-05-26T09:58:11Z</time>
      </trkpt>
      <trkpt lat="44.48339" lon="5.18454">
        <ele>1069.6</ele>
        <time>2012-05-26T09:58:28Z</time>
      </trkpt>
      <trkpt lat="44.48339" lon="5.18451">
        <ele>1069.12</ele>
        <time>2012-05-26T09:58:48Z</time>
      </trkpt>
      <trkpt lat="44.48341" lon="5.18445">
        <ele>1068.64</ele>
        <time>2012-05-26T09:59:02Z</time>
      </trkpt>
      <trkpt lat="44.48341" lon="5.18444">
        <ele>1068.64</ele>
        <time>2012-05-26T09:59:27Z</time>
      </trkpt>
      <trkpt lat="44.48341" lon="5.18442">
        <ele>1068.64</ele>
        <time>2012-05-26T09:59:50Z</time>
      </trkpt>
      <trkpt lat="44.48341" lon="5.18442">
        <ele>1068.64</ele>
        <time>2012-05-26T10:00:07Z</time>
      </trkpt>
      <trkpt lat="44.4834" lon="5.18447">
        <ele>1068.64</ele>
        <time>2012-05-26T10:00:22Z</time>
      </trkpt>
      <trkpt lat="44.4834" lon="5.18449">
        <ele>1068.16</ele>
        <time>2012-05-26T10:00:38Z</time>
      </trkpt>
      <trkpt lat="44.48339" lon="5.18452">
        <ele>1067.68</ele>
        <time>2012-05-26T10:00:54Z</time>
      </trkpt>
      <trkpt lat="44.48339" lon="5.18453">
        <ele>1067.2</ele>
        <time>2012-05-26T10:01:27Z</time>
      </trkpt>
      <trkpt lat="44.48339" lon="5.18454">
        <ele>1067.68</ele>
        <time>2012-05-26T10:01:57Z</time>
      </trkpt>
      <trkpt lat="44.48339" lon="5.18455">
        <ele>1067.2</ele>
        <time>2012-05-26T10:02:33Z</time>
      </trkpt>
      <trkpt lat="44.48339" lon="5.18459">
        <ele>1067.2</ele>
        <time>2012-05-26T10:02:48Z</time>
      </trkpt>
      <trkpt lat="44.48339" lon="5.18468">
        <ele>1069.6</ele>
        <time>2012-05-26T10:03:05Z</time>
      </trkpt>
      <trkpt lat="44.4834" lon="5.18482">
        <ele>1072.97</ele>
        <time>2012-05-26T10:03:20Z</time>
      </trkpt>
      <trkpt lat="44.48352" lon="5.18499">
        <ele>1075.85</ele>
        <time>2012-05-26T10:03:37Z</time>
      </trkpt>
      <trkpt lat="44.48356" lon="5.18507">
        <ele>1078.74</ele>
        <time>2012-05-26T10:03:49Z</time>
      </trkpt>
      <trkpt lat="44.48357" lon="5.18514">
        <ele>1082.1</ele>
        <time>2012-05-26T10:04:03Z</time>
      </trkpt>
      <trkpt lat="44.4836" lon="5.18525">
        <ele>1084.99</ele>
        <time>2012-05-26T10:04:17Z</time>
      </trkpt>
      <trkpt lat="44.48368" lon="5.18532">
        <ele>1088.35</ele>
        <time>2012-05-26T10:04:28Z</time>
      </trkpt>
      <trkpt lat="44.48369" lon="5.18533">
        <ele>1087.87</ele>
        <time>2012-05-26T10:04:29Z</time>
      </trkpt>
      <trkpt lat="44.48371" lon="5.18536">
        <ele>1089.31</ele>
        <time>2012-05-26T10:04:47Z</time>
      </trkpt>
      <trkpt lat="44.48374" lon="5.18542">
        <ele>1092.2</ele>
        <time>2012-05-26T10:05:01Z</time>
      </trkpt>
      <trkpt lat="44.48375" lon="5.18556">
        <ele>1095.56</ele>
        <time>2012-05-26T10:05:18Z</time>
      </trkpt>
      <trkpt lat="44.48381" lon="5.18569">
        <ele>1097.96</ele>
        <time>2012-05-26T10:05:32Z</time>
      </trkpt>
      <trkpt lat="44.48391" lon="5.18582">
        <ele>1100.85</ele>
        <time>2012-05-26T10:05:46Z</time>
      </trkpt>
      <trkpt lat="44.48393" lon="5.18593">
        <ele>1104.21</ele>
        <time>2012-05-26T10:06:00Z</time>
      </trkpt>
      <trkpt lat="44.48393" lon="5.18604">
        <ele>1106.13</ele>
        <time>2012-05-26T10:06:15Z</time>
      </trkpt>
      <trkpt lat="44.48385" lon="5.18602">
        <ele>1109.5</ele>
        <time>2012-05-26T10:06:29Z</time>
      </trkpt>
      <trkpt lat="44.48377" lon="5.18601">
        <ele>1112.38</ele>
        <time>2012-05-26T10:06:45Z</time>
      </trkpt>
      <trkpt lat="44.48365" lon="5.18598">
        <ele>1115.75</ele>
        <time>2012-05-26T10:07:00Z</time>
      </trkpt>
      <trkpt lat="44.48363" lon="5.18591">
        <ele>1118.63</ele>
        <time>2012-05-26T10:07:17Z</time>
      </trkpt>
      <trkpt lat="44.48355" lon="5.18583">
        <ele>1119.59</ele>
        <time>2012-05-26T10:07:32Z</time>
      </trkpt>
      <trkpt lat="44.48351" lon="5.18577">
        <ele>1120.55</ele>
        <time>2012-05-26T10:07:41Z</time>
      </trkpt>
      <trkpt lat="44.48349" lon="5.18568">
        <ele>1121.03</ele>
        <time>2012-05-26T10:07:53Z</time>
      </trkpt>
      <trkpt lat="44.48348" lon="5.18565">
        <ele>1120.55</ele>
        <time>2012-05-26T10:08:16Z</time>
      </trkpt>
      <trkpt lat="44.48347" lon="5.18564">
        <ele>1120.55</ele>
        <time>2012-05-26T10:08:21Z</time>
      </trkpt>
      <trkpt lat="44.48347" lon="5.1856">
        <ele>1120.55</ele>
        <time>2012-05-26T10:08:24Z</time>
      </trkpt>
      <trkpt lat="44.48347" lon="5.1855">
        <ele>1119.59</ele>
        <time>2012-05-26T10:08:37Z</time>
      </trkpt>
      <trkpt lat="44.48347" lon="5.18554">
        <ele>1120.07</ele>
        <time>2012-05-26T10:08:55Z</time>
      </trkpt>
      <trkpt lat="44.48348" lon="5.18555">
        <ele>1120.07</ele>
        <time>2012-05-26T10:08:59Z</time>
      </trkpt>
      <trkpt lat="44.48348" lon="5.18558">
        <ele>1120.07</ele>
        <time>2012-05-26T10:09:02Z</time>
      </trkpt>
      <trkpt lat="44.48347" lon="5.18561">
        <ele>1120.55</ele>
        <time>2012-05-26T10:09:04Z</time>
      </trkpt>
      <trkpt lat="44.48349" lon="5.18573">
        <ele>1122</ele>
        <time>2012-05-26T10:09:16Z</time>
      </trkpt>
      <trkpt lat="44.48345" lon="5.18582">
        <ele>1122.96</ele>
        <time>2012-05-26T10:09:27Z</time>
      </trkpt>
      <trkpt lat="44.48346" lon="5.18594">
        <ele>1126.32</ele>
        <time>2012-05-26T10:09:40Z</time>
      </trkpt>
      <trkpt lat="44.48347" lon="5.18602">
        <ele>1129.21</ele>
        <time>2012-05-26T10:09:54Z</time>
      </trkpt>
      <trkpt lat="44.48344" lon="5.18615">
        <ele>1131.13</ele>
        <time>2012-05-26T10:10:07Z</time>
      </trkpt>
      <trkpt lat="44.48344" lon="5.18622">
        <ele>1133.53</ele>
        <time>2012-05-26T10:10:20Z</time>
      </trkpt>
      <trkpt lat="44.48345" lon="5.1863">
        <ele>1136.42</ele>
        <time>2012-05-26T10:10:34Z</time>
      </trkpt>
      <trkpt lat="44.48346" lon="5.18637">
        <ele>1139.3</ele>
        <time>2012-05-26T10:10:47Z</time>
      </trkpt>
      <trkpt lat="44.48349" lon="5.18641">
        <ele>1142.18</ele>
        <time>2012-05-26T10:10:59Z</time>
      </trkpt>
      <trkpt lat="44.48346" lon="5.18656">
        <ele>1145.07</ele>
        <time>2012-05-26T10:11:15Z</time>
      </trkpt>
      <trkpt lat="44.48345" lon="5.18663">
        <ele>1147.95</ele>
        <time>2012-05-26T10:11:28Z</time>
      </trkpt>
      <trkpt lat="44.48345" lon="5.18672">
        <ele>1150.84</ele>
        <time>2012-05-26T10:11:41Z</time>
      </trkpt>
      <trkpt lat="44.48344" lon="5.18677">
        <ele>1154.2</ele>
        <time>2012-05-26T10:11:54Z</time>
      </trkpt>
      <trkpt lat="44.48343" lon="5.18678">
        <ele>1155.64</ele>
        <time>2012-05-26T10:12:06Z</time>
      </trkpt>
      <trkpt lat="44.48343" lon="5.18681">
        <ele>1157.56</ele>
        <time>2012-05-26T10:12:22Z</time>
      </trkpt>
      <trkpt lat="44.48344" lon="5.18691">
        <ele>1159.97</ele>
        <time>2012-05-26T10:12:36Z</time>
      </trkpt>
      <trkpt lat="44.48342" lon="5.18699">
        <ele>1163.33</ele>
        <time>2012-05-26T10:12:49Z</time>
      </trkpt>
      <trkpt lat="44.48345" lon="5.187">
        <ele>1166.7</ele>
        <time>2012-05-26T10:13:01Z</time>
      </trkpt>
      <trkpt lat="44.48348" lon="5.18703">
        <ele>1168.14</ele>
        <time>2012-05-26T10:13:21Z</time>
      </trkpt>
      <trkpt lat="44.48351" lon="5.18711">
        <ele>1171.5</ele>
        <time>2012-05-26T10:13:33Z</time>
      </trkpt>
      <trkpt lat="44.48351" lon="5.18717">
        <ele>1174.39</ele>
        <time>2012-05-26T10:13:45Z</time>
      </trkpt>
      <trkpt lat="44.48351" lon="5.18724">
        <ele>1177.27</ele>
        <time>2012-05-26T10:13:56Z</time>
      </trkpt>
      <trkpt lat="44.48351" lon="5.18733">
        <ele>1179.67</ele>
        <time>2012-05-26T10:14:09Z</time>
      </trkpt>
      <trkpt lat="44.4835" lon="5.18737">
        <ele>1182.08</ele>
        <time>2012-05-26T10:14:19Z</time>
      </trkpt>
      <trkpt lat="44.48349" lon="5.18744">
        <ele>1184.96</ele>
        <time>2012-05-26T10:14:33Z</time>
      </trkpt>
      <trkpt lat="44.48346" lon="5.18752">
        <ele>1188.33</ele>
        <time>2012-05-26T10:14:46Z</time>
      </trkpt>
      <trkpt lat="44.48348" lon="5.18756">
        <ele>1190.25</ele>
        <time>2012-05-26T10:14:58Z</time>
      </trkpt>
      <trkpt lat="44.48347" lon="5.18757">
        <ele>1190.25</ele>
        <time>2012-05-26T10:15:25Z</time>
      </trkpt>
      <trkpt lat="44.48348" lon="5.18761">
        <ele>1192.65</ele>
        <time>2012-05-26T10:15:46Z</time>
      </trkpt>
      <trkpt lat="44.48347" lon="5.18761">
        <ele>1193.13</ele>
        <time>2012-05-26T10:16:05Z</time>
      </trkpt>
      <trkpt lat="44.48346" lon="5.1876">
        <ele>1193.13</ele>
        <time>2012-05-26T10:16:29Z</time>
      </trkpt>
      <trkpt lat="44.48346" lon="5.1876">
        <ele>1193.61</ele>
        <time>2012-05-26T10:16:56Z</time>
      </trkpt>
      <trkpt lat="44.48346" lon="5.1876">
        <ele>1196.5</ele>
        <time>2012-05-26T10:17:03Z</time>
      </trkpt>
      <trkpt lat="44.48346" lon="5.1876">
        <ele>1192.17</ele>
        <time>2012-05-26T10:17:04Z</time>
      </trkpt>
      <trkpt lat="44.48346" lon="5.1876">
        <ele>1195.06</ele>
        <time>2012-05-26T10:17:15Z</time>
      </trkpt>
      <trkpt lat="44.48346" lon="5.1876">
        <ele>1191.69</ele>
        <time>2012-05-26T10:17:16Z</time>
      </trkpt>
      <trkpt lat="44.48346" lon="5.1876">
        <ele>1195.06</ele>
        <time>2012-05-26T10:17:17Z</time>
      </trkpt>
      <trkpt lat="44.48346" lon="5.1876">
        <ele>1193.61</ele>
        <time>2012-05-26T10:17:46Z</time>
      </trkpt>
      <trkpt lat="44.48346" lon="5.1876">
        <ele>1193.61</ele>
        <time>2012-05-26T10:18:08Z</time>
      </trkpt>
      <trkpt lat="44.48346" lon="5.18761">
        <ele>1194.09</ele>
        <time>2012-05-26T10:18:38Z</time>
      </trkpt>
      <trkpt lat="44.48346" lon="5.18761">
        <ele>1194.58</ele>
        <time>2012-05-26T10:18:57Z</time>
      </trkpt>
      <trkpt lat="44.48346" lon="5.18761">
        <ele>1194.58</ele>
        <time>2012-05-26T10:19:28Z</time>
      </trkpt>
      <trkpt lat="44.48346" lon="5.18761">
        <ele>1194.58</ele>
        <time>2012-05-26T10:19:51Z</time>
      </trkpt>
      <trkpt lat="44.48346" lon="5.18762">
        <ele>1194.58</ele>
        <time>2012-05-26T10:20:19Z</time>
      </trkpt>
      <trkpt lat="44.48347" lon="5.18763">
        <ele>1194.58</ele>
        <time>2012-05-26T10:20:39Z</time>
      </trkpt>
      <trkpt lat="44.48346" lon="5.18763">
        <ele>1195.06</ele>
        <time>2012-05-26T10:21:08Z</time>
      </trkpt>
      <trkpt lat="44.48346" lon="5.18763">
        <ele>1192.17</ele>
        <time>2012-05-26T10:21:21Z</time>
      </trkpt>
      <trkpt lat="44.48346" lon="5.18763">
        <ele>1196.02</ele>
        <time>2012-05-26T10:21:22Z</time>
      </trkpt>
      <trkpt lat="44.48346" lon="5.18763">
        <ele>1196.02</ele>
        <time>2012-05-26T10:21:23Z</time>
      </trkpt>
      <trkpt lat="44.48346" lon="5.18763">
        <ele>1192.17</ele>
        <time>2012-05-26T10:21:34Z</time>
      </trkpt>
      <trkpt lat="44.48346" lon="5.18763">
        <ele>1196.5</ele>
        <time>2012-05-26T10:21:35Z</time>
      </trkpt>
      <trkpt lat="44.48346" lon="5.18763">
        <ele>1193.61</ele>
        <time>2012-05-26T10:21:52Z</time>
      </trkpt>
      <trkpt lat="44.48346" lon="5.18763">
        <ele>1194.58</ele>
        <time>2012-05-26T10:22:07Z</time>
      </trkpt>
      <trkpt lat="44.4835" lon="5.18766">
        <ele>1195.54</ele>
        <time>2012-05-26T10:22:24Z</time>
      </trkpt>
      <trkpt lat="44.48351" lon="5.18767">
        <ele>1196.5</ele>
        <time>2012-05-26T10:22:26Z</time>
      </trkpt>
      <trkpt lat="44.48354" lon="5.18773">
        <ele>1199.86</ele>
        <time>2012-05-26T10:22:39Z</time>
      </trkpt>
      <trkpt lat="44.48354" lon="5.18776">
        <ele>1202.27</ele>
        <time>2012-05-26T10:22:51Z</time>
      </trkpt>
      <trkpt lat="44.48353" lon="5.18779">
        <ele>1205.15</ele>
        <time>2012-05-26T10:23:05Z</time>
      </trkpt>
      <trkpt lat="44.48349" lon="5.18787">
        <ele>1208.03</ele>
        <time>2012-05-26T10:23:20Z</time>
      </trkpt>
      <trkpt lat="44.48349" lon="5.18791">
        <ele>1210.44</ele>
        <time>2012-05-26T10:23:34Z</time>
      </trkpt>
      <trkpt lat="44.48348" lon="5.18798">
        <ele>1212.84</ele>
        <time>2012-05-26T10:23:48Z</time>
      </trkpt>
      <trkpt lat="44.48349" lon="5.18802">
        <ele>1212.84</ele>
        <time>2012-05-26T10:24:05Z</time>
      </trkpt>
      <trkpt lat="44.48349" lon="5.18804">
        <ele>1212.84</ele>
        <time>2012-05-26T10:24:24Z</time>
      </trkpt>
      <trkpt lat="44.48348" lon="5.18812">
        <ele>1214.28</ele>
        <time>2012-05-26T10:24:36Z</time>
      </trkpt>
      <trkpt lat="44.48345" lon="5.18826">
        <ele>1217.65</ele>
        <time>2012-05-26T10:24:50Z</time>
      </trkpt>
      <trkpt lat="44.4834" lon="5.18838">
        <ele>1220.53</ele>
        <time>2012-05-26T10:25:04Z</time>
      </trkpt>
      <trkpt lat="44.48339" lon="5.18842">
        <ele>1221.97</ele>
        <time>2012-05-26T10:25:12Z</time>
      </trkpt>
      <trkpt lat="44.48338" lon="5.18845">
        <ele>1225.34</ele>
        <time>2012-05-26T10:25:26Z</time>
      </trkpt>
      <trkpt lat="44.48338" lon="5.18848">
        <ele>1227.74</ele>
        <time>2012-05-26T10:25:38Z</time>
      </trkpt>
      <trkpt lat="44.48334" lon="5.18859">
        <ele>1230.14</ele>
        <time>2012-05-26T10:25:51Z</time>
      </trkpt>
      <trkpt lat="44.4833" lon="5.18868">
        <ele>1233.51</ele>
        <time>2012-05-26T10:26:06Z</time>
      </trkpt>
      <trkpt lat="44.4833" lon="5.1887">
        <ele>1235.91</ele>
        <time>2012-05-26T10:26:20Z</time>
      </trkpt>
      <trkpt lat="44.48329" lon="5.18872">
        <ele>1238.32</ele>
        <time>2012-05-26T10:26:32Z</time>
      </trkpt>
      <trkpt lat="44.48325" lon="5.18878">
        <ele>1241.2</ele>
        <time>2012-05-26T10:26:45Z</time>
      </trkpt>
      <trkpt lat="44.48325" lon="5.18891">
        <ele>1244.08</ele>
        <time>2012-05-26T10:26:59Z</time>
      </trkpt>
      <trkpt lat="44.48324" lon="5.18897">
        <ele>1246.97</ele>
        <time>2012-05-26T10:27:12Z</time>
      </trkpt>
      <trkpt lat="44.48325" lon="5.18902">
        <ele>1249.85</ele>
        <time>2012-05-26T10:27:25Z</time>
      </trkpt>
      <trkpt lat="44.48327" lon="5.1891">
        <ele>1252.74</ele>
        <time>2012-05-26T10:27:38Z</time>
      </trkpt>
      <trkpt lat="44.48329" lon="5.18927">
        <ele>1255.62</ele>
        <time>2012-05-26T10:27:52Z</time>
      </trkpt>
      <trkpt lat="44.48329" lon="5.18942">
        <ele>1258.5</ele>
        <time>2012-05-26T10:28:08Z</time>
      </trkpt>
      <trkpt lat="44.48325" lon="5.18948">
        <ele>1261.87</ele>
        <time>2012-05-26T10:28:23Z</time>
      </trkpt>
      <trkpt lat="44.48321" lon="5.18952">
        <ele>1264.75</ele>
        <time>2012-05-26T10:28:38Z</time>
      </trkpt>
      <trkpt lat="44.48317" lon="5.18954">
        <ele>1268.12</ele>
        <time>2012-05-26T10:28:53Z</time>
      </trkpt>
      <trkpt lat="44.48307" lon="5.18963">
        <ele>1270.52</ele>
        <time>2012-05-26T10:29:09Z</time>
      </trkpt>
      <trkpt lat="44.48304" lon="5.18965">
        <ele>1271.96</ele>
        <time>2012-05-26T10:29:24Z</time>
      </trkpt>
      <trkpt lat="44.48305" lon="5.18967">
        <ele>1271.96</ele>
        <time>2012-05-26T10:29:58Z</time>
      </trkpt>
      <trkpt lat="44.48305" lon="5.18972">
        <ele>1274.85</ele>
        <time>2012-05-26T10:30:14Z</time>
      </trkpt>
      <trkpt lat="44.48302" lon="5.18978">
        <ele>1278.21</ele>
        <time>2012-05-26T10:30:26Z</time>
      </trkpt>
      <trkpt lat="44.48304" lon="5.18987">
        <ele>1281.09</ele>
        <time>2012-05-26T10:30:38Z</time>
      </trkpt>
      <trkpt lat="44.48303" lon="5.18996">
        <ele>1283.5</ele>
        <time>2012-05-26T10:30:50Z</time>
      </trkpt>
      <trkpt lat="44.48302" lon="5.18999">
        <ele>1284.46</ele>
        <time>2012-05-26T10:31:07Z</time>
      </trkpt>
      <trkpt lat="44.48299" lon="5.19008">
        <ele>1287.34</ele>
        <time>2012-05-26T10:31:17Z</time>
      </trkpt>
      <trkpt lat="44.48295" lon="5.19018">
        <ele>1290.23</ele>
        <time>2012-05-26T10:31:32Z</time>
      </trkpt>
      <trkpt lat="44.48289" lon="5.19027">
        <ele>1293.59</ele>
        <time>2012-05-26T10:31:46Z</time>
      </trkpt>
      <trkpt lat="44.48287" lon="5.19034">
        <ele>1294.55</ele>
        <time>2012-05-26T10:32:01Z</time>
      </trkpt>
      <trkpt lat="44.48282" lon="5.19043">
        <ele>1296.48</ele>
        <time>2012-05-26T10:32:15Z</time>
      </trkpt>
      <trkpt lat="44.48282" lon="5.19043">
        <ele>1296.96</ele>
        <time>2012-05-26T10:32:29Z</time>
      </trkpt>
      <trkpt lat="44.48281" lon="5.19041">
        <ele>1296.48</ele>
        <time>2012-05-26T10:32:43Z</time>
      </trkpt>
      <trkpt lat="44.48282" lon="5.19042">
        <ele>1296.96</ele>
        <time>2012-05-26T10:33:09Z</time>
      </trkpt>
      <trkpt lat="44.48282" lon="5.19042">
        <ele>1296.48</ele>
        <time>2012-05-26T10:33:28Z</time>
      </trkpt>
      <trkpt lat="44.48281" lon="5.19048">
        <ele>1297.92</ele>
        <time>2012-05-26T10:33:47Z</time>
      </trkpt>
      <trkpt lat="44.48279" lon="5.19059">
        <ele>1298.88</ele>
        <time>2012-05-26T10:33:57Z</time>
      </trkpt>
      <trkpt lat="44.48277" lon="5.19071">
        <ele>1300.8</ele>
        <time>2012-05-26T10:34:14Z</time>
      </trkpt>
      <trkpt lat="44.48276" lon="5.19071">
        <ele>1300.32</ele>
        <time>2012-05-26T10:34:32Z</time>
      </trkpt>
      <trkpt lat="44.48275" lon="5.19075">
        <ele>1301.76</ele>
        <time>2012-05-26T10:34:45Z</time>
      </trkpt>
      <trkpt lat="44.48275" lon="5.19075">
        <ele>1301.76</ele>
        <time>2012-05-26T10:34:48Z</time>
      </trkpt>
      <trkpt lat="44.48275" lon="5.1908">
        <ele>1302.72</ele>
        <time>2012-05-26T10:34:51Z</time>
      </trkpt>
      <trkpt lat="44.48268" lon="5.19103">
        <ele>1306.09</ele>
        <time>2012-05-26T10:35:10Z</time>
      </trkpt>
      <trkpt lat="44.48264" lon="5.19121">
        <ele>1308.97</ele>
        <time>2012-05-26T10:35:25Z</time>
      </trkpt>
      <trkpt lat="44.48263" lon="5.19124">
        <ele>1309.93</ele>
        <time>2012-05-26T10:35:28Z</time>
      </trkpt>
      <trkpt lat="44.48262" lon="5.19135">
        <ele>1311.86</ele>
        <time>2012-05-26T10:35:37Z</time>
      </trkpt>
      <trkpt lat="44.48264" lon="5.19148">
        <ele>1315.22</ele>
        <time>2012-05-26T10:35:50Z</time>
      </trkpt>
      <trkpt lat="44.48266" lon="5.19162">
        <ele>1318.1</ele>
        <time>2012-05-26T10:36:04Z</time>
      </trkpt>
      <trkpt lat="44.48269" lon="5.19174">
        <ele>1321.47</ele>
        <time>2012-05-26T10:36:18Z</time>
      </trkpt>
      <trkpt lat="44.48271" lon="5.19186">
        <ele>1324.35</ele>
        <time>2012-05-26T10:36:31Z</time>
      </trkpt>
      <trkpt lat="44.48271" lon="5.19189">
        <ele>1325.31</ele>
        <time>2012-05-26T10:36:45Z</time>
      </trkpt>
      <trkpt lat="44.48272" lon="5.19203">
        <ele>1328.2</ele>
        <time>2012-05-26T10:36:57Z</time>
      </trkpt>
      <trkpt lat="44.48273" lon="5.19206">
        <ele>1329.16</ele>
        <time>2012-05-26T10:37:01Z</time>
      </trkpt>
      <trkpt lat="44.48273" lon="5.19215">
        <ele>1331.56</ele>
        <time>2012-05-26T10:37:10Z</time>
      </trkpt>
      <trkpt lat="44.48274" lon="5.1922">
        <ele>1333.01</ele>
        <time>2012-05-26T10:37:15Z</time>
      </trkpt>
      <trkpt lat="44.48276" lon="5.19231">
        <ele>1335.41</ele>
        <time>2012-05-26T10:37:27Z</time>
      </trkpt>
      <trkpt lat="44.4828" lon="5.19245">
        <ele>1338.29</ele>
        <time>2012-05-26T10:37:42Z</time>
      </trkpt>
      <trkpt lat="44.48282" lon="5.19251">
        <ele>1341.18</ele>
        <time>2012-05-26T10:37:55Z</time>
      </trkpt>
      <trkpt lat="44.48286" lon="5.19267">
        <ele>1344.06</ele>
        <time>2012-05-26T10:38:11Z</time>
      </trkpt>
      <trkpt lat="44.48286" lon="5.1927">
        <ele>1345.98</ele>
        <time>2012-05-26T10:38:24Z</time>
      </trkpt>
      <trkpt lat="44.48287" lon="5.19273">
        <ele>1346.46</ele>
        <time>2012-05-26T10:38:29Z</time>
      </trkpt>
      <trkpt lat="44.48291" lon="5.19286">
        <ele>1349.35</ele>
        <time>2012-05-26T10:38:43Z</time>
      </trkpt>
      <trkpt lat="44.48294" lon="5.19298">
        <ele>1352.71</ele>
        <time>2012-05-26T10:38:57Z</time>
      </trkpt>
      <trkpt lat="44.48299" lon="5.19309">
        <ele>1355.12</ele>
        <time>2012-05-26T10:39:10Z</time>
      </trkpt>
      <trkpt lat="44.48302" lon="5.19314">
        <ele>1356.56</ele>
        <time>2012-05-26T10:39:23Z</time>
      </trkpt>
      <trkpt lat="44.48301" lon="5.19314">
        <ele>1356.56</ele>
        <time>2012-05-26T10:39:36Z</time>
      </trkpt>
      <trkpt lat="44.48303" lon="5.19317">
        <ele>1357.04</ele>
        <time>2012-05-26T10:39:39Z</time>
      </trkpt>
      <trkpt lat="44.48309" lon="5.19331">
        <ele>1360.4</ele>
        <time>2012-05-26T10:39:51Z</time>
      </trkpt>
      <trkpt lat="44.4831" lon="5.19333">
        <ele>1360.88</ele>
        <time>2012-05-26T10:39:53Z</time>
      </trkpt>
      <trkpt lat="44.48317" lon="5.19345">
        <ele>1363.77</ele>
        <time>2012-05-26T10:40:06Z</time>
      </trkpt>
      <trkpt lat="44.4832" lon="5.19349">
        <ele>1364.25</ele>
        <time>2012-05-26T10:40:10Z</time>
      </trkpt>
      <trkpt lat="44.48329" lon="5.19361">
        <ele>1367.61</ele>
        <time>2012-05-26T10:40:26Z</time>
      </trkpt>
      <trkpt lat="44.48333" lon="5.19369">
        <ele>1370.5</ele>
        <time>2012-05-26T10:40:36Z</time>
      </trkpt>
      <trkpt lat="44.48335" lon="5.1938">
        <ele>1373.38</ele>
        <time>2012-05-26T10:40:48Z</time>
      </trkpt>
      <trkpt lat="44.48334" lon="5.19387">
        <ele>1376.75</ele>
        <time>2012-05-26T10:40:59Z</time>
      </trkpt>
      <trkpt lat="44.48334" lon="5.1939">
        <ele>1377.71</ele>
        <time>2012-05-26T10:41:04Z</time>
      </trkpt>
      <trkpt lat="44.48334" lon="5.19404">
        <ele>1381.55</ele>
        <time>2012-05-26T10:41:18Z</time>
      </trkpt>
      <trkpt lat="44.48333" lon="5.19417">
        <ele>1384.44</ele>
        <time>2012-05-26T10:41:31Z</time>
      </trkpt>
      <trkpt lat="44.48333" lon="5.1942">
        <ele>1385.88</ele>
        <time>2012-05-26T10:41:47Z</time>
      </trkpt>
      <trkpt lat="44.48331" lon="5.19428">
        <ele>1387.32</ele>
        <time>2012-05-26T10:42:01Z</time>
      </trkpt>
      <trkpt lat="44.48339" lon="5.19438">
        <ele>1389.72</ele>
        <time>2012-05-26T10:42:11Z</time>
      </trkpt>
      <trkpt lat="44.48334" lon="5.19452">
        <ele>1392.61</ele>
        <time>2012-05-26T10:42:25Z</time>
      </trkpt>
      <trkpt lat="44.48329" lon="5.19462">
        <ele>1395.97</ele>
        <time>2012-05-26T10:42:36Z</time>
      </trkpt>
      <trkpt lat="44.48329" lon="5.19464">
        <ele>1395.97</ele>
        <time>2012-05-26T10:42:50Z</time>
      </trkpt>
      <trkpt lat="44.48328" lon="5.19466">
        <ele>1396.45</ele>
        <time>2012-05-26T10:42:52Z</time>
      </trkpt>
      <trkpt lat="44.48323" lon="5.19472">
        <ele>1397.89</ele>
        <time>2012-05-26T10:43:01Z</time>
      </trkpt>
      <trkpt lat="44.48317" lon="5.1949">
        <ele>1401.26</ele>
        <time>2012-05-26T10:43:15Z</time>
      </trkpt>
      <trkpt lat="44.48311" lon="5.19503">
        <ele>1403.66</ele>
        <time>2012-05-26T10:43:30Z</time>
      </trkpt>
      <trkpt lat="44.48311" lon="5.19503">
        <ele>1403.66</ele>
        <time>2012-05-26T10:43:50Z</time>
      </trkpt>
      <trkpt lat="44.48313" lon="5.19505">
        <ele>1403.66</ele>
        <time>2012-05-26T10:44:10Z</time>
      </trkpt>
      <trkpt lat="44.48316" lon="5.19508">
        <ele>1404.14</ele>
        <time>2012-05-26T10:44:23Z</time>
      </trkpt>
      <trkpt lat="44.48316" lon="5.19509">
        <ele>1404.62</ele>
        <time>2012-05-26T10:44:46Z</time>
      </trkpt>
      <trkpt lat="44.48318" lon="5.1951">
        <ele>1405.58</ele>
        <time>2012-05-26T10:44:49Z</time>
      </trkpt>
      <trkpt lat="44.48322" lon="5.19511">
        <ele>1406.07</ele>
        <time>2012-05-26T10:44:54Z</time>
      </trkpt>
      <trkpt lat="44.48328" lon="5.19511">
        <ele>1410.87</ele>
        <time>2012-05-26T10:45:03Z</time>
      </trkpt>
      <trkpt lat="44.48328" lon="5.19511">
        <ele>1407.03</ele>
        <time>2012-05-26T10:45:04Z</time>
      </trkpt>
      <trkpt lat="44.4833" lon="5.19513">
        <ele>1407.99</ele>
        <time>2012-05-26T10:45:21Z</time>
      </trkpt>
      <trkpt lat="44.4833" lon="5.19513">
        <ele>1404.14</ele>
        <time>2012-05-26T10:45:27Z</time>
      </trkpt>
      <trkpt lat="44.4833" lon="5.19513">
        <ele>1410.87</ele>
        <time>2012-05-26T10:45:28Z</time>
      </trkpt>
      <trkpt lat="44.4833" lon="5.19513">
        <ele>1407.51</ele>
        <time>2012-05-26T10:45:29Z</time>
      </trkpt>
      <trkpt lat="44.48334" lon="5.19515">
        <ele>1408.47</ele>
        <time>2012-05-26T10:45:59Z</time>
      </trkpt>
      <trkpt lat="44.4834" lon="5.19523">
        <ele>1410.39</ele>
        <time>2012-05-26T10:46:08Z</time>
      </trkpt>
      <trkpt lat="44.48348" lon="5.19531">
        <ele>1412.79</ele>
        <time>2012-05-26T10:46:18Z</time>
      </trkpt>
      <trkpt lat="44.4835" lon="5.19534">
        <ele>1413.28</ele>
        <time>2012-05-26T10:46:21Z</time>
      </trkpt>
      <trkpt lat="44.48356" lon="5.19539">
        <ele>1414.24</ele>
        <time>2012-05-26T10:46:28Z</time>
      </trkpt>
      <trkpt lat="44.4836" lon="5.19544">
        <ele>1415.2</ele>
        <time>2012-05-26T10:46:33Z</time>
      </trkpt>
      <trkpt lat="44.48376" lon="5.19555">
        <ele>1418.56</ele>
        <time>2012-05-26T10:46:51Z</time>
      </trkpt>
      <trkpt lat="44.48385" lon="5.19563">
        <ele>1420.97</ele>
        <time>2012-05-26T10:47:03Z</time>
      </trkpt>
      <trkpt lat="44.48396" lon="5.19569">
        <ele>1422.89</ele>
        <time>2012-05-26T10:47:15Z</time>
      </trkpt>
      <trkpt lat="44.484" lon="5.19573">
        <ele>1423.85</ele>
        <time>2012-05-26T10:47:27Z</time>
      </trkpt>
      <trkpt lat="44.48411" lon="5.19582">
        <ele>1426.25</ele>
        <time>2012-05-26T10:47:41Z</time>
      </trkpt>
      <trkpt lat="44.48422" lon="5.19592">
        <ele>1429.14</ele>
        <time>2012-05-26T10:47:55Z</time>
      </trkpt>
      <trkpt lat="44.48425" lon="5.19595">
        <ele>1429.62</ele>
        <time>2012-05-26T10:48:08Z</time>
      </trkpt>
      <trkpt lat="44.48433" lon="5.196">
        <ele>1431.54</ele>
        <time>2012-05-26T10:48:23Z</time>
      </trkpt>
      <trkpt lat="44.48436" lon="5.19603">
        <ele>1432.5</ele>
        <time>2012-05-26T10:48:35Z</time>
      </trkpt>
      <trkpt lat="44.48447" lon="5.19613">
        <ele>1434.91</ele>
        <time>2012-05-26T10:48:49Z</time>
      </trkpt>
      <trkpt lat="44.48454" lon="5.19623">
        <ele>1436.35</ele>
        <time>2012-05-26T10:49:00Z</time>
      </trkpt>
      <trkpt lat="44.4846" lon="5.19627">
        <ele>1437.79</ele>
        <time>2012-05-26T10:49:14Z</time>
      </trkpt>
      <trkpt lat="44.48463" lon="5.19627">
        <ele>1438.27</ele>
        <time>2012-05-26T10:49:21Z</time>
      </trkpt>
      <trkpt lat="44.48468" lon="5.1963">
        <ele>1438.27</ele>
        <time>2012-05-26T10:49:34Z</time>
      </trkpt>
      <trkpt lat="44.4847" lon="5.19628">
        <ele>1439.23</ele>
        <time>2012-05-26T10:49:45Z</time>
      </trkpt>
      <trkpt lat="44.4847" lon="5.19628">
        <ele>1435.87</ele>
        <time>2012-05-26T10:49:49Z</time>
      </trkpt>
      <trkpt lat="44.4847" lon="5.19628">
        <ele>1443.08</ele>
        <time>2012-05-26T10:49:50Z</time>
      </trkpt>
      <trkpt lat="44.4847" lon="5.19628">
        <ele>1439.23</ele>
        <time>2012-05-26T10:49:51Z</time>
      </trkpt>
      <trkpt lat="44.48471" lon="5.19627">
        <ele>1439.23</ele>
        <time>2012-05-26T10:50:11Z</time>
      </trkpt>
      <trkpt lat="44.48471" lon="5.19625">
        <ele>1439.23</ele>
        <time>2012-05-26T10:50:26Z</time>
      </trkpt>
      <trkpt lat="44.4847" lon="5.19624">
        <ele>1438.27</ele>
        <time>2012-05-26T10:50:45Z</time>
      </trkpt>
      <trkpt lat="44.4847" lon="5.19627">
        <ele>1439.23</ele>
        <time>2012-05-26T10:51:10Z</time>
      </trkpt>
      <trkpt lat="44.48472" lon="5.19628">
        <ele>1439.23</ele>
        <time>2012-05-26T10:51:18Z</time>
      </trkpt>
      <trkpt lat="44.4847" lon="5.19629">
        <ele>1439.23</ele>
        <time>2012-05-26T10:51:31Z</time>
      </trkpt>
      <trkpt lat="44.48469" lon="5.19629">
        <ele>1440.67</ele>
        <time>2012-05-26T10:51:58Z</time>
      </trkpt>
      <trkpt lat="44.48472" lon="5.19635">
        <ele>1440.19</ele>
        <time>2012-05-26T10:52:10Z</time>
      </trkpt>
      <trkpt lat="44.48468" lon="5.19647">
        <ele>1438.75</ele>
        <time>2012-05-26T10:52:28Z</time>
      </trkpt>
      <trkpt lat="44.48465" lon="5.19656">
        <ele>1440.19</ele>
        <time>2012-05-26T10:52:41Z</time>
      </trkpt>
      <trkpt lat="44.48465" lon="5.19656">
        <ele>1438.75</ele>
        <time>2012-05-26T10:52:44Z</time>
      </trkpt>
      <trkpt lat="44.48465" lon="5.19656">
        <ele>1438.75</ele>
        <time>2012-05-26T10:53:04Z</time>
      </trkpt>
      <trkpt lat="44.48465" lon="5.19656">
        <ele>1438.75</ele>
        <time>2012-05-26T10:53:07Z</time>
      </trkpt>
      <trkpt lat="44.48464" lon="5.19663">
        <ele>1438.27</ele>
        <time>2012-05-26T10:53:11Z</time>
      </trkpt>
      <trkpt lat="44.48462" lon="5.19682">
        <ele>1436.35</ele>
        <time>2012-05-26T10:53:25Z</time>
      </trkpt>
      <trkpt lat="44.48462" lon="5.19682">
        <ele>1436.35</ele>
        <time>2012-05-26T10:53:44Z</time>
      </trkpt>
      <trkpt lat="44.48462" lon="5.19681">
        <ele>1436.35</ele>
        <time>2012-05-26T10:54:10Z</time>
      </trkpt>
      <trkpt lat="44.48462" lon="5.19682">
        <ele>1437.31</ele>
        <time>2012-05-26T10:54:39Z</time>
      </trkpt>
      <trkpt lat="44.48462" lon="5.19682">
        <ele>1432.5</ele>
        <time>2012-05-26T10:54:58Z</time>
      </trkpt>
      <trkpt lat="44.48462" lon="5.19682">
        <ele>1441.15</ele>
        <time>2012-05-26T10:54:59Z</time>
      </trkpt>
      <trkpt lat="44.48462" lon="5.19682">
        <ele>1432.98</ele>
        <time>2012-05-26T10:55:00Z</time>
      </trkpt>
      <trkpt lat="44.48462" lon="5.19682">
        <ele>1438.27</ele>
        <time>2012-05-26T10:55:01Z</time>
      </trkpt>
      <trkpt lat="44.48462" lon="5.19682">
        <ele>1436.83</ele>
        <time>2012-05-26T10:55:17Z</time>
      </trkpt>
      <trkpt lat="44.48462" lon="5.19682">
        <ele>1438.75</ele>
        <time>2012-05-26T10:55:39Z</time>
      </trkpt>
      <trkpt lat="44.48462" lon="5.19681">
        <ele>1436.35</ele>
        <time>2012-05-26T10:55:58Z</time>
      </trkpt>
      <trkpt lat="44.48462" lon="5.19681">
        <ele>1435.87</ele>
        <time>2012-05-26T10:56:31Z</time>
      </trkpt>
      <trkpt lat="44.48462" lon="5.1968">
        <ele>1437.79</ele>
        <time>2012-05-26T10:56:53Z</time>
      </trkpt>
      <trkpt lat="44.48462" lon="5.1968">
        <ele>1434.42</ele>
        <time>2012-05-26T10:57:00Z</time>
      </trkpt>
      <trkpt lat="44.48462" lon="5.1968">
        <ele>1437.79</ele>
        <time>2012-05-26T10:57:01Z</time>
      </trkpt>
      <trkpt lat="44.48461" lon="5.1968">
        <ele>1435.87</ele>
        <time>2012-05-26T10:57:29Z</time>
      </trkpt>
      <trkpt lat="44.48461" lon="5.19679">
        <ele>1435.87</ele>
        <time>2012-05-26T10:58:00Z</time>
      </trkpt>
      <trkpt lat="44.48461" lon="5.1968">
        <ele>1436.35</ele>
        <time>2012-05-26T10:58:25Z</time>
      </trkpt>
      <trkpt lat="44.48461" lon="5.1968">
        <ele>1436.35</ele>
        <time>2012-05-26T10:58:50Z</time>
      </trkpt>
      <trkpt lat="44.48461" lon="5.1968">
        <ele>1436.35</ele>
        <time>2012-05-26T10:59:15Z</time>
      </trkpt>
      <trkpt lat="44.48461" lon="5.1968">
        <ele>1435.87</ele>
        <time>2012-05-26T10:59:38Z</time>
      </trkpt>
      <trkpt lat="44.48461" lon="5.19681">
        <ele>1437.31</ele>
        <time>2012-05-26T10:59:57Z</time>
      </trkpt>
      <trkpt lat="44.48461" lon="5.19681">
        <ele>1437.31</ele>
        <time>2012-05-26T11:00:19Z</time>
      </trkpt>
      <trkpt lat="44.48461" lon="5.19681">
        <ele>1437.31</ele>
        <time>2012-05-26T11:00:50Z</time>
      </trkpt>
      <trkpt lat="44.48464" lon="5.19671">
        <ele>1438.27</ele>
        <time>2012-05-26T11:01:01Z</time>
      </trkpt>
      <trkpt lat="44.48465" lon="5.19667">
        <ele>1438.75</ele>
        <time>2012-05-26T11:01:04Z</time>
      </trkpt>
      <trkpt lat="44.48466" lon="5.19664">
        <ele>1439.23</ele>
        <time>2012-05-26T11:01:07Z</time>
      </trkpt>
      <trkpt lat="44.48466" lon="5.19659">
        <ele>1439.71</ele>
        <time>2012-05-26T11:01:15Z</time>
      </trkpt>
      <trkpt lat="44.48466" lon="5.19656">
        <ele>1439.71</ele>
        <time>2012-05-26T11:01:17Z</time>
      </trkpt>
      <trkpt lat="44.48467" lon="5.19653">
        <ele>1439.71</ele>
        <time>2012-05-26T11:01:20Z</time>
      </trkpt>
      <trkpt lat="44.48468" lon="5.1964">
        <ele>1440.67</ele>
        <time>2012-05-26T11:01:29Z</time>
      </trkpt>
      <trkpt lat="44.48473" lon="5.19626">
        <ele>1440.67</ele>
        <time>2012-05-26T11:01:39Z</time>
      </trkpt>
      <trkpt lat="44.48475" lon="5.19624">
        <ele>1440.67</ele>
        <time>2012-05-26T11:01:44Z</time>
      </trkpt>
      <trkpt lat="44.48477" lon="5.19622">
        <ele>1440.67</ele>
        <time>2012-05-26T11:01:46Z</time>
      </trkpt>
      <trkpt lat="44.48484" lon="5.19616">
        <ele>1440.67</ele>
        <time>2012-05-26T11:01:53Z</time>
      </trkpt>
      <trkpt lat="44.48494" lon="5.19609">
        <ele>1440.19</ele>
        <time>2012-05-26T11:02:07Z</time>
      </trkpt>
      <trkpt lat="44.48496" lon="5.19608">
        <ele>1439.23</ele>
        <time>2012-05-26T11:02:13Z</time>
      </trkpt>
      <trkpt lat="44.48499" lon="5.19606">
        <ele>1437.79</ele>
        <time>2012-05-26T11:02:17Z</time>
      </trkpt>
      <trkpt lat="44.4851" lon="5.196">
        <ele>1435.39</ele>
        <time>2012-05-26T11:02:32Z</time>
      </trkpt>
      <trkpt lat="44.4851" lon="5.196">
        <ele>1435.39</ele>
        <time>2012-05-26T11:02:55Z</time>
      </trkpt>
      <trkpt lat="44.48512" lon="5.19598">
        <ele>1434.91</ele>
        <time>2012-05-26T11:02:58Z</time>
      </trkpt>
      <trkpt lat="44.48524" lon="5.19588">
        <ele>1431.06</ele>
        <time>2012-05-26T11:03:11Z</time>
      </trkpt>
      <trkpt lat="44.48535" lon="5.19582">
        <ele>1427.7</ele>
        <time>2012-05-26T11:03:22Z</time>
      </trkpt>
      <trkpt lat="44.48536" lon="5.19582">
        <ele>1427.7</ele>
        <time>2012-05-26T11:03:24Z</time>
      </trkpt>
      <trkpt lat="44.48544" lon="5.19575">
        <ele>1424.81</ele>
        <time>2012-05-26T11:03:34Z</time>
      </trkpt>
      <trkpt lat="44.4856" lon="5.19569">
        <ele>1421.45</ele>
        <time>2012-05-26T11:03:46Z</time>
      </trkpt>
      <trkpt lat="44.48576" lon="5.19562">
        <ele>1418.56</ele>
        <time>2012-05-26T11:03:59Z</time>
      </trkpt>
      <trkpt lat="44.48584" lon="5.19554">
        <ele>1416.64</ele>
        <time>2012-05-26T11:04:08Z</time>
      </trkpt>
      <trkpt lat="44.48587" lon="5.19552">
        <ele>1415.68</ele>
        <time>2012-05-26T11:04:11Z</time>
      </trkpt>
      <trkpt lat="44.48592" lon="5.19556">
        <ele>1414.72</ele>
        <time>2012-05-26T11:04:23Z</time>
      </trkpt>
      <trkpt lat="44.48592" lon="5.19555">
        <ele>1416.16</ele>
        <time>2012-05-26T11:04:44Z</time>
      </trkpt>
      <trkpt lat="44.48593" lon="5.1955">
        <ele>1414.24</ele>
        <time>2012-05-26T11:04:49Z</time>
      </trkpt>
      <trkpt lat="44.48592" lon="5.19546">
        <ele>1413.76</ele>
        <time>2012-05-26T11:04:52Z</time>
      </trkpt>
      <trkpt lat="44.48598" lon="5.19537">
        <ele>1409.91</ele>
        <time>2012-05-26T11:05:02Z</time>
      </trkpt>
      <trkpt lat="44.48599" lon="5.19537">
        <ele>1409.43</ele>
        <time>2012-05-26T11:05:03Z</time>
      </trkpt>
      <trkpt lat="44.4861" lon="5.1953">
        <ele>1406.07</ele>
        <time>2012-05-26T11:05:14Z</time>
      </trkpt>
      <trkpt lat="44.48614" lon="5.19528">
        <ele>1404.14</ele>
        <time>2012-05-26T11:05:18Z</time>
      </trkpt>
      <trkpt lat="44.48624" lon="5.1952">
        <ele>1401.26</ele>
        <time>2012-05-26T11:05:29Z</time>
      </trkpt>
      <trkpt lat="44.48633" lon="5.19515">
        <ele>1397.89</ele>
        <time>2012-05-26T11:05:39Z</time>
      </trkpt>
      <trkpt lat="44.4864" lon="5.1951">
        <ele>1394.53</ele>
        <time>2012-05-26T11:05:49Z</time>
      </trkpt>
      <trkpt lat="44.4865" lon="5.19507">
        <ele>1391.65</ele>
        <time>2012-05-26T11:05:59Z</time>
      </trkpt>
      <trkpt lat="44.48652" lon="5.19505">
        <ele>1390.68</ele>
        <time>2012-05-26T11:06:02Z</time>
      </trkpt>
      <trkpt lat="44.48658" lon="5.19502">
        <ele>1388.28</ele>
        <time>2012-05-26T11:06:08Z</time>
      </trkpt>
      <trkpt lat="44.4866" lon="5.195">
        <ele>1386.84</ele>
        <time>2012-05-26T11:06:11Z</time>
      </trkpt>
      <trkpt lat="44.48666" lon="5.19497">
        <ele>1383.96</ele>
        <time>2012-05-26T11:06:19Z</time>
      </trkpt>
      <trkpt lat="44.48669" lon="5.19496">
        <ele>1382.99</ele>
        <time>2012-05-26T11:06:22Z</time>
      </trkpt>
      <trkpt lat="44.48672" lon="5.19494">
        <ele>1381.55</ele>
        <time>2012-05-26T11:06:25Z</time>
      </trkpt>
      <trkpt lat="44.48676" lon="5.19493">
        <ele>1379.63</ele>
        <time>2012-05-26T11:06:31Z</time>
      </trkpt>
      <trkpt lat="44.48683" lon="5.19489">
        <ele>1376.26</ele>
        <time>2012-05-26T11:06:39Z</time>
      </trkpt>
      <trkpt lat="44.48686" lon="5.19488">
        <ele>1374.82</ele>
        <time>2012-05-26T11:06:42Z</time>
      </trkpt>
      <trkpt lat="44.48693" lon="5.19486">
        <ele>1371.94</ele>
        <time>2012-05-26T11:06:50Z</time>
      </trkpt>
      <trkpt lat="44.48701" lon="5.19484">
        <ele>1368.57</ele>
        <time>2012-05-26T11:06:58Z</time>
      </trkpt>
      <trkpt lat="44.48711" lon="5.19484">
        <ele>1365.21</ele>
        <time>2012-05-26T11:07:09Z</time>
      </trkpt>
      <trkpt lat="44.48712" lon="5.19483">
        <ele>1364.73</ele>
        <time>2012-05-26T11:07:26Z</time>
      </trkpt>
      <trkpt lat="44.48711" lon="5.19483">
        <ele>1363.77</ele>
        <time>2012-05-26T11:07:49Z</time>
      </trkpt>
      <trkpt lat="44.48711" lon="5.19483">
        <ele>1364.25</ele>
        <time>2012-05-26T11:08:23Z</time>
      </trkpt>
      <trkpt lat="44.4871" lon="5.19481">
        <ele>1364.25</ele>
        <time>2012-05-26T11:08:43Z</time>
      </trkpt>
      <trkpt lat="44.48714" lon="5.19481">
        <ele>1362.81</ele>
        <time>2012-05-26T11:09:07Z</time>
      </trkpt>
      <trkpt lat="44.48722" lon="5.19481">
        <ele>1360.4</ele>
        <time>2012-05-26T11:09:19Z</time>
      </trkpt>
      <trkpt lat="44.48728" lon="5.19479">
        <ele>1357.04</ele>
        <time>2012-05-26T11:09:29Z</time>
      </trkpt>
      <trkpt lat="44.48729" lon="5.19479">
        <ele>1356.56</ele>
        <time>2012-05-26T11:09:42Z</time>
      </trkpt>
      <trkpt lat="44.48729" lon="5.19478">
        <ele>1356.56</ele>
        <time>2012-05-26T11:10:06Z</time>
      </trkpt>
      <trkpt lat="44.48729" lon="5.19478">
        <ele>1356.08</ele>
        <time>2012-05-26T11:10:30Z</time>
      </trkpt>
      <trkpt lat="44.4873" lon="5.19475">
        <ele>1356.08</ele>
        <time>2012-05-26T11:10:50Z</time>
      </trkpt>
      <trkpt lat="44.48732" lon="5.19473">
        <ele>1355.12</ele>
        <time>2012-05-26T11:10:54Z</time>
      </trkpt>
      <trkpt lat="44.48738" lon="5.19468">
        <ele>1352.71</ele>
        <time>2012-05-26T11:11:01Z</time>
      </trkpt>
      <trkpt lat="44.4874" lon="5.19467">
        <ele>1351.75</ele>
        <time>2012-05-26T11:11:04Z</time>
      </trkpt>
      <trkpt lat="44.48747" lon="5.19464">
        <ele>1348.39</ele>
        <time>2012-05-26T11:11:13Z</time>
      </trkpt>
      <trkpt lat="44.48751" lon="5.19463">
        <ele>1346.46</ele>
        <time>2012-05-26T11:11:17Z</time>
      </trkpt>
      <trkpt lat="44.4876" lon="5.19464">
        <ele>1343.1</ele>
        <time>2012-05-26T11:11:27Z</time>
      </trkpt>
      <trkpt lat="44.48762" lon="5.19463">
        <ele>1342.14</ele>
        <time>2012-05-26T11:11:29Z</time>
      </trkpt>
      <trkpt lat="44.48765" lon="5.19462">
        <ele>1341.18</ele>
        <time>2012-05-26T11:11:32Z</time>
      </trkpt>
      <trkpt lat="44.48775" lon="5.19457">
        <ele>1337.81</ele>
        <time>2012-05-26T11:11:43Z</time>
      </trkpt>
      <trkpt lat="44.48776" lon="5.19455">
        <ele>1337.33</ele>
        <time>2012-05-26T11:12:02Z</time>
      </trkpt>
      <trkpt lat="44.48776" lon="5.19454">
        <ele>1337.33</ele>
        <time>2012-05-26T11:12:10Z</time>
      </trkpt>
      <trkpt lat="44.48784" lon="5.1945">
        <ele>1333.97</ele>
        <time>2012-05-26T11:12:22Z</time>
      </trkpt>
      <trkpt lat="44.4879" lon="5.19445">
        <ele>1332.04</ele>
        <time>2012-05-26T11:12:28Z</time>
      </trkpt>
      <trkpt lat="44.48798" lon="5.1944">
        <ele>1328.68</ele>
        <time>2012-05-26T11:12:38Z</time>
      </trkpt>
      <trkpt lat="44.4881" lon="5.19435">
        <ele>1324.83</ele>
        <time>2012-05-26T11:12:49Z</time>
      </trkpt>
      <trkpt lat="44.48812" lon="5.19435">
        <ele>1324.35</ele>
        <time>2012-05-26T11:12:51Z</time>
      </trkpt>
      <trkpt lat="44.48813" lon="5.19434">
        <ele>1323.87</ele>
        <time>2012-05-26T11:12:52Z</time>
      </trkpt>
      <trkpt lat="44.48829" lon="5.19424">
        <ele>1320.51</ele>
        <time>2012-05-26T11:13:07Z</time>
      </trkpt>
      <trkpt lat="44.48831" lon="5.19424">
        <ele>1320.51</ele>
        <time>2012-05-26T11:13:08Z</time>
      </trkpt>
      <trkpt lat="44.48838" lon="5.19423">
        <ele>1320.03</ele>
        <time>2012-05-26T11:13:21Z</time>
      </trkpt>
      <trkpt lat="44.48842" lon="5.19417">
        <ele>1319.55</ele>
        <time>2012-05-26T11:13:34Z</time>
      </trkpt>
      <trkpt lat="44.48845" lon="5.19415">
        <ele>1319.55</ele>
        <time>2012-05-26T11:13:48Z</time>
      </trkpt>
      <trkpt lat="44.48847" lon="5.19413">
        <ele>1320.03</ele>
        <time>2012-05-26T11:13:51Z</time>
      </trkpt>
      <trkpt lat="44.48853" lon="5.19412">
        <ele>1320.03</ele>
        <time>2012-05-26T11:14:03Z</time>
      </trkpt>
      <trkpt lat="44.48853" lon="5.19414">
        <ele>1318.1</ele>
        <time>2012-05-26T11:14:14Z</time>
      </trkpt>
      <trkpt lat="44.48854" lon="5.19414">
        <ele>1318.1</ele>
        <time>2012-05-26T11:14:33Z</time>
      </trkpt>
      <trkpt lat="44.48852" lon="5.19417">
        <ele>1315.7</ele>
        <time>2012-05-26T11:14:51Z</time>
      </trkpt>
      <trkpt lat="44.4885" lon="5.19425">
        <ele>1312.82</ele>
        <time>2012-05-26T11:15:03Z</time>
      </trkpt>
      <trkpt lat="44.48849" lon="5.1944">
        <ele>1309.93</ele>
        <time>2012-05-26T11:15:18Z</time>
      </trkpt>
      <trkpt lat="44.48849" lon="5.19444">
        <ele>1308.01</ele>
        <time>2012-05-26T11:15:24Z</time>
      </trkpt>
      <trkpt lat="44.48849" lon="5.19452">
        <ele>1304.65</ele>
        <time>2012-05-26T11:15:33Z</time>
      </trkpt>
      <trkpt lat="44.48848" lon="5.19456">
        <ele>1301.28</ele>
        <time>2012-05-26T11:15:40Z</time>
      </trkpt>
      <trkpt lat="44.48845" lon="5.19462">
        <ele>1297.92</ele>
        <time>2012-05-26T11:15:51Z</time>
      </trkpt>
      <trkpt lat="44.48846" lon="5.1947">
        <ele>1294.07</ele>
        <time>2012-05-26T11:16:01Z</time>
      </trkpt>
      <trkpt lat="44.48845" lon="5.19476">
        <ele>1291.19</ele>
        <time>2012-05-26T11:16:10Z</time>
      </trkpt>
      <trkpt lat="44.48847" lon="5.19477">
        <ele>1289.27</ele>
        <time>2012-05-26T11:16:17Z</time>
      </trkpt>
      <trkpt lat="44.48852" lon="5.19478">
        <ele>1285.42</ele>
        <time>2012-05-26T11:16:28Z</time>
      </trkpt>
      <trkpt lat="44.48857" lon="5.19478">
        <ele>1282.06</ele>
        <time>2012-05-26T11:16:40Z</time>
      </trkpt>
      <trkpt lat="44.48858" lon="5.1948">
        <ele>1279.17</ele>
        <time>2012-05-26T11:16:48Z</time>
      </trkpt>
      <trkpt lat="44.48862" lon="5.1948">
        <ele>1275.81</ele>
        <time>2012-05-26T11:16:53Z</time>
      </trkpt>
      <trkpt lat="44.48865" lon="5.19482">
        <ele>1272.44</ele>
        <time>2012-05-26T11:17:01Z</time>
      </trkpt>
      <trkpt lat="44.48869" lon="5.19482">
        <ele>1269.08</ele>
        <time>2012-05-26T11:17:09Z</time>
      </trkpt>
      <trkpt lat="44.48871" lon="5.19483">
        <ele>1266.19</ele>
        <time>2012-05-26T11:17:18Z</time>
      </trkpt>
      <trkpt lat="44.48878" lon="5.19483">
        <ele>1262.83</ele>
        <time>2012-05-26T11:17:27Z</time>
      </trkpt>
      <trkpt lat="44.4889" lon="5.19485">
        <ele>1259.94</ele>
        <time>2012-05-26T11:17:35Z</time>
      </trkpt>
      <trkpt lat="44.48899" lon="5.19486">
        <ele>1256.58</ele>
        <time>2012-05-26T11:17:45Z</time>
      </trkpt>
      <trkpt lat="44.48909" lon="5.19486">
        <ele>1253.7</ele>
        <time>2012-05-26T11:17:53Z</time>
      </trkpt>
      <trkpt lat="44.48918" lon="5.19488">
        <ele>1250.33</ele>
        <time>2012-05-26T11:18:02Z</time>
      </trkpt>
      <trkpt lat="44.48924" lon="5.19488">
        <ele>1246.97</ele>
        <time>2012-05-26T11:18:11Z</time>
      </trkpt>
      <trkpt lat="44.48928" lon="5.19488">
        <ele>1245.04</ele>
        <time>2012-05-26T11:18:17Z</time>
      </trkpt>
      <trkpt lat="44.48929" lon="5.19494">
        <ele>1241.2</ele>
        <time>2012-05-26T11:18:26Z</time>
      </trkpt>
      <trkpt lat="44.48938" lon="5.19492">
        <ele>1238.32</ele>
        <time>2012-05-26T11:18:35Z</time>
      </trkpt>
      <trkpt lat="44.4894" lon="5.1949">
        <ele>1236.39</ele>
        <time>2012-05-26T11:18:39Z</time>
      </trkpt>
      <trkpt lat="44.48943" lon="5.1949">
        <ele>1233.51</ele>
        <time>2012-05-26T11:18:47Z</time>
      </trkpt>
      <trkpt lat="44.4895" lon="5.19492">
        <ele>1230.14</ele>
        <time>2012-05-26T11:18:58Z</time>
      </trkpt>
      <trkpt lat="44.48954" lon="5.19493">
        <ele>1226.78</ele>
        <time>2012-05-26T11:19:08Z</time>
      </trkpt>
      <trkpt lat="44.48958" lon="5.19495">
        <ele>1223.9</ele>
        <time>2012-05-26T11:19:20Z</time>
      </trkpt>
      <trkpt lat="44.48965" lon="5.19499">
        <ele>1221.49</ele>
        <time>2012-05-26T11:19:36Z</time>
      </trkpt>
      <trkpt lat="44.48968" lon="5.19499">
        <ele>1218.61</ele>
        <time>2012-05-26T11:19:43Z</time>
      </trkpt>
      <trkpt lat="44.48979" lon="5.19499">
        <ele>1216.69</ele>
        <time>2012-05-26T11:20:01Z</time>
      </trkpt>
      <trkpt lat="44.48984" lon="5.195">
        <ele>1214.76</ele>
        <time>2012-05-26T11:20:27Z</time>
      </trkpt>
      <trkpt lat="44.48987" lon="5.19501">
        <ele>1211.4</ele>
        <time>2012-05-26T11:20:41Z</time>
      </trkpt>
      <trkpt lat="44.4899" lon="5.195">
        <ele>1208.51</ele>
        <time>2012-05-26T11:20:52Z</time>
      </trkpt>
      <trkpt lat="44.4899" lon="5.195">
        <ele>1207.55</ele>
        <time>2012-05-26T11:20:54Z</time>
      </trkpt>
      <trkpt lat="44.48992" lon="5.195">
        <ele>1204.19</ele>
        <time>2012-05-26T11:21:03Z</time>
      </trkpt>
      <trkpt lat="44.48993" lon="5.195">
        <ele>1200.82</ele>
        <time>2012-05-26T11:21:11Z</time>
      </trkpt>
      <trkpt lat="44.49" lon="5.19496">
        <ele>1197.94</ele>
        <time>2012-05-26T11:21:20Z</time>
      </trkpt>
      <trkpt lat="44.49006" lon="5.19495">
        <ele>1194.58</ele>
        <time>2012-05-26T11:21:26Z</time>
      </trkpt>
      <trkpt lat="44.49013" lon="5.19494">
        <ele>1191.21</ele>
        <time>2012-05-26T11:21:33Z</time>
      </trkpt>
      <trkpt lat="44.4902" lon="5.19489">
        <ele>1189.29</ele>
        <time>2012-05-26T11:21:51Z</time>
      </trkpt>
      <trkpt lat="44.49033" lon="5.19483">
        <ele>1187.37</ele>
        <time>2012-05-26T11:22:13Z</time>
      </trkpt>
      <trkpt lat="44.49037" lon="5.1949">
        <ele>1184.48</ele>
        <time>2012-05-26T11:22:25Z</time>
      </trkpt>
      <trkpt lat="44.49043" lon="5.19495">
        <ele>1181.12</ele>
        <time>2012-05-26T11:22:37Z</time>
      </trkpt>
      <trkpt lat="44.49053" lon="5.19496">
        <ele>1178.71</ele>
        <time>2012-05-26T11:22:53Z</time>
      </trkpt>
      <trkpt lat="44.49056" lon="5.19496">
        <ele>1177.75</ele>
        <time>2012-05-26T11:23:08Z</time>
      </trkpt>
      <trkpt lat="44.49059" lon="5.19496">
        <ele>1177.75</ele>
        <time>2012-05-26T11:23:40Z</time>
      </trkpt>
      <trkpt lat="44.49063" lon="5.19497">
        <ele>1179.19</ele>
        <time>2012-05-26T11:24:02Z</time>
      </trkpt>
      <trkpt lat="44.49064" lon="5.19498">
        <ele>1172.47</ele>
        <time>2012-05-26T11:24:09Z</time>
      </trkpt>
      <trkpt lat="44.49064" lon="5.19498">
        <ele>1182.56</ele>
        <time>2012-05-26T11:24:10Z</time>
      </trkpt>
      <trkpt lat="44.49064" lon="5.19498">
        <ele>1178.71</ele>
        <time>2012-05-26T11:24:11Z</time>
      </trkpt>
      <trkpt lat="44.49064" lon="5.19498">
        <ele>1175.35</ele>
        <time>2012-05-26T11:24:24Z</time>
      </trkpt>
      <trkpt lat="44.49065" lon="5.19498">
        <ele>1172.47</ele>
        <time>2012-05-26T11:24:33Z</time>
      </trkpt>
      <trkpt lat="44.49069" lon="5.19498">
        <ele>1169.1</ele>
        <time>2012-05-26T11:24:42Z</time>
      </trkpt>
      <trkpt lat="44.49074" lon="5.19499">
        <ele>1166.22</ele>
        <time>2012-05-26T11:24:49Z</time>
      </trkpt>
      <trkpt lat="44.49082" lon="5.19499">
        <ele>1162.85</ele>
        <time>2012-05-26T11:24:58Z</time>
      </trkpt>
      <trkpt lat="44.49085" lon="5.19496">
        <ele>1159.49</ele>
        <time>2012-05-26T11:25:11Z</time>
      </trkpt>
      <trkpt lat="44.49093" lon="5.19489">
        <ele>1159.49</ele>
        <time>2012-05-26T11:25:39Z</time>
      </trkpt>
      <trkpt lat="44.49097" lon="5.19488">
        <ele>1157.08</ele>
        <time>2012-05-26T11:26:01Z</time>
      </trkpt>
      <trkpt lat="44.49099" lon="5.19488">
        <ele>1153.72</ele>
        <time>2012-05-26T11:26:13Z</time>
      </trkpt>
      <trkpt lat="44.491" lon="5.19489">
        <ele>1150.35</ele>
        <time>2012-05-26T11:26:24Z</time>
      </trkpt>
      <trkpt lat="44.49105" lon="5.19495">
        <ele>1147.47</ele>
        <time>2012-05-26T11:26:34Z</time>
      </trkpt>
      <trkpt lat="44.49107" lon="5.19495">
        <ele>1144.11</ele>
        <time>2012-05-26T11:26:42Z</time>
      </trkpt>
      <trkpt lat="44.49109" lon="5.19496">
        <ele>1141.22</ele>
        <time>2012-05-26T11:26:49Z</time>
      </trkpt>
      <trkpt lat="44.49112" lon="5.19497">
        <ele>1142.66</ele>
        <time>2012-05-26T11:26:54Z</time>
      </trkpt>
      <trkpt lat="44.49114" lon="5.19498">
        <ele>1139.78</ele>
        <time>2012-05-26T11:26:57Z</time>
      </trkpt>
      <trkpt lat="44.49123" lon="5.19501">
        <ele>1136.42</ele>
        <time>2012-05-26T11:27:07Z</time>
      </trkpt>
      <trkpt lat="44.49124" lon="5.19502">
        <ele>1134.97</ele>
        <time>2012-05-26T11:27:10Z</time>
      </trkpt>
      <trkpt lat="44.49126" lon="5.19502">
        <ele>1132.09</ele>
        <time>2012-05-26T11:27:17Z</time>
      </trkpt>
      <trkpt lat="44.49128" lon="5.19502">
        <ele>1130.17</ele>
        <time>2012-05-26T11:27:21Z</time>
      </trkpt>
      <trkpt lat="44.49135" lon="5.19505">
        <ele>1126.8</ele>
        <time>2012-05-26T11:27:30Z</time>
      </trkpt>
      <trkpt lat="44.49137" lon="5.19505">
        <ele>1124.88</ele>
        <time>2012-05-26T11:27:34Z</time>
      </trkpt>
      <trkpt lat="44.49139" lon="5.19505">
        <ele>1123.44</ele>
        <time>2012-05-26T11:27:38Z</time>
      </trkpt>
      <trkpt lat="44.49143" lon="5.19505">
        <ele>1120.07</ele>
        <time>2012-05-26T11:27:47Z</time>
      </trkpt>
      <trkpt lat="44.49152" lon="5.19505">
        <ele>1116.23</ele>
        <time>2012-05-26T11:28:01Z</time>
      </trkpt>
      <trkpt lat="44.49156" lon="5.19505">
        <ele>1112.86</ele>
        <time>2012-05-26T11:28:13Z</time>
      </trkpt>
      <trkpt lat="44.49166" lon="5.19509">
        <ele>1109.98</ele>
        <time>2012-05-26T11:28:23Z</time>
      </trkpt>
      <trkpt lat="44.49188" lon="5.19521">
        <ele>1106.61</ele>
        <time>2012-05-26T11:28:34Z</time>
      </trkpt>
      <trkpt lat="44.49199" lon="5.19532">
        <ele>1103.73</ele>
        <time>2012-05-26T11:28:47Z</time>
      </trkpt>
      <trkpt lat="44.49206" lon="5.19538">
        <ele>1100.37</ele>
        <time>2012-05-26T11:28:57Z</time>
      </trkpt>
      <trkpt lat="44.49206" lon="5.19539">
        <ele>1100.37</ele>
        <time>2012-05-26T11:28:58Z</time>
      </trkpt>
      <trkpt lat="44.49212" lon="5.19543">
        <ele>1097</ele>
        <time>2012-05-26T11:29:07Z</time>
      </trkpt>
      <trkpt lat="44.49218" lon="5.19547">
        <ele>1093.64</ele>
        <time>2012-05-26T11:29:17Z</time>
      </trkpt>
      <trkpt lat="44.49223" lon="5.19551">
        <ele>1090.75</ele>
        <time>2012-05-26T11:29:29Z</time>
      </trkpt>
      <trkpt lat="44.49227" lon="5.19554">
        <ele>1087.39</ele>
        <time>2012-05-26T11:29:39Z</time>
      </trkpt>
      <trkpt lat="44.49229" lon="5.19551">
        <ele>1084.5</ele>
        <time>2012-05-26T11:29:48Z</time>
      </trkpt>
      <trkpt lat="44.49231" lon="5.19553">
        <ele>1083.54</ele>
        <time>2012-05-26T11:29:51Z</time>
      </trkpt>
      <trkpt lat="44.49239" lon="5.19557">
        <ele>1079.7</ele>
        <time>2012-05-26T11:29:59Z</time>
      </trkpt>
      <trkpt lat="44.49245" lon="5.19568">
        <ele>1076.33</ele>
        <time>2012-05-26T11:30:10Z</time>
      </trkpt>
      <trkpt lat="44.49247" lon="5.19569">
        <ele>1075.85</ele>
        <time>2012-05-26T11:30:12Z</time>
      </trkpt>
      <trkpt lat="44.49253" lon="5.1958">
        <ele>1072.49</ele>
        <time>2012-05-26T11:30:21Z</time>
      </trkpt>
      <trkpt lat="44.49257" lon="5.19588">
        <ele>1069.6</ele>
        <time>2012-05-26T11:30:31Z</time>
      </trkpt>
      <trkpt lat="44.49259" lon="5.19595">
        <ele>1066.24</ele>
        <time>2012-05-26T11:30:41Z</time>
      </trkpt>
      <trkpt lat="44.49261" lon="5.19602">
        <ele>1062.39</ele>
        <time>2012-05-26T11:30:48Z</time>
      </trkpt>
      <trkpt lat="44.49261" lon="5.19609">
        <ele>1059.03</ele>
        <time>2012-05-26T11:30:57Z</time>
      </trkpt>
      <trkpt lat="44.49263" lon="5.19613">
        <ele>1058.07</ele>
        <time>2012-05-26T11:31:00Z</time>
      </trkpt>
      <trkpt lat="44.49268" lon="5.19622">
        <ele>1054.22</ele>
        <time>2012-05-26T11:31:06Z</time>
      </trkpt>
      <trkpt lat="44.49272" lon="5.19631">
        <ele>1050.86</ele>
        <time>2012-05-26T11:31:14Z</time>
      </trkpt>
      <trkpt lat="44.49273" lon="5.19638">
        <ele>1049.42</ele>
        <time>2012-05-26T11:31:18Z</time>
      </trkpt>
      <trkpt lat="44.49273" lon="5.19652">
        <ele>1046.53</ele>
        <time>2012-05-26T11:31:27Z</time>
      </trkpt>
      <trkpt lat="44.49274" lon="5.19671">
        <ele>1043.17</ele>
        <time>2012-05-26T11:31:40Z</time>
      </trkpt>
      <trkpt lat="44.49277" lon="5.19671">
        <ele>1040.76</ele>
        <time>2012-05-26T11:31:46Z</time>
      </trkpt>
      <trkpt lat="44.49279" lon="5.19668">
        <ele>1040.28</ele>
        <time>2012-05-26T11:31:48Z</time>
      </trkpt>
      <trkpt lat="44.49284" lon="5.19658">
        <ele>1036.92</ele>
        <time>2012-05-26T11:31:58Z</time>
      </trkpt>
      <trkpt lat="44.49289" lon="5.19645">
        <ele>1034.04</ele>
        <time>2012-05-26T11:32:09Z</time>
      </trkpt>
      <trkpt lat="44.49296" lon="5.19631">
        <ele>1030.67</ele>
        <time>2012-05-26T11:32:19Z</time>
      </trkpt>
      <trkpt lat="44.49301" lon="5.19638">
        <ele>1027.31</ele>
        <time>2012-05-26T11:32:30Z</time>
      </trkpt>
      <trkpt lat="44.49304" lon="5.19645">
        <ele>1024.42</ele>
        <time>2012-05-26T11:32:39Z</time>
      </trkpt>
      <trkpt lat="44.49306" lon="5.19648">
        <ele>1021.06</ele>
        <time>2012-05-26T11:32:45Z</time>
      </trkpt>
      <trkpt lat="44.49307" lon="5.19651">
        <ele>1020.1</ele>
        <time>2012-05-26T11:32:47Z</time>
      </trkpt>
      <trkpt lat="44.49308" lon="5.19662">
        <ele>1017.21</ele>
        <time>2012-05-26T11:32:56Z</time>
      </trkpt>
      <trkpt lat="44.4931" lon="5.19668">
        <ele>1014.33</ele>
        <time>2012-05-26T11:33:03Z</time>
      </trkpt>
      <trkpt lat="44.49309" lon="5.19672">
        <ele>1013.37</ele>
        <time>2012-05-26T11:33:07Z</time>
      </trkpt>
      <trkpt lat="44.4931" lon="5.19692">
        <ele>1009.52</ele>
        <time>2012-05-26T11:33:19Z</time>
      </trkpt>
      <trkpt lat="44.49312" lon="5.19693">
        <ele>1009.04</ele>
        <time>2012-05-26T11:33:20Z</time>
      </trkpt>
      <trkpt lat="44.49315" lon="5.19702">
        <ele>1005.68</ele>
        <time>2012-05-26T11:33:29Z</time>
      </trkpt>
      <trkpt lat="44.49323" lon="5.19709">
        <ele>1002.79</ele>
        <time>2012-05-26T11:33:38Z</time>
      </trkpt>
      <trkpt lat="44.49321" lon="5.19711">
        <ele>1001.35</ele>
        <time>2012-05-26T11:33:54Z</time>
      </trkpt>
      <trkpt lat="44.49324" lon="5.19712">
        <ele>1000.39</ele>
        <time>2012-05-26T11:34:29Z</time>
      </trkpt>
      <trkpt lat="44.49334" lon="5.19712">
        <ele>1000.39</ele>
        <time>2012-05-26T11:35:02Z</time>
      </trkpt>
      <trkpt lat="44.49333" lon="5.19711">
        <ele>999.91</ele>
        <time>2012-05-26T11:35:29Z</time>
      </trkpt>
      <trkpt lat="44.49333" lon="5.19711">
        <ele>1000.39</ele>
        <time>2012-05-26T11:35:48Z</time>
      </trkpt>
      <trkpt lat="44.49337" lon="5.19713">
        <ele>998.47</ele>
        <time>2012-05-26T11:36:01Z</time>
      </trkpt>
      <trkpt lat="44.49336" lon="5.19715">
        <ele>995.1</ele>
        <time>2012-05-26T11:36:14Z</time>
      </trkpt>
      <trkpt lat="44.49336" lon="5.19715">
        <ele>995.1</ele>
        <time>2012-05-26T11:36:15Z</time>
      </trkpt>
      <trkpt lat="44.49336" lon="5.19715">
        <ele>998.95</ele>
        <time>2012-05-26T11:36:16Z</time>
      </trkpt>
      <trkpt lat="44.49336" lon="5.19715">
        <ele>997.51</ele>
        <time>2012-05-26T11:36:17Z</time>
      </trkpt>
      <trkpt lat="44.4934" lon="5.19717">
        <ele>995.58</ele>
        <time>2012-05-26T11:36:25Z</time>
      </trkpt>
      <trkpt lat="44.4935" lon="5.19721">
        <ele>992.22</ele>
        <time>2012-05-26T11:36:33Z</time>
      </trkpt>
      <trkpt lat="44.49351" lon="5.19721">
        <ele>991.74</ele>
        <time>2012-05-26T11:36:34Z</time>
      </trkpt>
      <trkpt lat="44.49359" lon="5.19721">
        <ele>988.37</ele>
        <time>2012-05-26T11:36:41Z</time>
      </trkpt>
      <trkpt lat="44.49366" lon="5.19721">
        <ele>985.01</ele>
        <time>2012-05-26T11:36:48Z</time>
      </trkpt>
      <trkpt lat="44.4937" lon="5.19722">
        <ele>983.09</ele>
        <time>2012-05-26T11:36:52Z</time>
      </trkpt>
      <trkpt lat="44.4938" lon="5.19723">
        <ele>979.72</ele>
        <time>2012-05-26T11:37:00Z</time>
      </trkpt>
      <trkpt lat="44.49382" lon="5.19723">
        <ele>978.76</ele>
        <time>2012-05-26T11:37:02Z</time>
      </trkpt>
      <trkpt lat="44.49394" lon="5.19728">
        <ele>975.39</ele>
        <time>2012-05-26T11:37:11Z</time>
      </trkpt>
      <trkpt lat="44.49398" lon="5.1973">
        <ele>974.43</ele>
        <time>2012-05-26T11:37:15Z</time>
      </trkpt>
      <trkpt lat="44.49408" lon="5.19737">
        <ele>971.55</ele>
        <time>2012-05-26T11:37:25Z</time>
      </trkpt>
      <trkpt lat="44.49409" lon="5.19738">
        <ele>969.63</ele>
        <time>2012-05-26T11:37:38Z</time>
      </trkpt>
      <trkpt lat="44.49411" lon="5.19738">
        <ele>969.15</ele>
        <time>2012-05-26T11:37:51Z</time>
      </trkpt>
      <trkpt lat="44.49418" lon="5.1974">
        <ele>967.22</ele>
        <time>2012-05-26T11:37:58Z</time>
      </trkpt>
      <trkpt lat="44.49428" lon="5.19745">
        <ele>963.86</ele>
        <time>2012-05-26T11:38:07Z</time>
      </trkpt>
      <trkpt lat="44.49432" lon="5.19746">
        <ele>962.42</ele>
        <time>2012-05-26T11:38:11Z</time>
      </trkpt>
      <trkpt lat="44.49436" lon="5.19753">
        <ele>960.98</ele>
        <time>2012-05-26T11:38:17Z</time>
      </trkpt>
      <trkpt lat="44.4945" lon="5.19763">
        <ele>957.13</ele>
        <time>2012-05-26T11:38:29Z</time>
      </trkpt>
      <trkpt lat="44.49456" lon="5.1977">
        <ele>954.25</ele>
        <time>2012-05-26T11:38:37Z</time>
      </trkpt>
      <trkpt lat="44.49457" lon="5.19773">
        <ele>953.28</ele>
        <time>2012-05-26T11:38:39Z</time>
      </trkpt>
      <trkpt lat="44.49459" lon="5.19777">
        <ele>951.84</ele>
        <time>2012-05-26T11:38:42Z</time>
      </trkpt>
      <trkpt lat="44.49462" lon="5.19779">
        <ele>950.88</ele>
        <time>2012-05-26T11:38:45Z</time>
      </trkpt>
      <trkpt lat="44.49464" lon="5.19781">
        <ele>949.92</ele>
        <time>2012-05-26T11:38:47Z</time>
      </trkpt>
      <trkpt lat="44.49471" lon="5.19781">
        <ele>948.96</ele>
        <time>2012-05-26T11:39:00Z</time>
      </trkpt>
      <trkpt lat="44.49474" lon="5.1978">
        <ele>947.04</ele>
        <time>2012-05-26T11:39:02Z</time>
      </trkpt>
      <trkpt lat="44.4948" lon="5.19776">
        <ele>944.63</ele>
        <time>2012-05-26T11:39:13Z</time>
      </trkpt>
      <trkpt lat="44.49484" lon="5.19769">
        <ele>942.23</ele>
        <time>2012-05-26T11:39:21Z</time>
      </trkpt>
      <trkpt lat="44.49491" lon="5.19753">
        <ele>938.86</ele>
        <time>2012-05-26T11:39:35Z</time>
      </trkpt>
      <trkpt lat="44.49491" lon="5.19751">
        <ele>938.38</ele>
        <time>2012-05-26T11:39:36Z</time>
      </trkpt>
      <trkpt lat="44.49492" lon="5.19736">
        <ele>937.42</ele>
        <time>2012-05-26T11:39:43Z</time>
      </trkpt>
      <trkpt lat="44.49493" lon="5.19719">
        <ele>935.5</ele>
        <time>2012-05-26T11:39:56Z</time>
      </trkpt>
      <trkpt lat="44.49491" lon="5.19712">
        <ele>935.98</ele>
        <time>2012-05-26T11:40:09Z</time>
      </trkpt>
      <trkpt lat="44.49491" lon="5.19709">
        <ele>934.06</ele>
        <time>2012-05-26T11:40:24Z</time>
      </trkpt>
      <trkpt lat="44.49494" lon="5.197">
        <ele>932.62</ele>
        <time>2012-05-26T11:40:36Z</time>
      </trkpt>
      <trkpt lat="44.49502" lon="5.19681">
        <ele>935.5</ele>
        <time>2012-05-26T11:40:53Z</time>
      </trkpt>
      <trkpt lat="44.49502" lon="5.19664">
        <ele>937.42</ele>
        <time>2012-05-26T11:41:08Z</time>
      </trkpt>
      <trkpt lat="44.49502" lon="5.19657">
        <ele>938.86</ele>
        <time>2012-05-26T11:41:28Z</time>
      </trkpt>
      <trkpt lat="44.49499" lon="5.19647">
        <ele>940.31</ele>
        <time>2012-05-26T11:41:42Z</time>
      </trkpt>
      <trkpt lat="44.49498" lon="5.19645">
        <ele>940.31</ele>
        <time>2012-05-26T11:41:58Z</time>
      </trkpt>
      <trkpt lat="44.49497" lon="5.19647">
        <ele>939.83</ele>
        <time>2012-05-26T11:42:01Z</time>
      </trkpt>
      <trkpt lat="44.49499" lon="5.19657">
        <ele>938.86</ele>
        <time>2012-05-26T11:42:10Z</time>
      </trkpt>
      <trkpt lat="44.49502" lon="5.19676">
        <ele>935.5</ele>
        <time>2012-05-26T11:42:23Z</time>
      </trkpt>
      <trkpt lat="44.49501" lon="5.19685">
        <ele>933.1</ele>
        <time>2012-05-26T11:42:39Z</time>
      </trkpt>
      <trkpt lat="44.495" lon="5.19693">
        <ele>929.73</ele>
        <time>2012-05-26T11:42:48Z</time>
      </trkpt>
      <trkpt lat="44.49508" lon="5.19698">
        <ele>926.37</ele>
        <time>2012-05-26T11:43:01Z</time>
      </trkpt>
      <trkpt lat="44.49517" lon="5.19701">
        <ele>923.96</ele>
        <time>2012-05-26T11:43:14Z</time>
      </trkpt>
      <trkpt lat="44.4953" lon="5.19697">
        <ele>920.6</ele>
        <time>2012-05-26T11:43:26Z</time>
      </trkpt>
      <trkpt lat="44.49538" lon="5.19691">
        <ele>917.72</ele>
        <time>2012-05-26T11:43:40Z</time>
      </trkpt>
      <trkpt lat="44.49543" lon="5.19687">
        <ele>916.75</ele>
        <time>2012-05-26T11:43:50Z</time>
      </trkpt>
      <trkpt lat="44.49557" lon="5.19693">
        <ele>917.24</ele>
        <time>2012-05-26T11:44:00Z</time>
      </trkpt>
      <trkpt lat="44.49562" lon="5.19699">
        <ele>917.72</ele>
        <time>2012-05-26T11:44:15Z</time>
      </trkpt>
      <trkpt lat="44.4955" lon="5.19685">
        <ele>916.75</ele>
        <time>2012-05-26T11:44:31Z</time>
      </trkpt>
      <trkpt lat="44.49549" lon="5.19684">
        <ele>916.75</ele>
        <time>2012-05-26T11:44:48Z</time>
      </trkpt>
      <trkpt lat="44.49545" lon="5.19673">
        <ele>917.72</ele>
        <time>2012-05-26T11:45:05Z</time>
      </trkpt>
      <trkpt lat="44.49544" lon="5.19672">
        <ele>917.72</ele>
        <time>2012-05-26T11:45:06Z</time>
      </trkpt>
      <trkpt lat="44.4954" lon="5.19652">
        <ele>918.68</ele>
        <time>2012-05-26T11:45:19Z</time>
      </trkpt>
      <trkpt lat="44.49536" lon="5.1963">
        <ele>919.64</ele>
        <time>2012-05-26T11:45:32Z</time>
      </trkpt>
      <trkpt lat="44.49532" lon="5.19603">
        <ele>920.12</ele>
        <time>2012-05-26T11:45:47Z</time>
      </trkpt>
      <trkpt lat="44.49531" lon="5.19588">
        <ele>921.08</ele>
        <time>2012-05-26T11:46:01Z</time>
      </trkpt>
      <trkpt lat="44.49531" lon="5.19578">
        <ele>923</ele>
        <time>2012-05-26T11:46:17Z</time>
      </trkpt>
      <trkpt lat="44.49521" lon="5.19573">
        <ele>925.41</ele>
        <time>2012-05-26T11:46:30Z</time>
      </trkpt>
      <trkpt lat="44.49511" lon="5.19555">
        <ele>927.81</ele>
        <time>2012-05-26T11:46:45Z</time>
      </trkpt>
      <trkpt lat="44.49506" lon="5.19535">
        <ele>930.21</ele>
        <time>2012-05-26T11:47:03Z</time>
      </trkpt>
      <trkpt lat="44.49503" lon="5.19527">
        <ele>931.65</ele>
        <time>2012-05-26T11:47:11Z</time>
      </trkpt>
      <trkpt lat="44.49503" lon="5.19524">
        <ele>931.65</ele>
        <time>2012-05-26T11:47:13Z</time>
      </trkpt>
      <trkpt lat="44.495" lon="5.19507">
        <ele>931.17</ele>
        <time>2012-05-26T11:47:27Z</time>
      </trkpt>
      <trkpt lat="44.49499" lon="5.1949">
        <ele>930.21</ele>
        <time>2012-05-26T11:47:36Z</time>
      </trkpt>
      <trkpt lat="44.49497" lon="5.19464">
        <ele>928.77</ele>
        <time>2012-05-26T11:47:49Z</time>
      </trkpt>
      <trkpt lat="44.49496" lon="5.19437">
        <ele>926.85</ele>
        <time>2012-05-26T11:48:04Z</time>
      </trkpt>
      <trkpt lat="44.49492" lon="5.1941">
        <ele>925.89</ele>
        <time>2012-05-26T11:48:19Z</time>
      </trkpt>
      <trkpt lat="44.49489" lon="5.19395">
        <ele>926.37</ele>
        <time>2012-05-26T11:48:33Z</time>
      </trkpt>
      <trkpt lat="44.49469" lon="5.1938">
        <ele>925.41</ele>
        <time>2012-05-26T11:48:49Z</time>
      </trkpt>
      <trkpt lat="44.49467" lon="5.19378">
        <ele>925.41</ele>
        <time>2012-05-26T11:48:52Z</time>
      </trkpt>
      <trkpt lat="44.49463" lon="5.19376">
        <ele>924.93</ele>
        <time>2012-05-26T11:48:56Z</time>
      </trkpt>
      <trkpt lat="44.49452" lon="5.19362">
        <ele>926.37</ele>
        <time>2012-05-26T11:49:10Z</time>
      </trkpt>
      <trkpt lat="44.49443" lon="5.19348">
        <ele>926.85</ele>
        <time>2012-05-26T11:49:24Z</time>
      </trkpt>
      <trkpt lat="44.4944" lon="5.19334">
        <ele>927.33</ele>
        <time>2012-05-26T11:49:37Z</time>
      </trkpt>
      <trkpt lat="44.49433" lon="5.1932">
        <ele>926.85</ele>
        <time>2012-05-26T11:49:48Z</time>
      </trkpt>
      <trkpt lat="44.49432" lon="5.19317">
        <ele>926.37</ele>
        <time>2012-05-26T11:49:50Z</time>
      </trkpt>
      <trkpt lat="44.49425" lon="5.19294">
        <ele>925.41</ele>
        <time>2012-05-26T11:50:05Z</time>
      </trkpt>
      <trkpt lat="44.49419" lon="5.19281">
        <ele>924.93</ele>
        <time>2012-05-26T11:50:13Z</time>
      </trkpt>
      <trkpt lat="44.49408" lon="5.1926">
        <ele>922.04</ele>
        <time>2012-05-26T11:50:24Z</time>
      </trkpt>
      <trkpt lat="44.49394" lon="5.19234">
        <ele>920.12</ele>
        <time>2012-05-26T11:50:39Z</time>
      </trkpt>
      <trkpt lat="44.49397" lon="5.19219">
        <ele>919.16</ele>
        <time>2012-05-26T11:50:46Z</time>
      </trkpt>
      <trkpt lat="44.49399" lon="5.19213">
        <ele>918.68</ele>
        <time>2012-05-26T11:50:49Z</time>
      </trkpt>
      <trkpt lat="44.49399" lon="5.19186">
        <ele>917.24</ele>
        <time>2012-05-26T11:51:04Z</time>
      </trkpt>
      <trkpt lat="44.49399" lon="5.19185">
        <ele>915.31</ele>
        <time>2012-05-26T11:51:14Z</time>
      </trkpt>
      <trkpt lat="44.49402" lon="5.1916">
        <ele>912.91</ele>
        <time>2012-05-26T11:51:25Z</time>
      </trkpt>
      <trkpt lat="44.49407" lon="5.19154">
        <ele>912.43</ele>
        <time>2012-05-26T11:51:40Z</time>
      </trkpt>
      <trkpt lat="44.49405" lon="5.19149">
        <ele>910.51</ele>
        <time>2012-05-26T11:51:52Z</time>
      </trkpt>
      <trkpt lat="44.49395" lon="5.19136">
        <ele>909.06</ele>
        <time>2012-05-26T11:52:05Z</time>
      </trkpt>
      <trkpt lat="44.49392" lon="5.19132">
        <ele>908.58</ele>
        <time>2012-05-26T11:52:09Z</time>
      </trkpt>
      <trkpt lat="44.49389" lon="5.19129">
        <ele>908.1</ele>
        <time>2012-05-26T11:52:11Z</time>
      </trkpt>
      <trkpt lat="44.49386" lon="5.19119">
        <ele>907.62</ele>
        <time>2012-05-26T11:52:17Z</time>
      </trkpt>
      <trkpt lat="44.49381" lon="5.191">
        <ele>906.18</ele>
        <time>2012-05-26T11:52:29Z</time>
      </trkpt>
      <trkpt lat="44.49373" lon="5.19083">
        <ele>907.14</ele>
        <time>2012-05-26T11:52:44Z</time>
      </trkpt>
      <trkpt lat="44.49367" lon="5.19077">
        <ele>907.62</ele>
        <time>2012-05-26T11:52:51Z</time>
      </trkpt>
      <trkpt lat="44.49362" lon="5.19061">
        <ele>906.66</ele>
        <time>2012-05-26T11:53:03Z</time>
      </trkpt>
      <trkpt lat="44.49357" lon="5.19045">
        <ele>907.14</ele>
        <time>2012-05-26T11:53:13Z</time>
      </trkpt>
      <trkpt lat="44.49355" lon="5.19038">
        <ele>907.14</ele>
        <time>2012-05-26T11:53:16Z</time>
      </trkpt>
      <trkpt lat="44.4935" lon="5.19031">
        <ele>907.14</ele>
        <time>2012-05-26T11:53:22Z</time>
      </trkpt>
      <trkpt lat="44.49334" lon="5.19006">
        <ele>908.1</ele>
        <time>2012-05-26T11:53:38Z</time>
      </trkpt>
      <trkpt lat="44.49324" lon="5.18989">
        <ele>909.06</ele>
        <time>2012-05-26T11:53:54Z</time>
      </trkpt>
      <trkpt lat="44.49314" lon="5.1897">
        <ele>909.54</ele>
        <time>2012-05-26T11:54:10Z</time>
      </trkpt>
      <trkpt lat="44.49302" lon="5.18942">
        <ele>910.51</ele>
        <time>2012-05-26T11:54:27Z</time>
      </trkpt>
      <trkpt lat="44.493" lon="5.18922">
        <ele>910.51</ele>
        <time>2012-05-26T11:54:40Z</time>
      </trkpt>
      <trkpt lat="44.49294" lon="5.18905">
        <ele>912.91</ele>
        <time>2012-05-26T11:54:54Z</time>
      </trkpt>
      <trkpt lat="44.49291" lon="5.18881">
        <ele>914.83</ele>
        <time>2012-05-26T11:55:10Z</time>
      </trkpt>
      <trkpt lat="44.49285" lon="5.18858">
        <ele>915.31</ele>
        <time>2012-05-26T11:55:26Z</time>
      </trkpt>
      <trkpt lat="44.49286" lon="5.18856">
        <ele>915.31</ele>
        <time>2012-05-26T11:55:27Z</time>
      </trkpt>
      <trkpt lat="44.49282" lon="5.18834">
        <ele>913.87</ele>
        <time>2012-05-26T11:55:39Z</time>
      </trkpt>
      <trkpt lat="44.49274" lon="5.18814">
        <ele>913.39</ele>
        <time>2012-05-26T11:55:49Z</time>
      </trkpt>
      <trkpt lat="44.49269" lon="5.18801">
        <ele>910.99</ele>
        <time>2012-05-26T11:55:59Z</time>
      </trkpt>
      <trkpt lat="44.49267" lon="5.18796">
        <ele>910.03</ele>
        <time>2012-05-26T11:56:02Z</time>
      </trkpt>
      <trkpt lat="44.49259" lon="5.18776">
        <ele>907.14</ele>
        <time>2012-05-26T11:56:16Z</time>
      </trkpt>
      <trkpt lat="44.49244" lon="5.18763">
        <ele>906.18</ele>
        <time>2012-05-26T11:56:31Z</time>
      </trkpt>
      <trkpt lat="44.49225" lon="5.1875">
        <ele>904.26</ele>
        <time>2012-05-26T11:56:45Z</time>
      </trkpt>
      <trkpt lat="44.49212" lon="5.18734">
        <ele>901.85</ele>
        <time>2012-05-26T11:56:58Z</time>
      </trkpt>
      <trkpt lat="44.49202" lon="5.18725">
        <ele>898.97</ele>
        <time>2012-05-26T11:57:04Z</time>
      </trkpt>
      <trkpt lat="44.49196" lon="5.18703">
        <ele>897.05</ele>
        <time>2012-05-26T11:57:16Z</time>
      </trkpt>
      <trkpt lat="44.49187" lon="5.18682">
        <ele>895.12</ele>
        <time>2012-05-26T11:57:29Z</time>
      </trkpt>
      <trkpt lat="44.4918" lon="5.18677">
        <ele>892.72</ele>
        <time>2012-05-26T11:57:40Z</time>
      </trkpt>
      <trkpt lat="44.49172" lon="5.18668">
        <ele>892.24</ele>
        <time>2012-05-26T11:57:46Z</time>
      </trkpt>
      <trkpt lat="44.49159" lon="5.18635">
        <ele>891.76</ele>
        <time>2012-05-26T11:57:59Z</time>
      </trkpt>
      <trkpt lat="44.49158" lon="5.18632">
        <ele>891.76</ele>
        <time>2012-05-26T11:58:00Z</time>
      </trkpt>
      <trkpt lat="44.49157" lon="5.18615">
        <ele>890.32</ele>
        <time>2012-05-26T11:58:16Z</time>
      </trkpt>
      <trkpt lat="44.4916" lon="5.18613">
        <ele>889.84</ele>
        <time>2012-05-26T11:58:39Z</time>
      </trkpt>
      <trkpt lat="44.4916" lon="5.18613">
        <ele>890.32</ele>
        <time>2012-05-26T11:58:57Z</time>
      </trkpt>
      <trkpt lat="44.49158" lon="5.18611">
        <ele>890.32</ele>
        <time>2012-05-26T11:59:28Z</time>
      </trkpt>
      <trkpt lat="44.4916" lon="5.18612">
        <ele>890.32</ele>
        <time>2012-05-26T12:00:03Z</time>
      </trkpt>
      <trkpt lat="44.49158" lon="5.18611">
        <ele>890.32</ele>
        <time>2012-05-26T12:00:35Z</time>
      </trkpt>
      <trkpt lat="44.49156" lon="5.18607">
        <ele>889.84</ele>
        <time>2012-05-26T12:01:02Z</time>
      </trkpt>
      <trkpt lat="44.49143" lon="5.18596">
        <ele>889.36</ele>
        <time>2012-05-26T12:01:18Z</time>
      </trkpt>
      <trkpt lat="44.4913" lon="5.18588">
        <ele>890.32</ele>
        <time>2012-05-26T12:01:34Z</time>
      </trkpt>
      <trkpt lat="44.49125" lon="5.18593">
        <ele>893.2</ele>
        <time>2012-05-26T12:01:46Z</time>
      </trkpt>
      <trkpt lat="44.49121" lon="5.18603">
        <ele>896.09</ele>
        <time>2012-05-26T12:02:01Z</time>
      </trkpt>
      <trkpt lat="44.49115" lon="5.1861">
        <ele>899.45</ele>
        <time>2012-05-26T12:02:13Z</time>
      </trkpt>
      <trkpt lat="44.4911" lon="5.18614">
        <ele>902.33</ele>
        <time>2012-05-26T12:02:28Z</time>
      </trkpt>
      <trkpt lat="44.491" lon="5.18617">
        <ele>905.7</ele>
        <time>2012-05-26T12:02:41Z</time>
      </trkpt>
      <trkpt lat="44.49097" lon="5.1862">
        <ele>909.06</ele>
        <time>2012-05-26T12:02:56Z</time>
      </trkpt>
      <trkpt lat="44.49082" lon="5.18607">
        <ele>910.03</ele>
        <time>2012-05-26T12:03:11Z</time>
      </trkpt>
      <trkpt lat="44.49077" lon="5.18598">
        <ele>910.03</ele>
        <time>2012-05-26T12:03:18Z</time>
      </trkpt>
      <trkpt lat="44.49068" lon="5.18584">
        <ele>908.58</ele>
        <time>2012-05-26T12:03:33Z</time>
      </trkpt>
      <trkpt lat="44.49056" lon="5.1857">
        <ele>906.66</ele>
        <time>2012-05-26T12:03:47Z</time>
      </trkpt>
      <trkpt lat="44.4905" lon="5.18562">
        <ele>906.18</ele>
        <time>2012-05-26T12:03:52Z</time>
      </trkpt>
      <trkpt lat="44.49034" lon="5.18538">
        <ele>904.74</ele>
        <time>2012-05-26T12:04:06Z</time>
      </trkpt>
      <trkpt lat="44.49031" lon="5.18527">
        <ele>903.78</ele>
        <time>2012-05-26T12:04:18Z</time>
      </trkpt>
      <trkpt lat="44.49023" lon="5.18509">
        <ele>905.22</ele>
        <time>2012-05-26T12:04:34Z</time>
      </trkpt>
      <trkpt lat="44.49016" lon="5.18502">
        <ele>905.7</ele>
        <time>2012-05-26T12:04:49Z</time>
      </trkpt>
      <trkpt lat="44.49008" lon="5.18488">
        <ele>908.1</ele>
        <time>2012-05-26T12:05:05Z</time>
      </trkpt>
      <trkpt lat="44.49" lon="5.18468">
        <ele>908.1</ele>
        <time>2012-05-26T12:05:18Z</time>
      </trkpt>
      <trkpt lat="44.48993" lon="5.18449">
        <ele>909.54</ele>
        <time>2012-05-26T12:05:34Z</time>
      </trkpt>
      <trkpt lat="44.48987" lon="5.18441">
        <ele>908.58</ele>
        <time>2012-05-26T12:05:50Z</time>
      </trkpt>
      <trkpt lat="44.48984" lon="5.1843">
        <ele>909.06</ele>
        <time>2012-05-26T12:06:08Z</time>
      </trkpt>
      <trkpt lat="44.4898" lon="5.18419">
        <ele>909.54</ele>
        <time>2012-05-26T12:06:22Z</time>
      </trkpt>
      <trkpt lat="44.48975" lon="5.1841">
        <ele>908.58</ele>
        <time>2012-05-26T12:06:36Z</time>
      </trkpt>
      <trkpt lat="44.48968" lon="5.18401">
        <ele>910.03</ele>
        <time>2012-05-26T12:06:49Z</time>
      </trkpt>
      <trkpt lat="44.48956" lon="5.18384">
        <ele>909.54</ele>
        <time>2012-05-26T12:07:02Z</time>
      </trkpt>
      <trkpt lat="44.48943" lon="5.18368">
        <ele>909.54</ele>
        <time>2012-05-26T12:07:15Z</time>
      </trkpt>
      <trkpt lat="44.48929" lon="5.18343">
        <ele>908.1</ele>
        <time>2012-05-26T12:07:32Z</time>
      </trkpt>
      <trkpt lat="44.48926" lon="5.1833">
        <ele>904.74</ele>
        <time>2012-05-26T12:07:43Z</time>
      </trkpt>
      <trkpt lat="44.48929" lon="5.1832">
        <ele>901.85</ele>
        <time>2012-05-26T12:07:56Z</time>
      </trkpt>
      <trkpt lat="44.4893" lon="5.18309">
        <ele>898.97</ele>
        <time>2012-05-26T12:08:09Z</time>
      </trkpt>
      <trkpt lat="44.48929" lon="5.18301">
        <ele>896.09</ele>
        <time>2012-05-26T12:08:26Z</time>
      </trkpt>
      <trkpt lat="44.48929" lon="5.18298">
        <ele>895.12</ele>
        <time>2012-05-26T12:08:30Z</time>
      </trkpt>
      <trkpt lat="44.48929" lon="5.18294">
        <ele>894.64</ele>
        <time>2012-05-26T12:08:32Z</time>
      </trkpt>
      <trkpt lat="44.48931" lon="5.18287">
        <ele>893.68</ele>
        <time>2012-05-26T12:08:37Z</time>
      </trkpt>
      <trkpt lat="44.48931" lon="5.18272">
        <ele>891.28</ele>
        <time>2012-05-26T12:08:45Z</time>
      </trkpt>
      <trkpt lat="44.48924" lon="5.1826">
        <ele>889.36</ele>
        <time>2012-05-26T12:08:54Z</time>
      </trkpt>
      <trkpt lat="44.48922" lon="5.18253">
        <ele>887.91</ele>
        <time>2012-05-26T12:08:59Z</time>
      </trkpt>
      <trkpt lat="44.48921" lon="5.1825">
        <ele>887.43</ele>
        <time>2012-05-26T12:09:01Z</time>
      </trkpt>
      <trkpt lat="44.4892" lon="5.18245">
        <ele>886.95</ele>
        <time>2012-05-26T12:09:04Z</time>
      </trkpt>
      <trkpt lat="44.48918" lon="5.18241">
        <ele>885.99</ele>
        <time>2012-05-26T12:09:07Z</time>
      </trkpt>
      <trkpt lat="44.48909" lon="5.18229">
        <ele>882.63</ele>
        <time>2012-05-26T12:09:17Z</time>
      </trkpt>
      <trkpt lat="44.48904" lon="5.18226">
        <ele>881.67</ele>
        <time>2012-05-26T12:09:21Z</time>
      </trkpt>
      <trkpt lat="44.48894" lon="5.18215">
        <ele>879.26</ele>
        <time>2012-05-26T12:09:31Z</time>
      </trkpt>
      <trkpt lat="44.48877" lon="5.18205">
        <ele>876.38</ele>
        <time>2012-05-26T12:09:45Z</time>
      </trkpt>
      <trkpt lat="44.48873" lon="5.18202">
        <ele>875.42</ele>
        <time>2012-05-26T12:09:49Z</time>
      </trkpt>
      <trkpt lat="44.4887" lon="5.18201">
        <ele>874.94</ele>
        <time>2012-05-26T12:09:51Z</time>
      </trkpt>
      <trkpt lat="44.48865" lon="5.18196">
        <ele>873.5</ele>
        <time>2012-05-26T12:09:55Z</time>
      </trkpt>
      <trkpt lat="44.48854" lon="5.18184">
        <ele>870.13</ele>
        <time>2012-05-26T12:10:07Z</time>
      </trkpt>
      <trkpt lat="44.48848" lon="5.18178">
        <ele>868.69</ele>
        <time>2012-05-26T12:10:12Z</time>
      </trkpt>
      <trkpt lat="44.48843" lon="5.18169">
        <ele>866.29</ele>
        <time>2012-05-26T12:10:18Z</time>
      </trkpt>
      <trkpt lat="44.48838" lon="5.18162">
        <ele>863.88</ele>
        <time>2012-05-26T12:10:24Z</time>
      </trkpt>
      <trkpt lat="44.48835" lon="5.18151">
        <ele>861</ele>
        <time>2012-05-26T12:10:39Z</time>
      </trkpt>
      <trkpt lat="44.48836" lon="5.18151">
        <ele>861</ele>
        <time>2012-05-26T12:10:59Z</time>
      </trkpt>
      <trkpt lat="44.48837" lon="5.18149">
        <ele>861</ele>
        <time>2012-05-26T12:11:22Z</time>
      </trkpt>
      <trkpt lat="44.48837" lon="5.18149">
        <ele>860.52</ele>
        <time>2012-05-26T12:11:45Z</time>
      </trkpt>
      <trkpt lat="44.48836" lon="5.18147">
        <ele>860.04</ele>
        <time>2012-05-26T12:12:03Z</time>
      </trkpt>
      <trkpt lat="44.48836" lon="5.18148">
        <ele>859.56</ele>
        <time>2012-05-26T12:12:36Z</time>
      </trkpt>
      <trkpt lat="44.48837" lon="5.18149">
        <ele>860.52</ele>
        <time>2012-05-26T12:13:05Z</time>
      </trkpt>
      <trkpt lat="44.48837" lon="5.18149">
        <ele>860.52</ele>
        <time>2012-05-26T12:13:19Z</time>
      </trkpt>
      <trkpt lat="44.48837" lon="5.18149">
        <ele>860.52</ele>
        <time>2012-05-26T12:13:45Z</time>
      </trkpt>
      <trkpt lat="44.48837" lon="5.18149">
        <ele>860.52</ele>
        <time>2012-05-26T12:13:51Z</time>
      </trkpt>
      <trkpt lat="44.48847" lon="5.18137">
        <ele>860.04</ele>
        <time>2012-05-26T12:14:03Z</time>
      </trkpt>
      <trkpt lat="44.4885" lon="5.18133">
        <ele>859.08</ele>
        <time>2012-05-26T12:14:07Z</time>
      </trkpt>
      <trkpt lat="44.48863" lon="5.18116">
        <ele>858.59</ele>
        <time>2012-05-26T12:14:23Z</time>
      </trkpt>
      <trkpt lat="44.48865" lon="5.18113">
        <ele>858.59</ele>
        <time>2012-05-26T12:14:26Z</time>
      </trkpt>
      <trkpt lat="44.48869" lon="5.18109">
        <ele>858.11</ele>
        <time>2012-05-26T12:14:39Z</time>
      </trkpt>
      <trkpt lat="44.48869" lon="5.1811">
        <ele>858.11</ele>
        <time>2012-05-26T12:14:59Z</time>
      </trkpt>
      <trkpt lat="44.48869" lon="5.1811">
        <ele>858.11</ele>
        <time>2012-05-26T12:15:16Z</time>
      </trkpt>
      <trkpt lat="44.48869" lon="5.18111">
        <ele>857.63</ele>
        <time>2012-05-26T12:15:28Z</time>
      </trkpt>
      <trkpt lat="44.4887" lon="5.1811">
        <ele>857.63</ele>
        <time>2012-05-26T12:15:56Z</time>
      </trkpt>
      <trkpt lat="44.48871" lon="5.18108">
        <ele>858.11</ele>
        <time>2012-05-26T12:16:04Z</time>
      </trkpt>
      <trkpt lat="44.48874" lon="5.18103">
        <ele>857.63</ele>
        <time>2012-05-26T12:16:10Z</time>
      </trkpt>
      <trkpt lat="44.4889" lon="5.18085">
        <ele>857.63</ele>
        <time>2012-05-26T12:16:27Z</time>
      </trkpt>
      <trkpt lat="44.48893" lon="5.18083">
        <ele>857.63</ele>
        <time>2012-05-26T12:16:30Z</time>
      </trkpt>
      <trkpt lat="44.48897" lon="5.18077">
        <ele>858.11</ele>
        <time>2012-05-26T12:16:36Z</time>
      </trkpt>
      <trkpt lat="44.48901" lon="5.18074">
        <ele>858.11</ele>
        <time>2012-05-26T12:16:40Z</time>
      </trkpt>
      <trkpt lat="44.48911" lon="5.18058">
        <ele>858.59</ele>
        <time>2012-05-26T12:16:54Z</time>
      </trkpt>
      <trkpt lat="44.48914" lon="5.18051">
        <ele>858.11</ele>
        <time>2012-05-26T12:17:07Z</time>
      </trkpt>
      <trkpt lat="44.48914" lon="5.18051">
        <ele>858.59</ele>
        <time>2012-05-26T12:17:10Z</time>
      </trkpt>
      <trkpt lat="44.48921" lon="5.18037">
        <ele>858.59</ele>
        <time>2012-05-26T12:17:21Z</time>
      </trkpt>
      <trkpt lat="44.48923" lon="5.18035">
        <ele>858.59</ele>
        <time>2012-05-26T12:17:23Z</time>
      </trkpt>
      <trkpt lat="44.48928" lon="5.18031">
        <ele>858.59</ele>
        <time>2012-05-26T12:17:28Z</time>
      </trkpt>
      <trkpt lat="44.48938" lon="5.18023">
        <ele>859.56</ele>
        <time>2012-05-26T12:17:42Z</time>
      </trkpt>
      <trkpt lat="44.48938" lon="5.1802">
        <ele>859.08</ele>
        <time>2012-05-26T12:17:58Z</time>
      </trkpt>
      <trkpt lat="44.48938" lon="5.18019">
        <ele>859.08</ele>
        <time>2012-05-26T12:18:22Z</time>
      </trkpt>
      <trkpt lat="44.48936" lon="5.18019">
        <ele>859.08</ele>
        <time>2012-05-26T12:18:27Z</time>
      </trkpt>
      <trkpt lat="44.4893" lon="5.18018">
        <ele>858.59</ele>
        <time>2012-05-26T12:18:41Z</time>
      </trkpt>
      <trkpt lat="44.48932" lon="5.18018">
        <ele>858.59</ele>
        <time>2012-05-26T12:18:59Z</time>
      </trkpt>
      <trkpt lat="44.48932" lon="5.18018">
        <ele>858.59</ele>
        <time>2012-05-26T12:19:16Z</time>
      </trkpt>
      <trkpt lat="44.48931" lon="5.18018">
        <ele>858.59</ele>
        <time>2012-05-26T12:19:29Z</time>
      </trkpt>
      <trkpt lat="44.48928" lon="5.18021">
        <ele>858.11</ele>
        <time>2012-05-26T12:19:43Z</time>
      </trkpt>
      <trkpt lat="44.48929" lon="5.18021">
        <ele>858.59</ele>
        <time>2012-05-26T12:19:58Z</time>
      </trkpt>
      <trkpt lat="44.48928" lon="5.18022">
        <ele>858.59</ele>
        <time>2012-05-26T12:20:25Z</time>
      </trkpt>
      <trkpt lat="44.48928" lon="5.18022">
        <ele>858.59</ele>
        <time>2012-05-26T12:20:48Z</time>
      </trkpt>
      <trkpt lat="44.48927" lon="5.18022">
        <ele>858.59</ele>
        <time>2012-05-26T12:21:23Z</time>
      </trkpt>
      <trkpt lat="44.48926" lon="5.18022">
        <ele>858.59</ele>
        <time>2012-05-26T12:21:34Z</time>
      </trkpt>
      <trkpt lat="44.48923" lon="5.18016">
        <ele>857.63</ele>
        <time>2012-05-26T12:21:40Z</time>
      </trkpt>
      <trkpt lat="44.48921" lon="5.18012">
        <ele>856.19</ele>
        <time>2012-05-26T12:21:54Z</time>
      </trkpt>
      <trkpt lat="44.48921" lon="5.18013">
        <ele>855.71</ele>
        <time>2012-05-26T12:22:06Z</time>
      </trkpt>
      <trkpt lat="44.48921" lon="5.18013">
        <ele>855.23</ele>
        <time>2012-05-26T12:22:40Z</time>
      </trkpt>
      <trkpt lat="44.4892" lon="5.18013">
        <ele>855.23</ele>
        <time>2012-05-26T12:23:11Z</time>
      </trkpt>
      <trkpt lat="44.4892" lon="5.18013">
        <ele>854.75</ele>
        <time>2012-05-26T12:23:46Z</time>
      </trkpt>
      <trkpt lat="44.4892" lon="5.18013">
        <ele>855.23</ele>
        <time>2012-05-26T12:24:19Z</time>
      </trkpt>
      <trkpt lat="44.4892" lon="5.18013">
        <ele>854.75</ele>
        <time>2012-05-26T12:24:48Z</time>
      </trkpt>
      <trkpt lat="44.48919" lon="5.18013">
        <ele>854.75</ele>
        <time>2012-05-26T12:25:18Z</time>
      </trkpt>
      <trkpt lat="44.48919" lon="5.18013">
        <ele>854.75</ele>
        <time>2012-05-26T12:25:50Z</time>
      </trkpt>
      <trkpt lat="44.48919" lon="5.18014">
        <ele>854.75</ele>
        <time>2012-05-26T12:26:20Z</time>
      </trkpt>
      <trkpt lat="44.48919" lon="5.18014">
        <ele>854.75</ele>
        <time>2012-05-26T12:26:59Z</time>
      </trkpt>
      <trkpt lat="44.48919" lon="5.18014">
        <ele>854.75</ele>
        <time>2012-05-26T12:27:42Z</time>
      </trkpt>
      <trkpt lat="44.48918" lon="5.18014">
        <ele>854.75</ele>
        <time>2012-05-26T12:28:29Z</time>
      </trkpt>
      <trkpt lat="44.48919" lon="5.18016">
        <ele>854.75</ele>
        <time>2012-05-26T12:29:17Z</time>
      </trkpt>
      <trkpt lat="44.4892" lon="5.18017">
        <ele>854.75</ele>
        <time>2012-05-26T12:29:58Z</time>
      </trkpt>
      <trkpt lat="44.48919" lon="5.18017">
        <ele>855.23</ele>
        <time>2012-05-26T12:30:41Z</time>
      </trkpt>
      <trkpt lat="44.4892" lon="5.18017">
        <ele>854.75</ele>
        <time>2012-05-26T12:31:28Z</time>
      </trkpt>
      <trkpt lat="44.48919" lon="5.18016">
        <ele>854.75</ele>
        <time>2012-05-26T12:32:05Z</time>
      </trkpt>
      <trkpt lat="44.48918" lon="5.18015">
        <ele>854.75</ele>
        <time>2012-05-26T12:32:46Z</time>
      </trkpt>
      <trkpt lat="44.48918" lon="5.18015">
        <ele>854.75</ele>
        <time>2012-05-26T12:33:21Z</time>
      </trkpt>
      <trkpt lat="44.48917" lon="5.18014">
        <ele>855.23</ele>
        <time>2012-05-26T12:33:58Z</time>
      </trkpt>
      <trkpt lat="44.48918" lon="5.18013">
        <ele>854.75</ele>
        <time>2012-05-26T12:34:36Z</time>
      </trkpt>
      <trkpt lat="44.48918" lon="5.18013">
        <ele>855.23</ele>
        <time>2012-05-26T12:35:15Z</time>
      </trkpt>
      <trkpt lat="44.48918" lon="5.18014">
        <ele>854.75</ele>
        <time>2012-05-26T12:35:55Z</time>
      </trkpt>
      <trkpt lat="44.48918" lon="5.18013">
        <ele>854.75</ele>
        <time>2012-05-26T12:36:34Z</time>
      </trkpt>
      <trkpt lat="44.48917" lon="5.18013">
        <ele>854.75</ele>
        <time>2012-05-26T12:37:11Z</time>
      </trkpt>
      <trkpt lat="44.48918" lon="5.18013">
        <ele>854.75</ele>
        <time>2012-05-26T12:37:52Z</time>
      </trkpt>
      <trkpt lat="44.48918" lon="5.18013">
        <ele>854.75</ele>
        <time>2012-05-26T12:38:30Z</time>
      </trkpt>
      <trkpt lat="44.48918" lon="5.18013">
        <ele>854.75</ele>
        <time>2012-05-26T12:39:06Z</time>
      </trkpt>
      <trkpt lat="44.48919" lon="5.18013">
        <ele>854.75</ele>
        <time>2012-05-26T12:39:42Z</time>
      </trkpt>
      <trkpt lat="44.4892" lon="5.18014">
        <ele>854.75</ele>
        <time>2012-05-26T12:40:18Z</time>
      </trkpt>
      <trkpt lat="44.4892" lon="5.18014">
        <ele>854.75</ele>
        <time>2012-05-26T12:40:50Z</time>
      </trkpt>
      <trkpt lat="44.48921" lon="5.18014">
        <ele>854.75</ele>
        <time>2012-05-26T12:41:22Z</time>
      </trkpt>
      <trkpt lat="44.48921" lon="5.18014">
        <ele>854.75</ele>
        <time>2012-05-26T12:42:02Z</time>
      </trkpt>
      <trkpt lat="44.4892" lon="5.18015">
        <ele>854.75</ele>
        <time>2012-05-26T12:42:38Z</time>
      </trkpt>
      <trkpt lat="44.4892" lon="5.18015">
        <ele>854.75</ele>
        <time>2012-05-26T12:43:15Z</time>
      </trkpt>
      <trkpt lat="44.48919" lon="5.18014">
        <ele>854.75</ele>
        <time>2012-05-26T12:43:55Z</time>
      </trkpt>
      <trkpt lat="44.48919" lon="5.18014">
        <ele>854.75</ele>
        <time>2012-05-26T12:44:33Z</time>
      </trkpt>
      <trkpt lat="44.48918" lon="5.18014">
        <ele>854.75</ele>
        <time>2012-05-26T12:45:14Z</time>
      </trkpt>
      <trkpt lat="44.48917" lon="5.18014">
        <ele>854.75</ele>
        <time>2012-05-26T12:45:54Z</time>
      </trkpt>
      <trkpt lat="44.48918" lon="5.18015">
        <ele>854.75</ele>
        <time>2012-05-26T12:46:31Z</time>
      </trkpt>
      <trkpt lat="44.48917" lon="5.18014">
        <ele>855.71</ele>
        <time>2012-05-26T12:46:45Z</time>
      </trkpt>
      <trkpt lat="44.48917" lon="5.18014">
        <ele>853.79</ele>
        <time>2012-05-26T12:47:10Z</time>
      </trkpt>
      <trkpt lat="44.48917" lon="5.18014">
        <ele>853.79</ele>
        <time>2012-05-26T12:47:11Z</time>
      </trkpt>
      <trkpt lat="44.48917" lon="5.18014">
        <ele>857.63</ele>
        <time>2012-05-26T12:47:12Z</time>
      </trkpt>
      <trkpt lat="44.48917" lon="5.18014">
        <ele>853.79</ele>
        <time>2012-05-26T12:47:13Z</time>
      </trkpt>
      <trkpt lat="44.48917" lon="5.18014">
        <ele>859.08</ele>
        <time>2012-05-26T12:47:14Z</time>
      </trkpt>
      <trkpt lat="44.48918" lon="5.18014">
        <ele>853.79</ele>
        <time>2012-05-26T12:47:15Z</time>
      </trkpt>
      <trkpt lat="44.48918" lon="5.18014">
        <ele>858.11</ele>
        <time>2012-05-26T12:47:16Z</time>
      </trkpt>
      <trkpt lat="44.48918" lon="5.18014">
        <ele>854.75</ele>
        <time>2012-05-26T12:47:17Z</time>
      </trkpt>
      <trkpt lat="44.48918" lon="5.18014">
        <ele>857.15</ele>
        <time>2012-05-26T12:47:31Z</time>
      </trkpt>
      <trkpt lat="44.48918" lon="5.18014">
        <ele>855.23</ele>
        <time>2012-05-26T12:47:57Z</time>
      </trkpt>
      <trkpt lat="44.48918" lon="5.18014">
        <ele>855.23</ele>
        <time>2012-05-26T12:48:11Z</time>
      </trkpt>
      <trkpt lat="44.48918" lon="5.18016">
        <ele>855.23</ele>
        <time>2012-05-26T12:48:27Z</time>
      </trkpt>
      <trkpt lat="44.48917" lon="5.18018">
        <ele>855.23</ele>
        <time>2012-05-26T12:48:45Z</time>
      </trkpt>
      <trkpt lat="44.48921" lon="5.1802">
        <ele>856.67</ele>
        <time>2012-05-26T12:48:59Z</time>
      </trkpt>
      <trkpt lat="44.48928" lon="5.1802">
        <ele>857.63</ele>
        <time>2012-05-26T12:49:08Z</time>
      </trkpt>
      <trkpt lat="44.48933" lon="5.18017">
        <ele>857.63</ele>
        <time>2012-05-26T12:49:14Z</time>
      </trkpt>
      <trkpt lat="44.48936" lon="5.18017">
        <ele>857.63</ele>
        <time>2012-05-26T12:49:28Z</time>
      </trkpt>
      <trkpt lat="44.48936" lon="5.18017">
        <ele>858.11</ele>
        <time>2012-05-26T12:49:49Z</time>
      </trkpt>
      <trkpt lat="44.48936" lon="5.18017">
        <ele>858.11</ele>
        <time>2012-05-26T12:50:18Z</time>
      </trkpt>
      <trkpt lat="44.48936" lon="5.18017">
        <ele>858.11</ele>
        <time>2012-05-26T12:50:45Z</time>
      </trkpt>
      <trkpt lat="44.48937" lon="5.18017">
        <ele>858.11</ele>
        <time>2012-05-26T12:51:09Z</time>
      </trkpt>
      <trkpt lat="44.48937" lon="5.18017">
        <ele>858.11</ele>
        <time>2012-05-26T12:51:38Z</time>
      </trkpt>
      <trkpt lat="44.48937" lon="5.18017">
        <ele>858.11</ele>
        <time>2012-05-26T12:51:54Z</time>
      </trkpt>
      <trkpt lat="44.48937" lon="5.18018">
        <ele>858.11</ele>
        <time>2012-05-26T12:52:14Z</time>
      </trkpt>
      <trkpt lat="44.48938" lon="5.18018">
        <ele>858.11</ele>
        <time>2012-05-26T12:52:18Z</time>
      </trkpt>
      <trkpt lat="44.4894" lon="5.18024">
        <ele>859.08</ele>
        <time>2012-05-26T12:52:30Z</time>
      </trkpt>
      <trkpt lat="44.4894" lon="5.18022">
        <ele>858.11</ele>
        <time>2012-05-26T12:52:44Z</time>
      </trkpt>
      <trkpt lat="44.4894" lon="5.18022">
        <ele>858.11</ele>
        <time>2012-05-26T12:52:45Z</time>
      </trkpt>
      <trkpt lat="44.48938" lon="5.18015">
        <ele>858.11</ele>
        <time>2012-05-26T12:52:56Z</time>
      </trkpt>
      <trkpt lat="44.48936" lon="5.18019">
        <ele>857.63</ele>
        <time>2012-05-26T12:53:09Z</time>
      </trkpt>
      <trkpt lat="44.48937" lon="5.18021">
        <ele>857.63</ele>
        <time>2012-05-26T12:53:23Z</time>
      </trkpt>
      <trkpt lat="44.48938" lon="5.18019">
        <ele>858.59</ele>
        <time>2012-05-26T12:53:25Z</time>
      </trkpt>
      <trkpt lat="44.48945" lon="5.18017">
        <ele>858.11</ele>
        <time>2012-05-26T12:53:33Z</time>
      </trkpt>
      <trkpt lat="44.48951" lon="5.18007">
        <ele>858.11</ele>
        <time>2012-05-26T12:53:39Z</time>
      </trkpt>
      <trkpt lat="44.48952" lon="5.17996">
        <ele>857.63</ele>
        <time>2012-05-26T12:53:46Z</time>
      </trkpt>
      <trkpt lat="44.48953" lon="5.17991">
        <ele>858.11</ele>
        <time>2012-05-26T12:53:50Z</time>
      </trkpt>
      <trkpt lat="44.48954" lon="5.17979">
        <ele>857.63</ele>
        <time>2012-05-26T12:53:57Z</time>
      </trkpt>
      <trkpt lat="44.48952" lon="5.17951">
        <ele>857.15</ele>
        <time>2012-05-26T12:54:12Z</time>
      </trkpt>
      <trkpt lat="44.4895" lon="5.17932">
        <ele>856.19</ele>
        <time>2012-05-26T12:54:23Z</time>
      </trkpt>
      <trkpt lat="44.4895" lon="5.17929">
        <ele>856.19</ele>
        <time>2012-05-26T12:54:25Z</time>
      </trkpt>
      <trkpt lat="44.48945" lon="5.17923">
        <ele>855.71</ele>
        <time>2012-05-26T12:54:37Z</time>
      </trkpt>
      <trkpt lat="44.48946" lon="5.1792">
        <ele>855.71</ele>
        <time>2012-05-26T12:54:39Z</time>
      </trkpt>
      <trkpt lat="44.48947" lon="5.17918">
        <ele>855.71</ele>
        <time>2012-05-26T12:54:41Z</time>
      </trkpt>
      <trkpt lat="44.48946" lon="5.17911">
        <ele>855.71</ele>
        <time>2012-05-26T12:54:47Z</time>
      </trkpt>
      <trkpt lat="44.48945" lon="5.17908">
        <ele>855.23</ele>
        <time>2012-05-26T12:55:02Z</time>
      </trkpt>
      <trkpt lat="44.48943" lon="5.17901">
        <ele>854.75</ele>
        <time>2012-05-26T12:55:17Z</time>
      </trkpt>
      <trkpt lat="44.48938" lon="5.17895">
        <ele>854.27</ele>
        <time>2012-05-26T12:55:35Z</time>
      </trkpt>
      <trkpt lat="44.48927" lon="5.17885">
        <ele>851.87</ele>
        <time>2012-05-26T12:55:46Z</time>
      </trkpt>
      <trkpt lat="44.48922" lon="5.17881">
        <ele>851.38</ele>
        <time>2012-05-26T12:55:51Z</time>
      </trkpt>
      <trkpt lat="44.48916" lon="5.17877">
        <ele>850.42</ele>
        <time>2012-05-26T12:55:57Z</time>
      </trkpt>
      <trkpt lat="44.48909" lon="5.1786">
        <ele>848.02</ele>
        <time>2012-05-26T12:56:10Z</time>
      </trkpt>
      <trkpt lat="44.48901" lon="5.17841">
        <ele>847.54</ele>
        <time>2012-05-26T12:56:24Z</time>
      </trkpt>
      <trkpt lat="44.48886" lon="5.17827">
        <ele>847.06</ele>
        <time>2012-05-26T12:56:39Z</time>
      </trkpt>
      <trkpt lat="44.48881" lon="5.17824">
        <ele>846.58</ele>
        <time>2012-05-26T12:56:45Z</time>
      </trkpt>
      <trkpt lat="44.48876" lon="5.17837">
        <ele>844.18</ele>
        <time>2012-05-26T12:56:57Z</time>
      </trkpt>
      <trkpt lat="44.48877" lon="5.17842">
        <ele>843.21</ele>
        <time>2012-05-26T12:57:01Z</time>
      </trkpt>
      <trkpt lat="44.48882" lon="5.17858">
        <ele>842.25</ele>
        <time>2012-05-26T12:57:14Z</time>
      </trkpt>
      <trkpt lat="44.48882" lon="5.17866">
        <ele>841.77</ele>
        <time>2012-05-26T12:57:19Z</time>
      </trkpt>
      <trkpt lat="44.48879" lon="5.17875">
        <ele>840.81</ele>
        <time>2012-05-26T12:57:34Z</time>
      </trkpt>
      <trkpt lat="44.48878" lon="5.17877">
        <ele>840.33</ele>
        <time>2012-05-26T12:57:52Z</time>
      </trkpt>
      <trkpt lat="44.48878" lon="5.17881">
        <ele>840.33</ele>
        <time>2012-05-26T12:58:09Z</time>
      </trkpt>
      <trkpt lat="44.48878" lon="5.17882">
        <ele>839.85</ele>
        <time>2012-05-26T12:58:30Z</time>
      </trkpt>
      <trkpt lat="44.48871" lon="5.17887">
        <ele>838.41</ele>
        <time>2012-05-26T12:58:44Z</time>
      </trkpt>
      <trkpt lat="44.4887" lon="5.17887">
        <ele>838.41</ele>
        <time>2012-05-26T12:58:53Z</time>
      </trkpt>
      <trkpt lat="44.48864" lon="5.17888">
        <ele>837.45</ele>
        <time>2012-05-26T12:59:09Z</time>
      </trkpt>
      <trkpt lat="44.48862" lon="5.17888">
        <ele>836.96</ele>
        <time>2012-05-26T12:59:30Z</time>
      </trkpt>
      <trkpt lat="44.48861" lon="5.17888">
        <ele>836.96</ele>
        <time>2012-05-26T13:00:02Z</time>
      </trkpt>
      <trkpt lat="44.48861" lon="5.17887">
        <ele>836.96</ele>
        <time>2012-05-26T13:00:20Z</time>
      </trkpt>
      <trkpt lat="44.48859" lon="5.17885">
        <ele>836.48</ele>
        <time>2012-05-26T13:00:23Z</time>
      </trkpt>
      <trkpt lat="44.48849" lon="5.17872">
        <ele>835.52</ele>
        <time>2012-05-26T13:00:36Z</time>
      </trkpt>
      <trkpt lat="44.48848" lon="5.17871">
        <ele>835.52</ele>
        <time>2012-05-26T13:00:37Z</time>
      </trkpt>
      <trkpt lat="44.48847" lon="5.17867">
        <ele>835.04</ele>
        <time>2012-05-26T13:00:41Z</time>
      </trkpt>
      <trkpt lat="44.48842" lon="5.17861">
        <ele>834.56</ele>
        <time>2012-05-26T13:00:55Z</time>
      </trkpt>
      <trkpt lat="44.48841" lon="5.17859">
        <ele>834.08</ele>
        <time>2012-05-26T13:01:23Z</time>
      </trkpt>
      <trkpt lat="44.48839" lon="5.17847">
        <ele>833.12</ele>
        <time>2012-05-26T13:01:43Z</time>
      </trkpt>
      <trkpt lat="44.48833" lon="5.17832">
        <ele>832.64</ele>
        <time>2012-05-26T13:01:59Z</time>
      </trkpt>
      <trkpt lat="44.48831" lon="5.17828">
        <ele>832.16</ele>
        <time>2012-05-26T13:02:02Z</time>
      </trkpt>
      <trkpt lat="44.48816" lon="5.17815">
        <ele>831.2</ele>
        <time>2012-05-26T13:02:19Z</time>
      </trkpt>
      <trkpt lat="44.48815" lon="5.17814">
        <ele>831.2</ele>
        <time>2012-05-26T13:02:20Z</time>
      </trkpt>
      <trkpt lat="44.48809" lon="5.17809">
        <ele>830.24</ele>
        <time>2012-05-26T13:02:27Z</time>
      </trkpt>
      <trkpt lat="44.48795" lon="5.17788">
        <ele>826.87</ele>
        <time>2012-05-26T13:02:44Z</time>
      </trkpt>
      <trkpt lat="44.48787" lon="5.17781">
        <ele>825.43</ele>
        <time>2012-05-26T13:02:53Z</time>
      </trkpt>
      <trkpt lat="44.48783" lon="5.17784">
        <ele>824.47</ele>
        <time>2012-05-26T13:02:57Z</time>
      </trkpt>
      <trkpt lat="44.48786" lon="5.17814">
        <ele>822.55</ele>
        <time>2012-05-26T13:03:14Z</time>
      </trkpt>
      <trkpt lat="44.48793" lon="5.17837">
        <ele>821.58</ele>
        <time>2012-05-26T13:03:28Z</time>
      </trkpt>
      <trkpt lat="44.48795" lon="5.17847">
        <ele>820.62</ele>
        <time>2012-05-26T13:03:34Z</time>
      </trkpt>
      <trkpt lat="44.48794" lon="5.17853">
        <ele>820.62</ele>
        <time>2012-05-26T13:03:37Z</time>
      </trkpt>
      <trkpt lat="44.48785" lon="5.17868">
        <ele>819.66</ele>
        <time>2012-05-26T13:03:48Z</time>
      </trkpt>
      <trkpt lat="44.48784" lon="5.17884">
        <ele>818.7</ele>
        <time>2012-05-26T13:03:58Z</time>
      </trkpt>
      <trkpt lat="44.48779" lon="5.17888">
        <ele>817.74</ele>
        <time>2012-05-26T13:04:03Z</time>
      </trkpt>
      <trkpt lat="44.48766" lon="5.17865">
        <ele>815.34</ele>
        <time>2012-05-26T13:04:21Z</time>
      </trkpt>
      <trkpt lat="44.48765" lon="5.17861">
        <ele>814.85</ele>
        <time>2012-05-26T13:04:36Z</time>
      </trkpt>
      <trkpt lat="44.48766" lon="5.1786">
        <ele>814.37</ele>
        <time>2012-05-26T13:05:09Z</time>
      </trkpt>
      <trkpt lat="44.48764" lon="5.17854">
        <ele>813.89</ele>
        <time>2012-05-26T13:05:22Z</time>
      </trkpt>
      <trkpt lat="44.48763" lon="5.1785">
        <ele>813.89</ele>
        <time>2012-05-26T13:05:42Z</time>
      </trkpt>
      <trkpt lat="44.48762" lon="5.1785">
        <ele>813.41</ele>
        <time>2012-05-26T13:06:09Z</time>
      </trkpt>
      <trkpt lat="44.48758" lon="5.17843">
        <ele>812.93</ele>
        <time>2012-05-26T13:06:29Z</time>
      </trkpt>
      <trkpt lat="44.48755" lon="5.17833">
        <ele>811.01</ele>
        <time>2012-05-26T13:06:42Z</time>
      </trkpt>
      <trkpt lat="44.48757" lon="5.17833">
        <ele>811.01</ele>
        <time>2012-05-26T13:07:13Z</time>
      </trkpt>
      <trkpt lat="44.48757" lon="5.17831">
        <ele>810.53</ele>
        <time>2012-05-26T13:07:28Z</time>
      </trkpt>
      <trkpt lat="44.48749" lon="5.1782">
        <ele>810.53</ele>
        <time>2012-05-26T13:07:42Z</time>
      </trkpt>
      <trkpt lat="44.48748" lon="5.17819">
        <ele>809.09</ele>
        <time>2012-05-26T13:07:48Z</time>
      </trkpt>
      <trkpt lat="44.48746" lon="5.17816">
        <ele>808.13</ele>
        <time>2012-05-26T13:07:51Z</time>
      </trkpt>
      <trkpt lat="44.48741" lon="5.1781">
        <ele>807.16</ele>
        <time>2012-05-26T13:07:57Z</time>
      </trkpt>
      <trkpt lat="44.48737" lon="5.17806">
        <ele>806.68</ele>
        <time>2012-05-26T13:08:01Z</time>
      </trkpt>
      <trkpt lat="44.48723" lon="5.17797">
        <ele>804.76</ele>
        <time>2012-05-26T13:08:15Z</time>
      </trkpt>
      <trkpt lat="44.48712" lon="5.17793">
        <ele>803.32</ele>
        <time>2012-05-26T13:08:25Z</time>
      </trkpt>
      <trkpt lat="44.48706" lon="5.17793">
        <ele>802.36</ele>
        <time>2012-05-26T13:08:30Z</time>
      </trkpt>
      <trkpt lat="44.48703" lon="5.17791">
        <ele>801.4</ele>
        <time>2012-05-26T13:08:33Z</time>
      </trkpt>
      <trkpt lat="44.48689" lon="5.17782">
        <ele>798.99</ele>
        <time>2012-05-26T13:08:46Z</time>
      </trkpt>
      <trkpt lat="44.48679" lon="5.17773">
        <ele>796.59</ele>
        <time>2012-05-26T13:08:57Z</time>
      </trkpt>
      <trkpt lat="44.48673" lon="5.17768">
        <ele>795.63</ele>
        <time>2012-05-26T13:09:02Z</time>
      </trkpt>
      <trkpt lat="44.48659" lon="5.17759">
        <ele>792.74</ele>
        <time>2012-05-26T13:09:14Z</time>
      </trkpt>
      <trkpt lat="44.48655" lon="5.17755">
        <ele>792.26</ele>
        <time>2012-05-26T13:09:17Z</time>
      </trkpt>
      <trkpt lat="44.48649" lon="5.1775">
        <ele>790.82</ele>
        <time>2012-05-26T13:09:22Z</time>
      </trkpt>
      <trkpt lat="44.48643" lon="5.17744">
        <ele>789.86</ele>
        <time>2012-05-26T13:09:27Z</time>
      </trkpt>
      <trkpt lat="44.4864" lon="5.17739">
        <ele>788.9</ele>
        <time>2012-05-26T13:09:30Z</time>
      </trkpt>
      <trkpt lat="44.48632" lon="5.17731">
        <ele>786.98</ele>
        <time>2012-05-26T13:09:38Z</time>
      </trkpt>
      <trkpt lat="44.48618" lon="5.1771">
        <ele>784.09</ele>
        <time>2012-05-26T13:09:54Z</time>
      </trkpt>
      <trkpt lat="44.48612" lon="5.17705">
        <ele>783.61</ele>
        <time>2012-05-26T13:09:59Z</time>
      </trkpt>
      <trkpt lat="44.48609" lon="5.177">
        <ele>783.13</ele>
        <time>2012-05-26T13:10:03Z</time>
      </trkpt>
      <trkpt lat="44.48602" lon="5.1769">
        <ele>781.69</ele>
        <time>2012-05-26T13:10:10Z</time>
      </trkpt>
      <trkpt lat="44.48598" lon="5.17684">
        <ele>780.73</ele>
        <time>2012-05-26T13:10:14Z</time>
      </trkpt>
      <trkpt lat="44.48594" lon="5.17684">
        <ele>780.25</ele>
        <time>2012-05-26T13:10:17Z</time>
      </trkpt>
      <trkpt lat="44.48596" lon="5.17701">
        <ele>777.84</ele>
        <time>2012-05-26T13:10:28Z</time>
      </trkpt>
      <trkpt lat="44.48598" lon="5.17707">
        <ele>777.36</ele>
        <time>2012-05-26T13:10:31Z</time>
      </trkpt>
      <trkpt lat="44.48599" lon="5.1771">
        <ele>776.88</ele>
        <time>2012-05-26T13:10:35Z</time>
      </trkpt>
      <trkpt lat="44.486" lon="5.17728">
        <ele>775.92</ele>
        <time>2012-05-26T13:10:44Z</time>
      </trkpt>
      <trkpt lat="44.486" lon="5.17735">
        <ele>775.44</ele>
        <time>2012-05-26T13:10:48Z</time>
      </trkpt>
      <trkpt lat="44.486" lon="5.17765">
        <ele>774.96</ele>
        <time>2012-05-26T13:11:04Z</time>
      </trkpt>
      <trkpt lat="44.486" lon="5.17773">
        <ele>774.48</ele>
        <time>2012-05-26T13:11:09Z</time>
      </trkpt>
      <trkpt lat="44.48588" lon="5.17787">
        <ele>773.52</ele>
        <time>2012-05-26T13:11:23Z</time>
      </trkpt>
      <trkpt lat="44.48584" lon="5.17793">
        <ele>773.04</ele>
        <time>2012-05-26T13:11:27Z</time>
      </trkpt>
      <trkpt lat="44.4858" lon="5.17804">
        <ele>772.56</ele>
        <time>2012-05-26T13:11:32Z</time>
      </trkpt>
      <trkpt lat="44.48578" lon="5.17817">
        <ele>771.11</ele>
        <time>2012-05-26T13:11:41Z</time>
      </trkpt>
      <trkpt lat="44.48558" lon="5.17807">
        <ele>768.23</ele>
        <time>2012-05-26T13:11:55Z</time>
      </trkpt>
      <trkpt lat="44.48547" lon="5.17791">
        <ele>766.31</ele>
        <time>2012-05-26T13:12:05Z</time>
      </trkpt>
      <trkpt lat="44.48533" lon="5.17771">
        <ele>763.42</ele>
        <time>2012-05-26T13:12:20Z</time>
      </trkpt>
      <trkpt lat="44.48531" lon="5.17767">
        <ele>762.46</ele>
        <time>2012-05-26T13:12:22Z</time>
      </trkpt>
      <trkpt lat="44.48518" lon="5.17741">
        <ele>760.06</ele>
        <time>2012-05-26T13:12:36Z</time>
      </trkpt>
      <trkpt lat="44.48505" lon="5.17728">
        <ele>757.18</ele>
        <time>2012-05-26T13:12:49Z</time>
      </trkpt>
      <trkpt lat="44.48491" lon="5.17712">
        <ele>755.25</ele>
        <time>2012-05-26T13:13:02Z</time>
      </trkpt>
      <trkpt lat="44.48486" lon="5.17708">
        <ele>754.77</ele>
        <time>2012-05-26T13:13:06Z</time>
      </trkpt>
      <trkpt lat="44.4848" lon="5.17702">
        <ele>753.81</ele>
        <time>2012-05-26T13:13:11Z</time>
      </trkpt>
      <trkpt lat="44.48467" lon="5.17681">
        <ele>751.89</ele>
        <time>2012-05-26T13:13:24Z</time>
      </trkpt>
      <trkpt lat="44.48463" lon="5.17671">
        <ele>750.45</ele>
        <time>2012-05-26T13:13:30Z</time>
      </trkpt>
      <trkpt lat="44.48459" lon="5.17655">
        <ele>749</ele>
        <time>2012-05-26T13:13:39Z</time>
      </trkpt>
      <trkpt lat="44.48451" lon="5.17627">
        <ele>746.6</ele>
        <time>2012-05-26T13:13:55Z</time>
      </trkpt>
      <trkpt lat="44.48449" lon="5.17624">
        <ele>746.12</ele>
        <time>2012-05-26T13:13:58Z</time>
      </trkpt>
      <trkpt lat="44.48447" lon="5.17622">
        <ele>748.52</ele>
        <time>2012-05-26T13:14:00Z</time>
      </trkpt>
      <trkpt lat="44.48446" lon="5.17621">
        <ele>744.68</ele>
        <time>2012-05-26T13:14:01Z</time>
      </trkpt>
      <trkpt lat="44.48446" lon="5.1762">
        <ele>748.04</ele>
        <time>2012-05-26T13:14:02Z</time>
      </trkpt>
      <trkpt lat="44.48444" lon="5.17617">
        <ele>742.76</ele>
        <time>2012-05-26T13:14:04Z</time>
      </trkpt>
      <trkpt lat="44.48443" lon="5.17615">
        <ele>747.08</ele>
        <time>2012-05-26T13:14:05Z</time>
      </trkpt>
      <trkpt lat="44.48438" lon="5.17604">
        <ele>744.2</ele>
        <time>2012-05-26T13:14:19Z</time>
      </trkpt>
      <trkpt lat="44.48432" lon="5.17598">
        <ele>743.24</ele>
        <time>2012-05-26T13:14:28Z</time>
      </trkpt>
      <trkpt lat="44.48428" lon="5.17593">
        <ele>742.28</ele>
        <time>2012-05-26T13:14:32Z</time>
      </trkpt>
      <trkpt lat="44.48418" lon="5.17577">
        <ele>740.83</ele>
        <time>2012-05-26T13:14:44Z</time>
      </trkpt>
      <trkpt lat="44.48412" lon="5.17568">
        <ele>739.87</ele>
        <time>2012-05-26T13:14:51Z</time>
      </trkpt>
      <trkpt lat="44.48407" lon="5.17562">
        <ele>738.91</ele>
        <time>2012-05-26T13:14:56Z</time>
      </trkpt>
      <trkpt lat="44.48398" lon="5.17549">
        <ele>737.47</ele>
        <time>2012-05-26T13:15:05Z</time>
      </trkpt>
      <trkpt lat="44.48388" lon="5.17526">
        <ele>736.03</ele>
        <time>2012-05-26T13:15:18Z</time>
      </trkpt>
      <trkpt lat="44.48379" lon="5.17505">
        <ele>734.1</ele>
        <time>2012-05-26T13:15:31Z</time>
      </trkpt>
      <trkpt lat="44.48373" lon="5.17492">
        <ele>733.14</ele>
        <time>2012-05-26T13:15:40Z</time>
      </trkpt>
      <trkpt lat="44.48369" lon="5.1748">
        <ele>733.62</ele>
        <time>2012-05-26T13:15:47Z</time>
      </trkpt>
      <trkpt lat="44.48367" lon="5.17475">
        <ele>731.7</ele>
        <time>2012-05-26T13:15:50Z</time>
      </trkpt>
      <trkpt lat="44.48353" lon="5.17459">
        <ele>730.26</ele>
        <time>2012-05-26T13:16:03Z</time>
      </trkpt>
      <trkpt lat="44.48341" lon="5.17446">
        <ele>728.34</ele>
        <time>2012-05-26T13:16:14Z</time>
      </trkpt>
      <trkpt lat="44.48332" lon="5.17423">
        <ele>725.45</ele>
        <time>2012-05-26T13:16:27Z</time>
      </trkpt>
      <trkpt lat="44.4833" lon="5.17417">
        <ele>724.97</ele>
        <time>2012-05-26T13:16:30Z</time>
      </trkpt>
      <trkpt lat="44.48329" lon="5.17411">
        <ele>724.49</ele>
        <time>2012-05-26T13:16:42Z</time>
      </trkpt>
      <trkpt lat="44.4833" lon="5.17415">
        <ele>724.49</ele>
        <time>2012-05-26T13:16:47Z</time>
      </trkpt>
      <trkpt lat="44.48332" lon="5.17423">
        <ele>725.45</ele>
        <time>2012-05-26T13:17:02Z</time>
      </trkpt>
      <trkpt lat="44.48328" lon="5.17414">
        <ele>724.01</ele>
        <time>2012-05-26T13:17:16Z</time>
      </trkpt>
      <trkpt lat="44.48329" lon="5.17406">
        <ele>722.57</ele>
        <time>2012-05-26T13:17:35Z</time>
      </trkpt>
      <trkpt lat="44.48329" lon="5.17398">
        <ele>721.61</ele>
        <time>2012-05-26T13:17:41Z</time>
      </trkpt>
      <trkpt lat="44.48333" lon="5.17375">
        <ele>720.16</ele>
        <time>2012-05-26T13:17:53Z</time>
      </trkpt>
      <trkpt lat="44.48334" lon="5.17351">
        <ele>718.24</ele>
        <time>2012-05-26T13:18:09Z</time>
      </trkpt>
      <trkpt lat="44.48334" lon="5.1735">
        <ele>718.24</ele>
        <time>2012-05-26T13:18:10Z</time>
      </trkpt>
      <trkpt lat="44.48331" lon="5.17324">
        <ele>716.8</ele>
        <time>2012-05-26T13:18:25Z</time>
      </trkpt>
      <trkpt lat="44.48327" lon="5.17302">
        <ele>715.36</ele>
        <time>2012-05-26T13:18:37Z</time>
      </trkpt>
      <trkpt lat="44.48327" lon="5.17289">
        <ele>714.4</ele>
        <time>2012-05-26T13:18:44Z</time>
      </trkpt>
      <trkpt lat="44.48324" lon="5.17268">
        <ele>713.44</ele>
        <time>2012-05-26T13:18:55Z</time>
      </trkpt>
      <trkpt lat="44.48323" lon="5.17261">
        <ele>712.95</ele>
        <time>2012-05-26T13:18:59Z</time>
      </trkpt>
      <trkpt lat="44.48323" lon="5.17257">
        <ele>712.47</ele>
        <time>2012-05-26T13:19:01Z</time>
      </trkpt>
      <trkpt lat="44.48324" lon="5.17252">
        <ele>711.99</ele>
        <time>2012-05-26T13:19:04Z</time>
      </trkpt>
      <trkpt lat="44.48327" lon="5.17237">
        <ele>710.55</ele>
        <time>2012-05-26T13:19:12Z</time>
      </trkpt>
      <trkpt lat="44.48331" lon="5.17228">
        <ele>709.59</ele>
        <time>2012-05-26T13:19:18Z</time>
      </trkpt>
      <trkpt lat="44.48334" lon="5.1722">
        <ele>709.11</ele>
        <time>2012-05-26T13:19:23Z</time>
      </trkpt>
      <trkpt lat="44.48336" lon="5.17216">
        <ele>709.11</ele>
        <time>2012-05-26T13:19:26Z</time>
      </trkpt>
      <trkpt lat="44.48337" lon="5.17213">
        <ele>708.63</ele>
        <time>2012-05-26T13:19:28Z</time>
      </trkpt>
      <trkpt lat="44.48342" lon="5.17199">
        <ele>708.15</ele>
        <time>2012-05-26T13:19:37Z</time>
      </trkpt>
      <trkpt lat="44.48346" lon="5.1719">
        <ele>708.15</ele>
        <time>2012-05-26T13:19:42Z</time>
      </trkpt>
      <trkpt lat="44.48348" lon="5.17184">
        <ele>708.15</ele>
        <time>2012-05-26T13:19:46Z</time>
      </trkpt>
      <trkpt lat="44.48353" lon="5.17175">
        <ele>707.67</ele>
        <time>2012-05-26T13:19:51Z</time>
      </trkpt>
      <trkpt lat="44.48356" lon="5.17173">
        <ele>706.71</ele>
        <time>2012-05-26T13:19:54Z</time>
      </trkpt>
      <trkpt lat="44.48369" lon="5.17157">
        <ele>705.75</ele>
        <time>2012-05-26T13:20:07Z</time>
      </trkpt>
      <trkpt lat="44.4838" lon="5.17142">
        <ele>703.82</ele>
        <time>2012-05-26T13:20:20Z</time>
      </trkpt>
      <trkpt lat="44.48381" lon="5.17141">
        <ele>703.82</ele>
        <time>2012-05-26T13:20:21Z</time>
      </trkpt>
      <trkpt lat="44.48393" lon="5.17132">
        <ele>702.86</ele>
        <time>2012-05-26T13:20:32Z</time>
      </trkpt>
      <trkpt lat="44.48398" lon="5.17127">
        <ele>702.38</ele>
        <time>2012-05-26T13:20:36Z</time>
      </trkpt>
      <trkpt lat="44.4841" lon="5.17111">
        <ele>701.42</ele>
        <time>2012-05-26T13:20:49Z</time>
      </trkpt>
      <trkpt lat="44.48411" lon="5.1711">
        <ele>701.42</ele>
        <time>2012-05-26T13:20:51Z</time>
      </trkpt>
      <trkpt lat="44.48412" lon="5.17107">
        <ele>700.94</ele>
        <time>2012-05-26T13:20:53Z</time>
      </trkpt>
      <trkpt lat="44.48415" lon="5.17104">
        <ele>700.94</ele>
        <time>2012-05-26T13:20:57Z</time>
      </trkpt>
      <trkpt lat="44.48424" lon="5.17086">
        <ele>699.98</ele>
        <time>2012-05-26T13:21:10Z</time>
      </trkpt>
      <trkpt lat="44.48424" lon="5.17084">
        <ele>699.98</ele>
        <time>2012-05-26T13:21:11Z</time>
      </trkpt>
      <trkpt lat="44.48426" lon="5.17079">
        <ele>699.98</ele>
        <time>2012-05-26T13:21:14Z</time>
      </trkpt>
      <trkpt lat="44.48432" lon="5.17056">
        <ele>698.53</ele>
        <time>2012-05-26T13:21:28Z</time>
      </trkpt>
      <trkpt lat="44.48432" lon="5.17054">
        <ele>698.53</ele>
        <time>2012-05-26T13:21:30Z</time>
      </trkpt>
      <trkpt lat="44.48435" lon="5.17049">
        <ele>698.53</ele>
        <time>2012-05-26T13:21:33Z</time>
      </trkpt>
      <trkpt lat="44.48439" lon="5.17031">
        <ele>697.57</ele>
        <time>2012-05-26T13:21:44Z</time>
      </trkpt>
      <trkpt lat="44.48442" lon="5.17026">
        <ele>699.02</ele>
        <time>2012-05-26T13:21:50Z</time>
      </trkpt>
      <trkpt lat="44.48444" lon="5.17022">
        <ele>697.09</ele>
        <time>2012-05-26T13:21:53Z</time>
      </trkpt>
      <trkpt lat="44.48445" lon="5.17007">
        <ele>696.61</ele>
        <time>2012-05-26T13:22:03Z</time>
      </trkpt>
      <trkpt lat="44.48448" lon="5.16997">
        <ele>696.13</ele>
        <time>2012-05-26T13:22:10Z</time>
      </trkpt>
      <trkpt lat="44.48448" lon="5.16988">
        <ele>695.65</ele>
        <time>2012-05-26T13:22:16Z</time>
      </trkpt>
      <trkpt lat="44.48453" lon="5.16974">
        <ele>695.17</ele>
        <time>2012-05-26T13:22:25Z</time>
      </trkpt>
      <trkpt lat="44.48454" lon="5.16971">
        <ele>695.17</ele>
        <time>2012-05-26T13:22:27Z</time>
      </trkpt>
      <trkpt lat="44.48458" lon="5.16945">
        <ele>694.69</ele>
        <time>2012-05-26T13:22:42Z</time>
      </trkpt>
      <trkpt lat="44.48466" lon="5.16923">
        <ele>694.69</ele>
        <time>2012-05-26T13:22:55Z</time>
      </trkpt>
      <trkpt lat="44.48466" lon="5.16924">
        <ele>694.21</ele>
        <time>2012-05-26T13:22:57Z</time>
      </trkpt>
      <trkpt lat="44.48475" lon="5.16915">
        <ele>693.73</ele>
        <time>2012-05-26T13:23:05Z</time>
      </trkpt>
      <trkpt lat="44.48488" lon="5.16904">
        <ele>692.77</ele>
        <time>2012-05-26T13:23:16Z</time>
      </trkpt>
      <trkpt lat="44.48492" lon="5.16897">
        <ele>692.77</ele>
        <time>2012-05-26T13:23:24Z</time>
      </trkpt>
      <trkpt lat="44.48496" lon="5.16887">
        <ele>691.81</ele>
        <time>2012-05-26T13:23:32Z</time>
      </trkpt>
      <trkpt lat="44.48501" lon="5.16868">
        <ele>690.36</ele>
        <time>2012-05-26T13:23:43Z</time>
      </trkpt>
      <trkpt lat="44.48504" lon="5.16857">
        <ele>689.88</ele>
        <time>2012-05-26T13:23:49Z</time>
      </trkpt>
      <trkpt lat="44.48507" lon="5.16851">
        <ele>687.96</ele>
        <time>2012-05-26T13:23:54Z</time>
      </trkpt>
      <trkpt lat="44.48508" lon="5.16848">
        <ele>687.96</ele>
        <time>2012-05-26T13:23:56Z</time>
      </trkpt>
      <trkpt lat="44.4851" lon="5.16844">
        <ele>686.52</ele>
        <time>2012-05-26T13:23:59Z</time>
      </trkpt>
      <trkpt lat="44.48512" lon="5.16841">
        <ele>687.48</ele>
        <time>2012-05-26T13:24:01Z</time>
      </trkpt>
      <trkpt lat="44.4852" lon="5.16826">
        <ele>687</ele>
        <time>2012-05-26T13:24:12Z</time>
      </trkpt>
      <trkpt lat="44.48531" lon="5.16797">
        <ele>685.56</ele>
        <time>2012-05-26T13:24:29Z</time>
      </trkpt>
      <trkpt lat="44.48533" lon="5.16793">
        <ele>685.56</ele>
        <time>2012-05-26T13:24:32Z</time>
      </trkpt>
      <trkpt lat="44.48535" lon="5.1678">
        <ele>684.6</ele>
        <time>2012-05-26T13:24:45Z</time>
      </trkpt>
      <trkpt lat="44.48536" lon="5.1677">
        <ele>684.12</ele>
        <time>2012-05-26T13:24:51Z</time>
      </trkpt>
      <trkpt lat="44.48539" lon="5.16748">
        <ele>683.15</ele>
        <time>2012-05-26T13:25:04Z</time>
      </trkpt>
      <trkpt lat="44.48539" lon="5.16739">
        <ele>682.67</ele>
        <time>2012-05-26T13:25:10Z</time>
      </trkpt>
      <trkpt lat="44.4854" lon="5.16736">
        <ele>682.67</ele>
        <time>2012-05-26T13:25:13Z</time>
      </trkpt>
      <trkpt lat="44.48543" lon="5.16718">
        <ele>681.23</ele>
        <time>2012-05-26T13:25:23Z</time>
      </trkpt>
      <trkpt lat="44.48547" lon="5.16703">
        <ele>680.27</ele>
        <time>2012-05-26T13:25:31Z</time>
      </trkpt>
      <trkpt lat="44.48556" lon="5.16681">
        <ele>678.83</ele>
        <time>2012-05-26T13:25:45Z</time>
      </trkpt>
      <trkpt lat="44.48563" lon="5.16665">
        <ele>677.87</ele>
        <time>2012-05-26T13:25:56Z</time>
      </trkpt>
      <trkpt lat="44.48569" lon="5.16655">
        <ele>677.39</ele>
        <time>2012-05-26T13:26:05Z</time>
      </trkpt>
      <trkpt lat="44.48575" lon="5.16646">
        <ele>677.39</ele>
        <time>2012-05-26T13:26:12Z</time>
      </trkpt>
      <trkpt lat="44.48589" lon="5.16631">
        <ele>677.39</ele>
        <time>2012-05-26T13:26:26Z</time>
      </trkpt>
      <trkpt lat="44.48591" lon="5.16629">
        <ele>676.91</ele>
        <time>2012-05-26T13:26:28Z</time>
      </trkpt>
      <trkpt lat="44.48594" lon="5.16622">
        <ele>676.91</ele>
        <time>2012-05-26T13:26:32Z</time>
      </trkpt>
      <trkpt lat="44.48601" lon="5.16616">
        <ele>676.42</ele>
        <time>2012-05-26T13:26:37Z</time>
      </trkpt>
      <trkpt lat="44.48605" lon="5.16611">
        <ele>676.42</ele>
        <time>2012-05-26T13:26:41Z</time>
      </trkpt>
      <trkpt lat="44.48619" lon="5.16592">
        <ele>674.5</ele>
        <time>2012-05-26T13:26:56Z</time>
      </trkpt>
      <trkpt lat="44.48631" lon="5.16579">
        <ele>673.54</ele>
        <time>2012-05-26T13:27:08Z</time>
      </trkpt>
      <trkpt lat="44.48636" lon="5.16573">
        <ele>672.58</ele>
        <time>2012-05-26T13:27:13Z</time>
      </trkpt>
      <trkpt lat="44.48646" lon="5.16562">
        <ele>672.1</ele>
        <time>2012-05-26T13:27:26Z</time>
      </trkpt>
      <trkpt lat="44.48655" lon="5.1655">
        <ele>671.62</ele>
        <time>2012-05-26T13:27:38Z</time>
      </trkpt>
      <trkpt lat="44.48663" lon="5.16538">
        <ele>670.66</ele>
        <time>2012-05-26T13:27:48Z</time>
      </trkpt>
      <trkpt lat="44.48666" lon="5.16535">
        <ele>671.62</ele>
        <time>2012-05-26T13:27:52Z</time>
      </trkpt>
      <trkpt lat="44.4868" lon="5.16513">
        <ele>669.22</ele>
        <time>2012-05-26T13:28:06Z</time>
      </trkpt>
      <trkpt lat="44.48693" lon="5.16497">
        <ele>667.77</ele>
        <time>2012-05-26T13:28:19Z</time>
      </trkpt>
      <trkpt lat="44.48699" lon="5.16491">
        <ele>667.77</ele>
        <time>2012-05-26T13:28:24Z</time>
      </trkpt>
      <trkpt lat="44.48712" lon="5.16478">
        <ele>666.81</ele>
        <time>2012-05-26T13:28:37Z</time>
      </trkpt>
      <trkpt lat="44.48721" lon="5.16463">
        <ele>665.85</ele>
        <time>2012-05-26T13:28:47Z</time>
      </trkpt>
      <trkpt lat="44.48728" lon="5.16452">
        <ele>665.37</ele>
        <time>2012-05-26T13:28:56Z</time>
      </trkpt>
      <trkpt lat="44.48739" lon="5.16431">
        <ele>664.41</ele>
        <time>2012-05-26T13:29:11Z</time>
      </trkpt>
      <trkpt lat="44.48746" lon="5.16413">
        <ele>662.97</ele>
        <time>2012-05-26T13:29:23Z</time>
      </trkpt>
      <trkpt lat="44.48749" lon="5.16399">
        <ele>662.01</ele>
        <time>2012-05-26T13:29:32Z</time>
      </trkpt>
      <trkpt lat="44.48753" lon="5.16383">
        <ele>661.04</ele>
        <time>2012-05-26T13:29:43Z</time>
      </trkpt>
      <trkpt lat="44.48754" lon="5.1638">
        <ele>661.04</ele>
        <time>2012-05-26T13:29:45Z</time>
      </trkpt>
      <trkpt lat="44.48764" lon="5.16357">
        <ele>660.08</ele>
        <time>2012-05-26T13:29:58Z</time>
      </trkpt>
      <trkpt lat="44.4877" lon="5.1634">
        <ele>659.6</ele>
        <time>2012-05-26T13:30:08Z</time>
      </trkpt>
      <trkpt lat="44.48779" lon="5.1632">
        <ele>658.64</ele>
        <time>2012-05-26T13:30:22Z</time>
      </trkpt>
      <trkpt lat="44.48787" lon="5.163">
        <ele>657.2</ele>
        <time>2012-05-26T13:30:35Z</time>
      </trkpt>
      <trkpt lat="44.48793" lon="5.16283">
        <ele>656.72</ele>
        <time>2012-05-26T13:30:45Z</time>
      </trkpt>
      <trkpt lat="44.48795" lon="5.16264">
        <ele>655.28</ele>
        <time>2012-05-26T13:30:55Z</time>
      </trkpt>
      <trkpt lat="44.488" lon="5.16241">
        <ele>654.31</ele>
        <time>2012-05-26T13:31:07Z</time>
      </trkpt>
      <trkpt lat="44.48802" lon="5.16234">
        <ele>654.31</ele>
        <time>2012-05-26T13:31:11Z</time>
      </trkpt>
      <trkpt lat="44.48803" lon="5.16227">
        <ele>653.83</ele>
        <time>2012-05-26T13:31:15Z</time>
      </trkpt>
      <trkpt lat="44.48813" lon="5.16202">
        <ele>651.91</ele>
        <time>2012-05-26T13:31:31Z</time>
      </trkpt>
      <trkpt lat="44.48819" lon="5.1619">
        <ele>652.39</ele>
        <time>2012-05-26T13:31:39Z</time>
      </trkpt>
      <trkpt lat="44.48822" lon="5.16186">
        <ele>652.39</ele>
        <time>2012-05-26T13:31:42Z</time>
      </trkpt>
      <trkpt lat="44.48827" lon="5.16181">
        <ele>652.39</ele>
        <time>2012-05-26T13:31:46Z</time>
      </trkpt>
      <trkpt lat="44.48842" lon="5.16168">
        <ele>650.95</ele>
        <time>2012-05-26T13:32:01Z</time>
      </trkpt>
      <trkpt lat="44.48859" lon="5.16161">
        <ele>650.95</ele>
        <time>2012-05-26T13:32:14Z</time>
      </trkpt>
      <trkpt lat="44.48864" lon="5.16156">
        <ele>650.95</ele>
        <time>2012-05-26T13:32:19Z</time>
      </trkpt>
      <trkpt lat="44.48876" lon="5.16145">
        <ele>650.47</ele>
        <time>2012-05-26T13:32:32Z</time>
      </trkpt>
      <trkpt lat="44.48886" lon="5.16134">
        <ele>649.99</ele>
        <time>2012-05-26T13:32:45Z</time>
      </trkpt>
      <trkpt lat="44.48891" lon="5.1613">
        <ele>649.51</ele>
        <time>2012-05-26T13:32:57Z</time>
      </trkpt>
      <trkpt lat="44.48891" lon="5.16128">
        <ele>649.51</ele>
        <time>2012-05-26T13:33:18Z</time>
      </trkpt>
      <trkpt lat="44.4889" lon="5.16128">
        <ele>649.99</ele>
        <time>2012-05-26T13:33:27Z</time>
      </trkpt>
      <trkpt lat="44.48889" lon="5.16128">
        <ele>646.62</ele>
        <time>2012-05-26T13:33:30Z</time>
      </trkpt>
      <trkpt lat="44.48889" lon="5.16128">
        <ele>650.47</ele>
        <time>2012-05-26T13:33:31Z</time>
      </trkpt>
      <trkpt lat="44.48888" lon="5.16128">
        <ele>649.03</ele>
        <time>2012-05-26T13:33:54Z</time>
      </trkpt>
    </trkseg>
  </trk>
</gpx>